<?xml version="1.0" encoding="UTF-8" standalone="no" ?>
<gpx xmlns="http://www.topografix.com/GPX/1/1" xmlns:xsi="http://www.w3.org/2001/XMLSchema-instance" xsi:schemaLocation="http://www.topografix.com/GPX/1/1 http://www.topografix.com/GPX/1/1/gpx.xsd" version="1.1" creator="VisuGPX - https://www.visugpx.com">
  <metadata>
    <name>Vacances 2021</name>
  </metadata>
  <trk>
    <name><![CDATA[Journal actif: 2021-07-19 12:41]]></name>
    <trkseg>
      <trkpt lat="48.95363" lon="7.94264">
        <ele>165.48</ele>
        <time>2021-07-19T14:41:19Z</time>
      </trkpt>
      <trkpt lat="48.95363" lon="7.94239">
        <ele>163.08</ele>
        <time>2021-07-19T14:41:22Z</time>
      </trkpt>
      <trkpt lat="48.95362" lon="7.9423">
        <ele>162.6</ele>
        <time>2021-07-19T14:41:23Z</time>
      </trkpt>
      <trkpt lat="48.95362" lon="7.94221">
        <ele>161.64</ele>
        <time>2021-07-19T14:41:24Z</time>
      </trkpt>
      <trkpt lat="48.95349" lon="7.94165">
        <ele>161.16</ele>
        <time>2021-07-19T14:41:35Z</time>
      </trkpt>
      <trkpt lat="48.95337" lon="7.94121">
        <ele>158.27</ele>
        <time>2021-07-19T14:41:49Z</time>
      </trkpt>
      <trkpt lat="48.95328" lon="7.941">
        <ele>157.79</ele>
        <time>2021-07-19T14:41:54Z</time>
      </trkpt>
      <trkpt lat="48.95318" lon="7.94087">
        <ele>157.31</ele>
        <time>2021-07-19T14:41:57Z</time>
      </trkpt>
      <trkpt lat="48.95314" lon="7.94083">
        <ele>156.83</ele>
        <time>2021-07-19T14:41:58Z</time>
      </trkpt>
      <trkpt lat="48.95311" lon="7.94078">
        <ele>156.83</ele>
        <time>2021-07-19T14:41:59Z</time>
      </trkpt>
      <trkpt lat="48.95308" lon="7.94074">
        <ele>155.39</ele>
        <time>2021-07-19T14:42:00Z</time>
      </trkpt>
      <trkpt lat="48.95305" lon="7.94071">
        <ele>153.95</ele>
        <time>2021-07-19T14:42:01Z</time>
      </trkpt>
      <trkpt lat="48.95307" lon="7.94058">
        <ele>153.47</ele>
        <time>2021-07-19T14:42:02Z</time>
      </trkpt>
      <trkpt lat="48.95309" lon="7.94052">
        <ele>152.99</ele>
        <time>2021-07-19T14:42:03Z</time>
      </trkpt>
      <trkpt lat="48.95311" lon="7.94044">
        <ele>152.99</ele>
        <time>2021-07-19T14:42:04Z</time>
      </trkpt>
      <trkpt lat="48.95314" lon="7.94035">
        <ele>153.95</ele>
        <time>2021-07-19T14:42:05Z</time>
      </trkpt>
      <trkpt lat="48.95349" lon="7.93928">
        <ele>153.95</ele>
        <time>2021-07-19T14:42:16Z</time>
      </trkpt>
      <trkpt lat="48.95408" lon="7.93808">
        <ele>154.91</ele>
        <time>2021-07-19T14:42:30Z</time>
      </trkpt>
      <trkpt lat="48.95481" lon="7.93733">
        <ele>156.83</ele>
        <time>2021-07-19T14:42:42Z</time>
      </trkpt>
      <trkpt lat="48.95513" lon="7.93715">
        <ele>157.31</ele>
        <time>2021-07-19T14:42:50Z</time>
      </trkpt>
      <trkpt lat="48.9552" lon="7.93711">
        <ele>157.31</ele>
        <time>2021-07-19T14:43:52Z</time>
      </trkpt>
      <trkpt lat="48.95523" lon="7.9371">
        <ele>157.31</ele>
        <time>2021-07-19T14:43:53Z</time>
      </trkpt>
      <trkpt lat="48.95531" lon="7.93711">
        <ele>157.79</ele>
        <time>2021-07-19T14:43:54Z</time>
      </trkpt>
      <trkpt lat="48.95533" lon="7.93716">
        <ele>157.79</ele>
        <time>2021-07-19T14:43:55Z</time>
      </trkpt>
      <trkpt lat="48.95535" lon="7.93721">
        <ele>157.79</ele>
        <time>2021-07-19T14:43:56Z</time>
      </trkpt>
      <trkpt lat="48.95579" lon="7.93763">
        <ele>159.24</ele>
        <time>2021-07-19T14:44:05Z</time>
      </trkpt>
      <trkpt lat="48.95586" lon="7.93767">
        <ele>159.72</ele>
        <time>2021-07-19T14:44:06Z</time>
      </trkpt>
      <trkpt lat="48.95659" lon="7.93785">
        <ele>166.45</ele>
        <time>2021-07-19T14:44:17Z</time>
      </trkpt>
      <trkpt lat="48.95698" lon="7.93794">
        <ele>170.29</ele>
        <time>2021-07-19T14:44:25Z</time>
      </trkpt>
      <trkpt lat="48.95786" lon="7.93812">
        <ele>176.06</ele>
        <time>2021-07-19T14:44:35Z</time>
      </trkpt>
      <trkpt lat="48.95794" lon="7.93812">
        <ele>176.54</ele>
        <time>2021-07-19T14:44:36Z</time>
      </trkpt>
      <trkpt lat="48.95851" lon="7.93814">
        <ele>179.9</ele>
        <time>2021-07-19T14:44:43Z</time>
      </trkpt>
      <trkpt lat="48.95861" lon="7.93814">
        <ele>179.9</ele>
        <time>2021-07-19T14:44:47Z</time>
      </trkpt>
      <trkpt lat="48.95862" lon="7.93814">
        <ele>179.9</ele>
        <time>2021-07-19T14:44:48Z</time>
      </trkpt>
      <trkpt lat="48.95859" lon="7.93819">
        <ele>179.9</ele>
        <time>2021-07-19T14:44:49Z</time>
      </trkpt>
      <trkpt lat="48.95859" lon="7.93819">
        <ele>179.42</ele>
        <time>2021-07-19T14:44:50Z</time>
      </trkpt>
      <trkpt lat="48.95856" lon="7.93823">
        <ele>179.42</ele>
        <time>2021-07-19T14:44:51Z</time>
      </trkpt>
      <trkpt lat="48.95852" lon="7.93829">
        <ele>178.94</ele>
        <time>2021-07-19T14:44:52Z</time>
      </trkpt>
      <trkpt lat="48.9581" lon="7.93888">
        <ele>174.62</ele>
        <time>2021-07-19T14:44:59Z</time>
      </trkpt>
      <trkpt lat="48.95709" lon="7.93992">
        <ele>171.25</ele>
        <time>2021-07-19T14:45:08Z</time>
      </trkpt>
      <trkpt lat="48.95575" lon="7.94141">
        <ele>170.77</ele>
        <time>2021-07-19T14:45:19Z</time>
      </trkpt>
      <trkpt lat="48.95519" lon="7.94265">
        <ele>169.81</ele>
        <time>2021-07-19T14:45:27Z</time>
      </trkpt>
      <trkpt lat="48.955" lon="7.94321">
        <ele>165.48</ele>
        <time>2021-07-19T14:45:34Z</time>
      </trkpt>
      <trkpt lat="48.95495" lon="7.94336">
        <ele>166.93</ele>
        <time>2021-07-19T14:45:40Z</time>
      </trkpt>
      <trkpt lat="48.95495" lon="7.94336">
        <ele>166.93</ele>
        <time>2021-07-19T14:45:41Z</time>
      </trkpt>
      <trkpt lat="48.95499" lon="7.94339">
        <ele>166.45</ele>
        <time>2021-07-19T14:45:42Z</time>
      </trkpt>
      <trkpt lat="48.95503" lon="7.94343">
        <ele>166.45</ele>
        <time>2021-07-19T14:45:43Z</time>
      </trkpt>
      <trkpt lat="48.95507" lon="7.94348">
        <ele>166.93</ele>
        <time>2021-07-19T14:45:44Z</time>
      </trkpt>
      <trkpt lat="48.95556" lon="7.94401">
        <ele>169.33</ele>
        <time>2021-07-19T14:45:51Z</time>
      </trkpt>
      <trkpt lat="48.95634" lon="7.945">
        <ele>162.6</ele>
        <time>2021-07-19T14:45:59Z</time>
      </trkpt>
      <trkpt lat="48.95759" lon="7.94688">
        <ele>153.47</ele>
        <time>2021-07-19T14:46:09Z</time>
      </trkpt>
      <trkpt lat="48.95931" lon="7.94919">
        <ele>148.66</ele>
        <time>2021-07-19T14:46:20Z</time>
      </trkpt>
      <trkpt lat="48.9602" lon="7.9509">
        <ele>147.7</ele>
        <time>2021-07-19T14:46:28Z</time>
      </trkpt>
      <trkpt lat="48.9612" lon="7.95255">
        <ele>146.26</ele>
        <time>2021-07-19T14:46:36Z</time>
      </trkpt>
      <trkpt lat="48.96147" lon="7.95284">
        <ele>151.06</ele>
        <time>2021-07-19T14:46:39Z</time>
      </trkpt>
      <trkpt lat="48.96152" lon="7.95302">
        <ele>151.06</ele>
        <time>2021-07-19T14:46:40Z</time>
      </trkpt>
      <trkpt lat="48.96152" lon="7.95302">
        <ele>149.62</ele>
        <time>2021-07-19T14:46:41Z</time>
      </trkpt>
      <trkpt lat="48.96169" lon="7.95333">
        <ele>149.62</ele>
        <time>2021-07-19T14:46:47Z</time>
      </trkpt>
      <trkpt lat="48.96204" lon="7.95409">
        <ele>146.74</ele>
        <time>2021-07-19T14:46:54Z</time>
      </trkpt>
      <trkpt lat="48.96261" lon="7.95521">
        <ele>143.37</ele>
        <time>2021-07-19T14:47:02Z</time>
      </trkpt>
      <trkpt lat="48.96336" lon="7.95716">
        <ele>141.93</ele>
        <time>2021-07-19T14:47:12Z</time>
      </trkpt>
      <trkpt lat="48.96405" lon="7.95934">
        <ele>143.85</ele>
        <time>2021-07-19T14:47:22Z</time>
      </trkpt>
      <trkpt lat="48.96408" lon="7.95952">
        <ele>144.34</ele>
        <time>2021-07-19T14:47:23Z</time>
      </trkpt>
      <trkpt lat="48.96411" lon="7.95969">
        <ele>145.78</ele>
        <time>2021-07-19T14:47:24Z</time>
      </trkpt>
      <trkpt lat="48.96409" lon="7.9601">
        <ele>148.18</ele>
        <time>2021-07-19T14:47:25Z</time>
      </trkpt>
      <trkpt lat="48.96409" lon="7.9601">
        <ele>148.66</ele>
        <time>2021-07-19T14:47:26Z</time>
      </trkpt>
      <trkpt lat="48.96407" lon="7.96031">
        <ele>149.14</ele>
        <time>2021-07-19T14:47:27Z</time>
      </trkpt>
      <trkpt lat="48.96381" lon="7.96225">
        <ele>156.35</ele>
        <time>2021-07-19T14:47:36Z</time>
      </trkpt>
      <trkpt lat="48.96382" lon="7.96247">
        <ele>154.43</ele>
        <time>2021-07-19T14:47:37Z</time>
      </trkpt>
      <trkpt lat="48.96383" lon="7.96269">
        <ele>155.39</ele>
        <time>2021-07-19T14:47:38Z</time>
      </trkpt>
      <trkpt lat="48.9644" lon="7.96595">
        <ele>163.56</ele>
        <time>2021-07-19T14:47:52Z</time>
      </trkpt>
      <trkpt lat="48.96514" lon="7.96857">
        <ele>174.62</ele>
        <time>2021-07-19T14:48:04Z</time>
      </trkpt>
      <trkpt lat="48.96527" lon="7.9688">
        <ele>178.94</ele>
        <time>2021-07-19T14:48:06Z</time>
      </trkpt>
      <trkpt lat="48.96537" lon="7.96895">
        <ele>179.9</ele>
        <time>2021-07-19T14:48:07Z</time>
      </trkpt>
      <trkpt lat="48.96544" lon="7.969">
        <ele>180.38</ele>
        <time>2021-07-19T14:48:08Z</time>
      </trkpt>
      <trkpt lat="48.96544" lon="7.969">
        <ele>180.38</ele>
        <time>2021-07-19T14:48:09Z</time>
      </trkpt>
      <trkpt lat="48.96551" lon="7.96905">
        <ele>180.87</ele>
        <time>2021-07-19T14:48:10Z</time>
      </trkpt>
      <trkpt lat="48.96632" lon="7.9694">
        <ele>180.87</ele>
        <time>2021-07-19T14:48:18Z</time>
      </trkpt>
      <trkpt lat="48.9677" lon="7.97009">
        <ele>178.46</ele>
        <time>2021-07-19T14:48:27Z</time>
      </trkpt>
      <trkpt lat="48.96933" lon="7.97091">
        <ele>175.1</ele>
        <time>2021-07-19T14:48:36Z</time>
      </trkpt>
      <trkpt lat="48.97142" lon="7.97177">
        <ele>169.81</ele>
        <time>2021-07-19T14:48:47Z</time>
      </trkpt>
      <trkpt lat="48.97226" lon="7.97226">
        <ele>175.58</ele>
        <time>2021-07-19T14:48:52Z</time>
      </trkpt>
      <trkpt lat="48.9724" lon="7.97239">
        <ele>175.58</ele>
        <time>2021-07-19T14:48:53Z</time>
      </trkpt>
      <trkpt lat="48.97253" lon="7.97257">
        <ele>175.58</ele>
        <time>2021-07-19T14:48:54Z</time>
      </trkpt>
      <trkpt lat="48.97368" lon="7.97433">
        <ele>171.73</ele>
        <time>2021-07-19T14:49:03Z</time>
      </trkpt>
      <trkpt lat="48.97378" lon="7.97453">
        <ele>171.25</ele>
        <time>2021-07-19T14:49:04Z</time>
      </trkpt>
      <trkpt lat="48.97384" lon="7.97474">
        <ele>170.77</ele>
        <time>2021-07-19T14:49:05Z</time>
      </trkpt>
      <trkpt lat="48.97389" lon="7.97498">
        <ele>171.73</ele>
        <time>2021-07-19T14:49:06Z</time>
      </trkpt>
      <trkpt lat="48.97392" lon="7.97522">
        <ele>174.62</ele>
        <time>2021-07-19T14:49:07Z</time>
      </trkpt>
      <trkpt lat="48.97396" lon="7.97548">
        <ele>174.62</ele>
        <time>2021-07-19T14:49:08Z</time>
      </trkpt>
      <trkpt lat="48.97396" lon="7.97575">
        <ele>174.14</ele>
        <time>2021-07-19T14:49:09Z</time>
      </trkpt>
      <trkpt lat="48.9738" lon="7.97837">
        <ele>172.69</ele>
        <time>2021-07-19T14:49:19Z</time>
      </trkpt>
      <trkpt lat="48.97378" lon="7.9786">
        <ele>173.17</ele>
        <time>2021-07-19T14:49:20Z</time>
      </trkpt>
      <trkpt lat="48.97378" lon="7.9788">
        <ele>173.17</ele>
        <time>2021-07-19T14:49:21Z</time>
      </trkpt>
      <trkpt lat="48.9738" lon="7.97901">
        <ele>173.17</ele>
        <time>2021-07-19T14:49:22Z</time>
      </trkpt>
      <trkpt lat="48.97387" lon="7.97955">
        <ele>171.73</ele>
        <time>2021-07-19T14:49:25Z</time>
      </trkpt>
      <trkpt lat="48.97389" lon="7.97972">
        <ele>171.73</ele>
        <time>2021-07-19T14:49:26Z</time>
      </trkpt>
      <trkpt lat="48.97386" lon="7.98118">
        <ele>171.25</ele>
        <time>2021-07-19T14:49:36Z</time>
      </trkpt>
      <trkpt lat="48.97393" lon="7.9837">
        <ele>162.6</ele>
        <time>2021-07-19T14:49:56Z</time>
      </trkpt>
      <trkpt lat="48.97391" lon="7.98418">
        <ele>162.6</ele>
        <time>2021-07-19T14:50:00Z</time>
      </trkpt>
      <trkpt lat="48.9739" lon="7.98437">
        <ele>163.08</ele>
        <time>2021-07-19T14:50:07Z</time>
      </trkpt>
      <trkpt lat="48.97393" lon="7.98471">
        <ele>163.08</ele>
        <time>2021-07-19T14:50:20Z</time>
      </trkpt>
      <trkpt lat="48.97397" lon="7.98507">
        <ele>163.08</ele>
        <time>2021-07-19T14:50:29Z</time>
      </trkpt>
      <trkpt lat="48.974" lon="7.98538">
        <ele>163.08</ele>
        <time>2021-07-19T14:50:47Z</time>
      </trkpt>
      <trkpt lat="48.97429" lon="7.98639">
        <ele>162.6</ele>
        <time>2021-07-19T14:50:57Z</time>
      </trkpt>
      <trkpt lat="48.97458" lon="7.98756">
        <ele>162.6</ele>
        <time>2021-07-19T14:51:08Z</time>
      </trkpt>
      <trkpt lat="48.97457" lon="7.98765">
        <ele>162.6</ele>
        <time>2021-07-19T14:51:09Z</time>
      </trkpt>
      <trkpt lat="48.97456" lon="7.98773">
        <ele>162.6</ele>
        <time>2021-07-19T14:51:10Z</time>
      </trkpt>
      <trkpt lat="48.97455" lon="7.98778">
        <ele>163.56</ele>
        <time>2021-07-19T14:51:13Z</time>
      </trkpt>
      <trkpt lat="48.97454" lon="7.98784">
        <ele>163.56</ele>
        <time>2021-07-19T14:51:14Z</time>
      </trkpt>
      <trkpt lat="48.97453" lon="7.98785">
        <ele>163.56</ele>
        <time>2021-07-19T14:51:15Z</time>
      </trkpt>
      <trkpt lat="48.97446" lon="7.98783">
        <ele>164.04</ele>
        <time>2021-07-19T14:51:16Z</time>
      </trkpt>
      <trkpt lat="48.97446" lon="7.98783">
        <ele>164.04</ele>
        <time>2021-07-19T14:51:17Z</time>
      </trkpt>
      <trkpt lat="48.97441" lon="7.98782">
        <ele>163.56</ele>
        <time>2021-07-19T14:51:18Z</time>
      </trkpt>
      <trkpt lat="48.97431" lon="7.9878">
        <ele>163.56</ele>
        <time>2021-07-19T14:51:20Z</time>
      </trkpt>
      <trkpt lat="48.97364" lon="7.98767">
        <ele>158.27</ele>
        <time>2021-07-19T14:51:28Z</time>
      </trkpt>
      <trkpt lat="48.97353" lon="7.98767">
        <ele>157.31</ele>
        <time>2021-07-19T14:51:29Z</time>
      </trkpt>
      <trkpt lat="48.9734" lon="7.98768">
        <ele>158.27</ele>
        <time>2021-07-19T14:51:30Z</time>
      </trkpt>
      <trkpt lat="48.97329" lon="7.98772">
        <ele>157.79</ele>
        <time>2021-07-19T14:51:31Z</time>
      </trkpt>
      <trkpt lat="48.97305" lon="7.98781">
        <ele>158.27</ele>
        <time>2021-07-19T14:51:32Z</time>
      </trkpt>
      <trkpt lat="48.97305" lon="7.98781">
        <ele>158.75</ele>
        <time>2021-07-19T14:51:33Z</time>
      </trkpt>
      <trkpt lat="48.97191" lon="7.98823">
        <ele>156.83</ele>
        <time>2021-07-19T14:51:44Z</time>
      </trkpt>
      <trkpt lat="48.97111" lon="7.98836">
        <ele>157.31</ele>
        <time>2021-07-19T14:51:55Z</time>
      </trkpt>
      <trkpt lat="48.97083" lon="7.98839">
        <ele>157.79</ele>
        <time>2021-07-19T14:52:01Z</time>
      </trkpt>
      <trkpt lat="48.97066" lon="7.98835">
        <ele>158.75</ele>
        <time>2021-07-19T14:52:13Z</time>
      </trkpt>
      <trkpt lat="48.97061" lon="7.98848">
        <ele>158.75</ele>
        <time>2021-07-19T14:52:28Z</time>
      </trkpt>
      <trkpt lat="48.97061" lon="7.98848">
        <ele>158.75</ele>
        <time>2021-07-19T14:52:30Z</time>
      </trkpt>
      <trkpt lat="48.97066" lon="7.98846">
        <ele>158.75</ele>
        <time>2021-07-19T14:52:31Z</time>
      </trkpt>
      <trkpt lat="48.97066" lon="7.98846">
        <ele>158.75</ele>
        <time>2021-07-19T14:52:32Z</time>
      </trkpt>
      <trkpt lat="48.97066" lon="7.98846">
        <ele>158.75</ele>
        <time>2021-07-19T14:52:33Z</time>
      </trkpt>
      <trkpt lat="48.97067" lon="7.98847">
        <ele>158.75</ele>
        <time>2021-07-19T14:52:34Z</time>
      </trkpt>
      <trkpt lat="48.9707" lon="7.9885">
        <ele>158.75</ele>
        <time>2021-07-19T14:52:35Z</time>
      </trkpt>
      <trkpt lat="48.97072" lon="7.98852">
        <ele>158.75</ele>
        <time>2021-07-19T14:52:36Z</time>
      </trkpt>
      <trkpt lat="48.97075" lon="7.98863">
        <ele>158.75</ele>
        <time>2021-07-19T14:52:37Z</time>
      </trkpt>
      <trkpt lat="48.97076" lon="7.98869">
        <ele>158.75</ele>
        <time>2021-07-19T14:52:38Z</time>
      </trkpt>
      <trkpt lat="48.9708" lon="7.98883">
        <ele>159.24</ele>
        <time>2021-07-19T14:52:40Z</time>
      </trkpt>
      <trkpt lat="48.97098" lon="7.98962">
        <ele>160.68</ele>
        <time>2021-07-19T14:52:52Z</time>
      </trkpt>
      <trkpt lat="48.97117" lon="7.99031">
        <ele>160.68</ele>
        <time>2021-07-19T14:53:00Z</time>
      </trkpt>
      <trkpt lat="48.97119" lon="7.99037">
        <ele>160.68</ele>
        <time>2021-07-19T14:53:01Z</time>
      </trkpt>
      <trkpt lat="48.9712" lon="7.99042">
        <ele>160.68</ele>
        <time>2021-07-19T14:53:02Z</time>
      </trkpt>
      <trkpt lat="48.97122" lon="7.99045">
        <ele>161.16</ele>
        <time>2021-07-19T14:53:03Z</time>
      </trkpt>
      <trkpt lat="48.97122" lon="7.99048">
        <ele>161.16</ele>
        <time>2021-07-19T14:53:04Z</time>
      </trkpt>
      <trkpt lat="48.97123" lon="7.99049">
        <ele>161.16</ele>
        <time>2021-07-19T14:53:05Z</time>
      </trkpt>
      <trkpt lat="48.97115" lon="7.99057">
        <ele>161.16</ele>
        <time>2021-07-19T14:53:06Z</time>
      </trkpt>
      <trkpt lat="48.97104" lon="7.99062">
        <ele>160.68</ele>
        <time>2021-07-19T14:53:18Z</time>
      </trkpt>
      <trkpt lat="48.97086" lon="7.99075">
        <ele>160.2</ele>
        <time>2021-07-19T14:53:23Z</time>
      </trkpt>
      <trkpt lat="48.97086" lon="7.99091">
        <ele>160.68</ele>
        <time>2021-07-19T14:53:29Z</time>
      </trkpt>
      <trkpt lat="48.97104" lon="7.99092">
        <ele>160.68</ele>
        <time>2021-07-19T14:53:35Z</time>
      </trkpt>
      <trkpt lat="48.97127" lon="7.99061">
        <ele>160.68</ele>
        <time>2021-07-19T14:53:40Z</time>
      </trkpt>
      <trkpt lat="48.97127" lon="7.99061">
        <ele>160.68</ele>
        <time>2021-07-19T14:53:41Z</time>
      </trkpt>
      <trkpt lat="48.97125" lon="7.99056">
        <ele>160.2</ele>
        <time>2021-07-19T14:53:42Z</time>
      </trkpt>
      <trkpt lat="48.97122" lon="7.99046">
        <ele>160.2</ele>
        <time>2021-07-19T14:53:45Z</time>
      </trkpt>
      <trkpt lat="48.97121" lon="7.99044">
        <ele>161.16</ele>
        <time>2021-07-19T14:53:52Z</time>
      </trkpt>
      <trkpt lat="48.9712" lon="7.9904">
        <ele>161.16</ele>
        <time>2021-07-19T14:53:53Z</time>
      </trkpt>
      <trkpt lat="48.97119" lon="7.99037">
        <ele>161.16</ele>
        <time>2021-07-19T14:53:54Z</time>
      </trkpt>
      <trkpt lat="48.97117" lon="7.99031">
        <ele>161.16</ele>
        <time>2021-07-19T14:53:55Z</time>
      </trkpt>
      <trkpt lat="48.97115" lon="7.99025">
        <ele>160.68</ele>
        <time>2021-07-19T14:53:56Z</time>
      </trkpt>
      <trkpt lat="48.97092" lon="7.98935">
        <ele>161.64</ele>
        <time>2021-07-19T14:54:05Z</time>
      </trkpt>
      <trkpt lat="48.97075" lon="7.98866">
        <ele>161.16</ele>
        <time>2021-07-19T14:54:12Z</time>
      </trkpt>
      <trkpt lat="48.97074" lon="7.98859">
        <ele>161.16</ele>
        <time>2021-07-19T14:54:13Z</time>
      </trkpt>
      <trkpt lat="48.9707" lon="7.98828">
        <ele>161.16</ele>
        <time>2021-07-19T14:54:16Z</time>
      </trkpt>
      <trkpt lat="48.9707" lon="7.98828">
        <ele>161.16</ele>
        <time>2021-07-19T14:54:17Z</time>
      </trkpt>
      <trkpt lat="48.97067" lon="7.9881">
        <ele>160.2</ele>
        <time>2021-07-19T14:54:19Z</time>
      </trkpt>
      <trkpt lat="48.97067" lon="7.9881">
        <ele>159.72</ele>
        <time>2021-07-19T14:54:20Z</time>
      </trkpt>
      <trkpt lat="48.97057" lon="7.98739">
        <ele>158.27</ele>
        <time>2021-07-19T14:54:30Z</time>
      </trkpt>
      <trkpt lat="48.97053" lon="7.98721">
        <ele>158.75</ele>
        <time>2021-07-19T14:54:35Z</time>
      </trkpt>
      <trkpt lat="48.97055" lon="7.98723">
        <ele>158.75</ele>
        <time>2021-07-19T14:54:36Z</time>
      </trkpt>
      <trkpt lat="48.97053" lon="7.98721">
        <ele>158.75</ele>
        <time>2021-07-19T14:54:37Z</time>
      </trkpt>
      <trkpt lat="48.97053" lon="7.98721">
        <ele>158.27</ele>
        <time>2021-07-19T14:54:38Z</time>
      </trkpt>
      <trkpt lat="48.97053" lon="7.98721">
        <ele>158.27</ele>
        <time>2021-07-19T14:54:39Z</time>
      </trkpt>
      <trkpt lat="48.97046" lon="7.98732">
        <ele>158.27</ele>
        <time>2021-07-19T14:54:40Z</time>
      </trkpt>
      <trkpt lat="48.97001" lon="7.98739">
        <ele>155.87</ele>
        <time>2021-07-19T14:54:50Z</time>
      </trkpt>
      <trkpt lat="48.96898" lon="7.98746">
        <ele>154.43</ele>
        <time>2021-07-19T14:55:03Z</time>
      </trkpt>
      <trkpt lat="48.96793" lon="7.9875">
        <ele>155.39</ele>
        <time>2021-07-19T14:55:15Z</time>
      </trkpt>
      <trkpt lat="48.96772" lon="7.98751">
        <ele>154.91</ele>
        <time>2021-07-19T14:55:17Z</time>
      </trkpt>
      <trkpt lat="48.96772" lon="7.98751">
        <ele>154.91</ele>
        <time>2021-07-19T14:55:18Z</time>
      </trkpt>
      <trkpt lat="48.96764" lon="7.98756">
        <ele>154.91</ele>
        <time>2021-07-19T14:55:19Z</time>
      </trkpt>
      <trkpt lat="48.96683" lon="7.98793">
        <ele>156.35</ele>
        <time>2021-07-19T14:55:29Z</time>
      </trkpt>
      <trkpt lat="48.96675" lon="7.98804">
        <ele>156.35</ele>
        <time>2021-07-19T14:55:32Z</time>
      </trkpt>
      <trkpt lat="48.96675" lon="7.98804">
        <ele>155.87</ele>
        <time>2021-07-19T14:55:33Z</time>
      </trkpt>
      <trkpt lat="48.96675" lon="7.98808">
        <ele>155.87</ele>
        <time>2021-07-19T14:55:34Z</time>
      </trkpt>
      <trkpt lat="48.96675" lon="7.98815">
        <ele>157.31</ele>
        <time>2021-07-19T14:55:44Z</time>
      </trkpt>
      <trkpt lat="48.96675" lon="7.98828">
        <ele>156.83</ele>
        <time>2021-07-19T14:55:47Z</time>
      </trkpt>
      <trkpt lat="48.96675" lon="7.98843">
        <ele>156.83</ele>
        <time>2021-07-19T14:55:48Z</time>
      </trkpt>
      <trkpt lat="48.96675" lon="7.98865">
        <ele>156.35</ele>
        <time>2021-07-19T14:55:53Z</time>
      </trkpt>
      <trkpt lat="48.96675" lon="7.98868">
        <ele>156.35</ele>
        <time>2021-07-19T14:55:54Z</time>
      </trkpt>
      <trkpt lat="48.96675" lon="7.9887">
        <ele>156.35</ele>
        <time>2021-07-19T14:55:55Z</time>
      </trkpt>
      <trkpt lat="48.96668" lon="7.98866">
        <ele>155.87</ele>
        <time>2021-07-19T14:55:56Z</time>
      </trkpt>
      <trkpt lat="48.9667" lon="7.98867">
        <ele>155.39</ele>
        <time>2021-07-19T14:56:08Z</time>
      </trkpt>
      <trkpt lat="48.96675" lon="7.98864">
        <ele>155.87</ele>
        <time>2021-07-19T14:56:10Z</time>
      </trkpt>
      <trkpt lat="48.96675" lon="7.98859">
        <ele>155.87</ele>
        <time>2021-07-19T14:56:11Z</time>
      </trkpt>
      <trkpt lat="48.96675" lon="7.98853">
        <ele>155.87</ele>
        <time>2021-07-19T14:56:12Z</time>
      </trkpt>
      <trkpt lat="48.96675" lon="7.98845">
        <ele>155.87</ele>
        <time>2021-07-19T14:56:13Z</time>
      </trkpt>
      <trkpt lat="48.96675" lon="7.98838">
        <ele>155.39</ele>
        <time>2021-07-19T14:56:14Z</time>
      </trkpt>
      <trkpt lat="48.96675" lon="7.98804">
        <ele>155.39</ele>
        <time>2021-07-19T14:56:23Z</time>
      </trkpt>
      <trkpt lat="48.96676" lon="7.98796">
        <ele>155.39</ele>
        <time>2021-07-19T14:56:24Z</time>
      </trkpt>
      <trkpt lat="48.96678" lon="7.98795">
        <ele>155.39</ele>
        <time>2021-07-19T14:56:25Z</time>
      </trkpt>
      <trkpt lat="48.96681" lon="7.98794">
        <ele>154.91</ele>
        <time>2021-07-19T14:56:26Z</time>
      </trkpt>
      <trkpt lat="48.96685" lon="7.98793">
        <ele>155.39</ele>
        <time>2021-07-19T14:56:27Z</time>
      </trkpt>
      <trkpt lat="48.96689" lon="7.98791">
        <ele>155.39</ele>
        <time>2021-07-19T14:56:28Z</time>
      </trkpt>
      <trkpt lat="48.96693" lon="7.98789">
        <ele>155.39</ele>
        <time>2021-07-19T14:56:29Z</time>
      </trkpt>
      <trkpt lat="48.96698" lon="7.98787">
        <ele>155.39</ele>
        <time>2021-07-19T14:56:30Z</time>
      </trkpt>
      <trkpt lat="48.96705" lon="7.98785">
        <ele>154.91</ele>
        <time>2021-07-19T14:56:31Z</time>
      </trkpt>
      <trkpt lat="48.9672" lon="7.98779">
        <ele>154.91</ele>
        <time>2021-07-19T14:56:32Z</time>
      </trkpt>
      <trkpt lat="48.96792" lon="7.9875">
        <ele>156.35</ele>
        <time>2021-07-19T14:56:41Z</time>
      </trkpt>
      <trkpt lat="48.96877" lon="7.98747">
        <ele>154.91</ele>
        <time>2021-07-19T14:56:49Z</time>
      </trkpt>
      <trkpt lat="48.9701" lon="7.98737">
        <ele>153.95</ele>
        <time>2021-07-19T14:57:01Z</time>
      </trkpt>
      <trkpt lat="48.97033" lon="7.98734">
        <ele>156.35</ele>
        <time>2021-07-19T14:57:04Z</time>
      </trkpt>
      <trkpt lat="48.97039" lon="7.98733">
        <ele>156.83</ele>
        <time>2021-07-19T14:57:05Z</time>
      </trkpt>
      <trkpt lat="48.97045" lon="7.98732">
        <ele>156.83</ele>
        <time>2021-07-19T14:57:06Z</time>
      </trkpt>
      <trkpt lat="48.97051" lon="7.98733">
        <ele>155.87</ele>
        <time>2021-07-19T14:57:07Z</time>
      </trkpt>
      <trkpt lat="48.97056" lon="7.98737">
        <ele>155.87</ele>
        <time>2021-07-19T14:57:08Z</time>
      </trkpt>
      <trkpt lat="48.97058" lon="7.98746">
        <ele>156.35</ele>
        <time>2021-07-19T14:57:09Z</time>
      </trkpt>
      <trkpt lat="48.9706" lon="7.98757">
        <ele>156.35</ele>
        <time>2021-07-19T14:57:10Z</time>
      </trkpt>
      <trkpt lat="48.97061" lon="7.98768">
        <ele>156.35</ele>
        <time>2021-07-19T14:57:11Z</time>
      </trkpt>
      <trkpt lat="48.97069" lon="7.98819">
        <ele>157.31</ele>
        <time>2021-07-19T14:57:16Z</time>
      </trkpt>
      <trkpt lat="48.9707" lon="7.98827">
        <ele>157.79</ele>
        <time>2021-07-19T14:57:17Z</time>
      </trkpt>
      <trkpt lat="48.97067" lon="7.98833">
        <ele>157.79</ele>
        <time>2021-07-19T14:57:18Z</time>
      </trkpt>
      <trkpt lat="48.97066" lon="7.98839">
        <ele>157.79</ele>
        <time>2021-07-19T14:57:19Z</time>
      </trkpt>
      <trkpt lat="48.97066" lon="7.98835">
        <ele>157.79</ele>
        <time>2021-07-19T14:57:20Z</time>
      </trkpt>
      <trkpt lat="48.9706" lon="7.98848">
        <ele>157.31</ele>
        <time>2021-07-19T14:57:21Z</time>
      </trkpt>
      <trkpt lat="48.97056" lon="7.9885">
        <ele>156.83</ele>
        <time>2021-07-19T14:57:22Z</time>
      </trkpt>
      <trkpt lat="48.97052" lon="7.98852">
        <ele>156.83</ele>
        <time>2021-07-19T14:57:23Z</time>
      </trkpt>
      <trkpt lat="48.96987" lon="7.98891">
        <ele>156.35</ele>
        <time>2021-07-19T14:57:38Z</time>
      </trkpt>
      <trkpt lat="48.96982" lon="7.98894">
        <ele>156.83</ele>
        <time>2021-07-19T14:57:50Z</time>
      </trkpt>
      <trkpt lat="48.96979" lon="7.98896">
        <ele>156.83</ele>
        <time>2021-07-19T14:57:51Z</time>
      </trkpt>
      <trkpt lat="48.96976" lon="7.98898">
        <ele>156.83</ele>
        <time>2021-07-19T14:57:52Z</time>
      </trkpt>
      <trkpt lat="48.9695" lon="7.98906">
        <ele>156.35</ele>
        <time>2021-07-19T14:58:02Z</time>
      </trkpt>
      <trkpt lat="48.96904" lon="7.98936">
        <ele>155.39</ele>
        <time>2021-07-19T14:58:08Z</time>
      </trkpt>
      <trkpt lat="48.96874" lon="7.98961">
        <ele>153.95</ele>
        <time>2021-07-19T14:58:12Z</time>
      </trkpt>
      <trkpt lat="48.96868" lon="7.98967">
        <ele>153.47</ele>
        <time>2021-07-19T14:58:13Z</time>
      </trkpt>
      <trkpt lat="48.96837" lon="7.99013">
        <ele>150.58</ele>
        <time>2021-07-19T14:58:20Z</time>
      </trkpt>
      <trkpt lat="48.96835" lon="7.99021">
        <ele>150.58</ele>
        <time>2021-07-19T14:58:21Z</time>
      </trkpt>
      <trkpt lat="48.96835" lon="7.99028">
        <ele>151.06</ele>
        <time>2021-07-19T14:58:22Z</time>
      </trkpt>
      <trkpt lat="48.96832" lon="7.99047">
        <ele>150.58</ele>
        <time>2021-07-19T14:58:24Z</time>
      </trkpt>
      <trkpt lat="48.96831" lon="7.9906">
        <ele>151.06</ele>
        <time>2021-07-19T14:58:25Z</time>
      </trkpt>
      <trkpt lat="48.96829" lon="7.99074">
        <ele>150.58</ele>
        <time>2021-07-19T14:58:26Z</time>
      </trkpt>
      <trkpt lat="48.96795" lon="7.99174">
        <ele>155.87</ele>
        <time>2021-07-19T14:58:34Z</time>
      </trkpt>
      <trkpt lat="48.96792" lon="7.99179">
        <ele>156.35</ele>
        <time>2021-07-19T14:58:35Z</time>
      </trkpt>
      <trkpt lat="48.96798" lon="7.99172">
        <ele>155.87</ele>
        <time>2021-07-19T14:58:36Z</time>
      </trkpt>
      <trkpt lat="48.96798" lon="7.99172">
        <ele>156.35</ele>
        <time>2021-07-19T14:58:37Z</time>
      </trkpt>
      <trkpt lat="48.96798" lon="7.99172">
        <ele>156.35</ele>
        <time>2021-07-19T14:58:38Z</time>
      </trkpt>
      <trkpt lat="48.96798" lon="7.99172">
        <ele>154.91</ele>
        <time>2021-07-19T14:58:51Z</time>
      </trkpt>
      <trkpt lat="48.96796" lon="7.99174">
        <ele>154.91</ele>
        <time>2021-07-19T14:58:52Z</time>
      </trkpt>
      <trkpt lat="48.96798" lon="7.99171">
        <ele>154.43</ele>
        <time>2021-07-19T14:58:53Z</time>
      </trkpt>
      <trkpt lat="48.96799" lon="7.99167">
        <ele>154.43</ele>
        <time>2021-07-19T14:58:54Z</time>
      </trkpt>
      <trkpt lat="48.96801" lon="7.99162">
        <ele>154.43</ele>
        <time>2021-07-19T14:58:55Z</time>
      </trkpt>
      <trkpt lat="48.96803" lon="7.99156">
        <ele>154.43</ele>
        <time>2021-07-19T14:58:56Z</time>
      </trkpt>
      <trkpt lat="48.96805" lon="7.9915">
        <ele>153.95</ele>
        <time>2021-07-19T14:58:57Z</time>
      </trkpt>
      <trkpt lat="48.96808" lon="7.99142">
        <ele>153.47</ele>
        <time>2021-07-19T14:58:58Z</time>
      </trkpt>
      <trkpt lat="48.96811" lon="7.99133">
        <ele>152.51</ele>
        <time>2021-07-19T14:58:59Z</time>
      </trkpt>
      <trkpt lat="48.96829" lon="7.99075">
        <ele>151.06</ele>
        <time>2021-07-19T14:59:04Z</time>
      </trkpt>
      <trkpt lat="48.9683" lon="7.99062">
        <ele>151.06</ele>
        <time>2021-07-19T14:59:05Z</time>
      </trkpt>
      <trkpt lat="48.96835" lon="7.99024">
        <ele>151.54</ele>
        <time>2021-07-19T14:59:08Z</time>
      </trkpt>
      <trkpt lat="48.96839" lon="7.9901">
        <ele>152.03</ele>
        <time>2021-07-19T14:59:09Z</time>
      </trkpt>
      <trkpt lat="48.96844" lon="7.99001">
        <ele>152.51</ele>
        <time>2021-07-19T14:59:10Z</time>
      </trkpt>
      <trkpt lat="48.96849" lon="7.98991">
        <ele>152.99</ele>
        <time>2021-07-19T14:59:11Z</time>
      </trkpt>
      <trkpt lat="48.96855" lon="7.98981">
        <ele>153.47</ele>
        <time>2021-07-19T14:59:12Z</time>
      </trkpt>
      <trkpt lat="48.96862" lon="7.98974">
        <ele>153.47</ele>
        <time>2021-07-19T14:59:13Z</time>
      </trkpt>
      <trkpt lat="48.96868" lon="7.98967">
        <ele>153.95</ele>
        <time>2021-07-19T14:59:14Z</time>
      </trkpt>
      <trkpt lat="48.96929" lon="7.98916">
        <ele>154.91</ele>
        <time>2021-07-19T14:59:22Z</time>
      </trkpt>
      <trkpt lat="48.96936" lon="7.98911">
        <ele>154.91</ele>
        <time>2021-07-19T14:59:23Z</time>
      </trkpt>
      <trkpt lat="48.96972" lon="7.98899">
        <ele>154.43</ele>
        <time>2021-07-19T14:59:32Z</time>
      </trkpt>
      <trkpt lat="48.96977" lon="7.98897">
        <ele>154.91</ele>
        <time>2021-07-19T14:59:46Z</time>
      </trkpt>
      <trkpt lat="48.96977" lon="7.98897">
        <ele>156.35</ele>
        <time>2021-07-19T15:00:05Z</time>
      </trkpt>
      <trkpt lat="48.96977" lon="7.98897">
        <ele>156.83</ele>
        <time>2021-07-19T15:01:02Z</time>
      </trkpt>
      <trkpt lat="48.96977" lon="7.98897">
        <ele>157.31</ele>
        <time>2021-07-19T15:01:48Z</time>
      </trkpt>
      <trkpt lat="48.96977" lon="7.98897">
        <ele>157.31</ele>
        <time>2021-07-19T15:02:20Z</time>
      </trkpt>
      <trkpt lat="48.96977" lon="7.98897">
        <ele>157.31</ele>
        <time>2021-07-19T15:03:15Z</time>
      </trkpt>
      <trkpt lat="48.96977" lon="7.98897">
        <ele>157.31</ele>
        <time>2021-07-19T15:04:13Z</time>
      </trkpt>
      <trkpt lat="48.96977" lon="7.98897">
        <ele>158.27</ele>
        <time>2021-07-19T15:04:58Z</time>
      </trkpt>
      <trkpt lat="48.96977" lon="7.98897">
        <ele>158.27</ele>
        <time>2021-07-19T15:05:21Z</time>
      </trkpt>
      <trkpt lat="48.96977" lon="7.98897">
        <ele>158.27</ele>
        <time>2021-07-19T15:05:22Z</time>
      </trkpt>
      <trkpt lat="48.96992" lon="7.98887">
        <ele>158.27</ele>
        <time>2021-07-19T15:05:23Z</time>
      </trkpt>
      <trkpt lat="48.97031" lon="7.98862">
        <ele>158.75</ele>
        <time>2021-07-19T15:05:37Z</time>
      </trkpt>
      <trkpt lat="48.97066" lon="7.98846">
        <ele>157.31</ele>
        <time>2021-07-19T15:05:51Z</time>
      </trkpt>
      <trkpt lat="48.97083" lon="7.98839">
        <ele>156.83</ele>
        <time>2021-07-19T15:05:55Z</time>
      </trkpt>
      <trkpt lat="48.97143" lon="7.98832">
        <ele>156.83</ele>
        <time>2021-07-19T15:06:07Z</time>
      </trkpt>
      <trkpt lat="48.97222" lon="7.98812">
        <ele>156.35</ele>
        <time>2021-07-19T15:06:24Z</time>
      </trkpt>
      <trkpt lat="48.97276" lon="7.98791">
        <ele>155.87</ele>
        <time>2021-07-19T15:06:38Z</time>
      </trkpt>
      <trkpt lat="48.97297" lon="7.98784">
        <ele>156.35</ele>
        <time>2021-07-19T15:06:43Z</time>
      </trkpt>
      <trkpt lat="48.97302" lon="7.98782">
        <ele>156.35</ele>
        <time>2021-07-19T15:06:44Z</time>
      </trkpt>
      <trkpt lat="48.97375" lon="7.98766">
        <ele>154.91</ele>
        <time>2021-07-19T15:07:00Z</time>
      </trkpt>
      <trkpt lat="48.97433" lon="7.9878">
        <ele>153.47</ele>
        <time>2021-07-19T15:07:16Z</time>
      </trkpt>
      <trkpt lat="48.97459" lon="7.9879">
        <ele>154.91</ele>
        <time>2021-07-19T15:07:24Z</time>
      </trkpt>
      <trkpt lat="48.97455" lon="7.98781">
        <ele>154.91</ele>
        <time>2021-07-19T15:07:25Z</time>
      </trkpt>
      <trkpt lat="48.97455" lon="7.98777">
        <ele>154.43</ele>
        <time>2021-07-19T15:07:26Z</time>
      </trkpt>
      <trkpt lat="48.97456" lon="7.98773">
        <ele>154.43</ele>
        <time>2021-07-19T15:07:27Z</time>
      </trkpt>
      <trkpt lat="48.97456" lon="7.9877">
        <ele>154.43</ele>
        <time>2021-07-19T15:07:28Z</time>
      </trkpt>
      <trkpt lat="48.97449" lon="7.98705">
        <ele>153.95</ele>
        <time>2021-07-19T15:07:40Z</time>
      </trkpt>
      <trkpt lat="48.97429" lon="7.98642">
        <ele>155.87</ele>
        <time>2021-07-19T15:07:53Z</time>
      </trkpt>
      <trkpt lat="48.97404" lon="7.98563">
        <ele>156.83</ele>
        <time>2021-07-19T15:08:11Z</time>
      </trkpt>
      <trkpt lat="48.97394" lon="7.98476">
        <ele>157.31</ele>
        <time>2021-07-19T15:08:27Z</time>
      </trkpt>
      <trkpt lat="48.97392" lon="7.98403">
        <ele>158.27</ele>
        <time>2021-07-19T15:08:40Z</time>
      </trkpt>
      <trkpt lat="48.97394" lon="7.98336">
        <ele>159.24</ele>
        <time>2021-07-19T15:08:53Z</time>
      </trkpt>
      <trkpt lat="48.97393" lon="7.98291">
        <ele>160.68</ele>
        <time>2021-07-19T15:09:01Z</time>
      </trkpt>
      <trkpt lat="48.97393" lon="7.98283">
        <ele>161.16</ele>
        <time>2021-07-19T15:09:02Z</time>
      </trkpt>
      <trkpt lat="48.9739" lon="7.98214">
        <ele>164.04</ele>
        <time>2021-07-19T15:09:12Z</time>
      </trkpt>
      <trkpt lat="48.97387" lon="7.98074">
        <ele>168.37</ele>
        <time>2021-07-19T15:09:28Z</time>
      </trkpt>
      <trkpt lat="48.9739" lon="7.97985">
        <ele>168.37</ele>
        <time>2021-07-19T15:09:42Z</time>
      </trkpt>
      <trkpt lat="48.97388" lon="7.97961">
        <ele>168.85</ele>
        <time>2021-07-19T15:09:45Z</time>
      </trkpt>
      <trkpt lat="48.97386" lon="7.97951">
        <ele>168.85</ele>
        <time>2021-07-19T15:09:46Z</time>
      </trkpt>
      <trkpt lat="48.97385" lon="7.97941">
        <ele>168.85</ele>
        <time>2021-07-19T15:09:47Z</time>
      </trkpt>
      <trkpt lat="48.97382" lon="7.97918">
        <ele>169.33</ele>
        <time>2021-07-19T15:09:49Z</time>
      </trkpt>
      <trkpt lat="48.97381" lon="7.97907">
        <ele>169.33</ele>
        <time>2021-07-19T15:09:50Z</time>
      </trkpt>
      <trkpt lat="48.9738" lon="7.97894">
        <ele>169.33</ele>
        <time>2021-07-19T15:09:51Z</time>
      </trkpt>
      <trkpt lat="48.97378" lon="7.97881">
        <ele>168.85</ele>
        <time>2021-07-19T15:09:52Z</time>
      </trkpt>
      <trkpt lat="48.97378" lon="7.97864">
        <ele>169.33</ele>
        <time>2021-07-19T15:09:53Z</time>
      </trkpt>
      <trkpt lat="48.97395" lon="7.97634">
        <ele>170.77</ele>
        <time>2021-07-19T15:10:06Z</time>
      </trkpt>
      <trkpt lat="48.97383" lon="7.9747">
        <ele>174.14</ele>
        <time>2021-07-19T15:10:15Z</time>
      </trkpt>
      <trkpt lat="48.97378" lon="7.97453">
        <ele>173.66</ele>
        <time>2021-07-19T15:10:16Z</time>
      </trkpt>
      <trkpt lat="48.9737" lon="7.97438">
        <ele>173.17</ele>
        <time>2021-07-19T15:10:17Z</time>
      </trkpt>
      <trkpt lat="48.97282" lon="7.97298">
        <ele>170.77</ele>
        <time>2021-07-19T15:10:25Z</time>
      </trkpt>
      <trkpt lat="48.97234" lon="7.97231">
        <ele>170.29</ele>
        <time>2021-07-19T15:10:29Z</time>
      </trkpt>
      <trkpt lat="48.97219" lon="7.97221">
        <ele>169.81</ele>
        <time>2021-07-19T15:10:30Z</time>
      </trkpt>
      <trkpt lat="48.97205" lon="7.9721">
        <ele>169.81</ele>
        <time>2021-07-19T15:10:31Z</time>
      </trkpt>
      <trkpt lat="48.96991" lon="7.97108">
        <ele>172.21</ele>
        <time>2021-07-19T15:10:44Z</time>
      </trkpt>
      <trkpt lat="48.96827" lon="7.97046">
        <ele>174.62</ele>
        <time>2021-07-19T15:10:53Z</time>
      </trkpt>
      <trkpt lat="48.96645" lon="7.96945">
        <ele>180.87</ele>
        <time>2021-07-19T15:11:03Z</time>
      </trkpt>
      <trkpt lat="48.96547" lon="7.96903">
        <ele>179.42</ele>
        <time>2021-07-19T15:11:09Z</time>
      </trkpt>
      <trkpt lat="48.96538" lon="7.96896">
        <ele>179.42</ele>
        <time>2021-07-19T15:11:10Z</time>
      </trkpt>
      <trkpt lat="48.96531" lon="7.96888">
        <ele>179.42</ele>
        <time>2021-07-19T15:11:11Z</time>
      </trkpt>
      <trkpt lat="48.96517" lon="7.96862">
        <ele>178.94</ele>
        <time>2021-07-19T15:11:12Z</time>
      </trkpt>
      <trkpt lat="48.9651" lon="7.96849">
        <ele>178.46</ele>
        <time>2021-07-19T15:11:13Z</time>
      </trkpt>
      <trkpt lat="48.96503" lon="7.96835">
        <ele>177.02</ele>
        <time>2021-07-19T15:11:14Z</time>
      </trkpt>
      <trkpt lat="48.96459" lon="7.96682">
        <ele>169.81</ele>
        <time>2021-07-19T15:11:22Z</time>
      </trkpt>
      <trkpt lat="48.96405" lon="7.96406">
        <ele>157.31</ele>
        <time>2021-07-19T15:11:35Z</time>
      </trkpt>
      <trkpt lat="48.96383" lon="7.9626">
        <ele>153.47</ele>
        <time>2021-07-19T15:11:41Z</time>
      </trkpt>
      <trkpt lat="48.96382" lon="7.96236">
        <ele>152.03</ele>
        <time>2021-07-19T15:11:42Z</time>
      </trkpt>
      <trkpt lat="48.96382" lon="7.96211">
        <ele>150.58</ele>
        <time>2021-07-19T15:11:43Z</time>
      </trkpt>
      <trkpt lat="48.96383" lon="7.96187">
        <ele>149.62</ele>
        <time>2021-07-19T15:11:44Z</time>
      </trkpt>
      <trkpt lat="48.96385" lon="7.96163">
        <ele>148.66</ele>
        <time>2021-07-19T15:11:45Z</time>
      </trkpt>
      <trkpt lat="48.9641" lon="7.95994">
        <ele>143.37</ele>
        <time>2021-07-19T15:11:52Z</time>
      </trkpt>
      <trkpt lat="48.96411" lon="7.95975">
        <ele>142.89</ele>
        <time>2021-07-19T15:11:53Z</time>
      </trkpt>
      <trkpt lat="48.96409" lon="7.95957">
        <ele>143.37</ele>
        <time>2021-07-19T15:11:54Z</time>
      </trkpt>
      <trkpt lat="48.96406" lon="7.95937">
        <ele>142.89</ele>
        <time>2021-07-19T15:11:55Z</time>
      </trkpt>
      <trkpt lat="48.96402" lon="7.95917">
        <ele>143.37</ele>
        <time>2021-07-19T15:11:56Z</time>
      </trkpt>
      <trkpt lat="48.96327" lon="7.95687">
        <ele>142.41</ele>
        <time>2021-07-19T15:12:06Z</time>
      </trkpt>
      <trkpt lat="48.96255" lon="7.95511">
        <ele>143.37</ele>
        <time>2021-07-19T15:12:14Z</time>
      </trkpt>
      <trkpt lat="48.9619" lon="7.95377">
        <ele>149.14</ele>
        <time>2021-07-19T15:12:22Z</time>
      </trkpt>
      <trkpt lat="48.96188" lon="7.95368">
        <ele>149.14</ele>
        <time>2021-07-19T15:12:23Z</time>
      </trkpt>
      <trkpt lat="48.96187" lon="7.95358">
        <ele>149.14</ele>
        <time>2021-07-19T15:12:24Z</time>
      </trkpt>
      <trkpt lat="48.96186" lon="7.95349">
        <ele>149.62</ele>
        <time>2021-07-19T15:12:25Z</time>
      </trkpt>
      <trkpt lat="48.96185" lon="7.95334">
        <ele>149.62</ele>
        <time>2021-07-19T15:12:26Z</time>
      </trkpt>
      <trkpt lat="48.96185" lon="7.95334">
        <ele>149.62</ele>
        <time>2021-07-19T15:12:27Z</time>
      </trkpt>
      <trkpt lat="48.96185" lon="7.95328">
        <ele>149.62</ele>
        <time>2021-07-19T15:12:28Z</time>
      </trkpt>
      <trkpt lat="48.96184" lon="7.95321">
        <ele>149.62</ele>
        <time>2021-07-19T15:12:31Z</time>
      </trkpt>
      <trkpt lat="48.96184" lon="7.9532">
        <ele>149.62</ele>
        <time>2021-07-19T15:12:32Z</time>
      </trkpt>
      <trkpt lat="48.96167" lon="7.95317">
        <ele>149.62</ele>
        <time>2021-07-19T15:12:33Z</time>
      </trkpt>
      <trkpt lat="48.96165" lon="7.9531">
        <ele>149.62</ele>
        <time>2021-07-19T15:12:34Z</time>
      </trkpt>
      <trkpt lat="48.96163" lon="7.95301">
        <ele>150.1</ele>
        <time>2021-07-19T15:12:35Z</time>
      </trkpt>
      <trkpt lat="48.9616" lon="7.95292">
        <ele>150.1</ele>
        <time>2021-07-19T15:12:36Z</time>
      </trkpt>
      <trkpt lat="48.96142" lon="7.95279">
        <ele>150.58</ele>
        <time>2021-07-19T15:12:37Z</time>
      </trkpt>
      <trkpt lat="48.96133" lon="7.9527">
        <ele>151.54</ele>
        <time>2021-07-19T15:12:39Z</time>
      </trkpt>
      <trkpt lat="48.96123" lon="7.9526">
        <ele>152.03</ele>
        <time>2021-07-19T15:12:40Z</time>
      </trkpt>
      <trkpt lat="48.96114" lon="7.95247">
        <ele>152.03</ele>
        <time>2021-07-19T15:12:41Z</time>
      </trkpt>
      <trkpt lat="48.96022" lon="7.95094">
        <ele>152.99</ele>
        <time>2021-07-19T15:12:50Z</time>
      </trkpt>
      <trkpt lat="48.95907" lon="7.94885">
        <ele>155.39</ele>
        <time>2021-07-19T15:12:59Z</time>
      </trkpt>
      <trkpt lat="48.9576" lon="7.94689">
        <ele>160.68</ele>
        <time>2021-07-19T15:13:08Z</time>
      </trkpt>
      <trkpt lat="48.95615" lon="7.94471">
        <ele>170.29</ele>
        <time>2021-07-19T15:13:18Z</time>
      </trkpt>
      <trkpt lat="48.95529" lon="7.94371">
        <ele>172.69</ele>
        <time>2021-07-19T15:13:25Z</time>
      </trkpt>
      <trkpt lat="48.95502" lon="7.94342">
        <ele>171.25</ele>
        <time>2021-07-19T15:13:29Z</time>
      </trkpt>
      <trkpt lat="48.95498" lon="7.94338">
        <ele>170.77</ele>
        <time>2021-07-19T15:13:30Z</time>
      </trkpt>
      <trkpt lat="48.95493" lon="7.94335">
        <ele>170.77</ele>
        <time>2021-07-19T15:13:31Z</time>
      </trkpt>
      <trkpt lat="48.95489" lon="7.94334">
        <ele>170.77</ele>
        <time>2021-07-19T15:13:32Z</time>
      </trkpt>
      <trkpt lat="48.95484" lon="7.94333">
        <ele>169.81</ele>
        <time>2021-07-19T15:13:33Z</time>
      </trkpt>
      <trkpt lat="48.9548" lon="7.94333">
        <ele>169.33</ele>
        <time>2021-07-19T15:13:34Z</time>
      </trkpt>
      <trkpt lat="48.95476" lon="7.94332">
        <ele>168.85</ele>
        <time>2021-07-19T15:13:35Z</time>
      </trkpt>
      <trkpt lat="48.95447" lon="7.94333">
        <ele>164.04</ele>
        <time>2021-07-19T15:13:44Z</time>
      </trkpt>
      <trkpt lat="48.95393" lon="7.94336">
        <ele>155.39</ele>
        <time>2021-07-19T15:13:56Z</time>
      </trkpt>
      <trkpt lat="48.95384" lon="7.94337">
        <ele>153.95</ele>
        <time>2021-07-19T15:13:58Z</time>
      </trkpt>
      <trkpt lat="48.95381" lon="7.94337">
        <ele>152.99</ele>
        <time>2021-07-19T15:13:59Z</time>
      </trkpt>
      <trkpt lat="48.95377" lon="7.94335">
        <ele>152.51</ele>
        <time>2021-07-19T15:14:00Z</time>
      </trkpt>
      <trkpt lat="48.95374" lon="7.94334">
        <ele>152.51</ele>
        <time>2021-07-19T15:14:01Z</time>
      </trkpt>
      <trkpt lat="48.95371" lon="7.94332">
        <ele>152.51</ele>
        <time>2021-07-19T15:14:02Z</time>
      </trkpt>
      <trkpt lat="48.95368" lon="7.94331">
        <ele>152.51</ele>
        <time>2021-07-19T15:14:03Z</time>
      </trkpt>
      <trkpt lat="48.95366" lon="7.94329">
        <ele>153.47</ele>
        <time>2021-07-19T15:14:04Z</time>
      </trkpt>
      <trkpt lat="48.95364" lon="7.94326">
        <ele>153.47</ele>
        <time>2021-07-19T15:14:05Z</time>
      </trkpt>
      <trkpt lat="48.95364" lon="7.94321">
        <ele>153.47</ele>
        <time>2021-07-19T15:14:06Z</time>
      </trkpt>
      <trkpt lat="48.95364" lon="7.94314">
        <ele>152.99</ele>
        <time>2021-07-19T15:14:07Z</time>
      </trkpt>
      <trkpt lat="48.95362" lon="7.94218">
        <ele>151.06</ele>
        <time>2021-07-19T15:14:18Z</time>
      </trkpt>
      <trkpt lat="48.9536" lon="7.9421">
        <ele>150.58</ele>
        <time>2021-07-19T15:14:19Z</time>
      </trkpt>
      <trkpt lat="48.95341" lon="7.94135">
        <ele>151.06</ele>
        <time>2021-07-19T15:14:32Z</time>
      </trkpt>
      <trkpt lat="48.95315" lon="7.94084">
        <ele>150.58</ele>
        <time>2021-07-19T15:14:45Z</time>
      </trkpt>
      <trkpt lat="48.95307" lon="7.94059">
        <ele>151.54</ele>
        <time>2021-07-19T15:14:53Z</time>
      </trkpt>
      <trkpt lat="48.95308" lon="7.94054">
        <ele>151.54</ele>
        <time>2021-07-19T15:14:54Z</time>
      </trkpt>
      <trkpt lat="48.9531" lon="7.94048">
        <ele>151.06</ele>
        <time>2021-07-19T15:14:55Z</time>
      </trkpt>
      <trkpt lat="48.95336" lon="7.9396">
        <ele>150.58</ele>
        <time>2021-07-19T15:15:06Z</time>
      </trkpt>
      <trkpt lat="48.95359" lon="7.93903">
        <ele>150.58</ele>
        <time>2021-07-19T15:15:16Z</time>
      </trkpt>
      <trkpt lat="48.95398" lon="7.93818">
        <ele>150.58</ele>
        <time>2021-07-19T15:15:31Z</time>
      </trkpt>
      <trkpt lat="48.95453" lon="7.93759">
        <ele>149.62</ele>
        <time>2021-07-19T15:15:43Z</time>
      </trkpt>
      <trkpt lat="48.95487" lon="7.93729">
        <ele>149.62</ele>
        <time>2021-07-19T15:15:50Z</time>
      </trkpt>
      <trkpt lat="48.95517" lon="7.93713">
        <ele>148.18</ele>
        <time>2021-07-19T15:16:00Z</time>
      </trkpt>
      <trkpt lat="48.95542" lon="7.93697">
        <ele>149.14</ele>
        <time>2021-07-19T15:16:07Z</time>
      </trkpt>
      <trkpt lat="48.95546" lon="7.93694">
        <ele>149.14</ele>
        <time>2021-07-19T15:16:08Z</time>
      </trkpt>
      <trkpt lat="48.95551" lon="7.93691">
        <ele>149.14</ele>
        <time>2021-07-19T15:16:09Z</time>
      </trkpt>
      <trkpt lat="48.95576" lon="7.93669">
        <ele>146.74</ele>
        <time>2021-07-19T15:16:14Z</time>
      </trkpt>
      <trkpt lat="48.9558" lon="7.93664">
        <ele>146.74</ele>
        <time>2021-07-19T15:16:15Z</time>
      </trkpt>
      <trkpt lat="48.9559" lon="7.93654">
        <ele>146.74</ele>
        <time>2021-07-19T15:16:17Z</time>
      </trkpt>
      <trkpt lat="48.95649" lon="7.93561">
        <ele>152.99</ele>
        <time>2021-07-19T15:16:31Z</time>
      </trkpt>
      <trkpt lat="48.95714" lon="7.93431">
        <ele>154.43</ele>
        <time>2021-07-19T15:16:48Z</time>
      </trkpt>
      <trkpt lat="48.95718" lon="7.934">
        <ele>153.95</ele>
        <time>2021-07-19T15:16:54Z</time>
      </trkpt>
      <trkpt lat="48.95716" lon="7.93386">
        <ele>154.43</ele>
        <time>2021-07-19T15:16:55Z</time>
      </trkpt>
      <trkpt lat="48.95715" lon="7.93379">
        <ele>154.43</ele>
        <time>2021-07-19T15:16:56Z</time>
      </trkpt>
      <trkpt lat="48.95689" lon="7.93286">
        <ele>157.79</ele>
        <time>2021-07-19T15:17:05Z</time>
      </trkpt>
      <trkpt lat="48.95682" lon="7.93235">
        <ele>158.75</ele>
        <time>2021-07-19T15:17:07Z</time>
      </trkpt>
      <trkpt lat="48.9568" lon="7.93216">
        <ele>160.2</ele>
        <time>2021-07-19T15:17:08Z</time>
      </trkpt>
      <trkpt lat="48.9568" lon="7.93216">
        <ele>161.16</ele>
        <time>2021-07-19T15:17:09Z</time>
      </trkpt>
      <trkpt lat="48.95682" lon="7.93197">
        <ele>162.6</ele>
        <time>2021-07-19T15:17:10Z</time>
      </trkpt>
      <trkpt lat="48.95684" lon="7.93177">
        <ele>163.08</ele>
        <time>2021-07-19T15:17:11Z</time>
      </trkpt>
      <trkpt lat="48.95709" lon="7.92967">
        <ele>172.69</ele>
        <time>2021-07-19T15:17:21Z</time>
      </trkpt>
      <trkpt lat="48.95746" lon="7.92649">
        <ele>184.71</ele>
        <time>2021-07-19T15:17:34Z</time>
      </trkpt>
      <trkpt lat="48.95754" lon="7.92457">
        <ele>186.63</ele>
        <time>2021-07-19T15:17:42Z</time>
      </trkpt>
      <trkpt lat="48.95754" lon="7.92439">
        <ele>186.15</ele>
        <time>2021-07-19T15:17:43Z</time>
      </trkpt>
      <trkpt lat="48.95756" lon="7.92424">
        <ele>186.15</ele>
        <time>2021-07-19T15:17:44Z</time>
      </trkpt>
      <trkpt lat="48.9576" lon="7.92408">
        <ele>186.63</ele>
        <time>2021-07-19T15:17:45Z</time>
      </trkpt>
      <trkpt lat="48.95764" lon="7.92393">
        <ele>186.15</ele>
        <time>2021-07-19T15:17:46Z</time>
      </trkpt>
      <trkpt lat="48.95769" lon="7.92378">
        <ele>186.63</ele>
        <time>2021-07-19T15:17:47Z</time>
      </trkpt>
      <trkpt lat="48.95776" lon="7.92366">
        <ele>187.11</ele>
        <time>2021-07-19T15:17:48Z</time>
      </trkpt>
      <trkpt lat="48.95848" lon="7.92253">
        <ele>188.56</ele>
        <time>2021-07-19T15:17:59Z</time>
      </trkpt>
      <trkpt lat="48.95866" lon="7.92248">
        <ele>189.04</ele>
        <time>2021-07-19T15:18:03Z</time>
      </trkpt>
      <trkpt lat="48.95868" lon="7.92245">
        <ele>189.04</ele>
        <time>2021-07-19T15:18:04Z</time>
      </trkpt>
      <trkpt lat="48.95871" lon="7.92224">
        <ele>189.04</ele>
        <time>2021-07-19T15:18:05Z</time>
      </trkpt>
      <trkpt lat="48.95871" lon="7.92224">
        <ele>189.04</ele>
        <time>2021-07-19T15:18:06Z</time>
      </trkpt>
      <trkpt lat="48.95876" lon="7.92218">
        <ele>189.04</ele>
        <time>2021-07-19T15:18:07Z</time>
      </trkpt>
      <trkpt lat="48.95886" lon="7.92203">
        <ele>189.04</ele>
        <time>2021-07-19T15:18:08Z</time>
      </trkpt>
      <trkpt lat="48.95886" lon="7.92203">
        <ele>189.04</ele>
        <time>2021-07-19T15:18:09Z</time>
      </trkpt>
      <trkpt lat="48.95892" lon="7.92194">
        <ele>189.04</ele>
        <time>2021-07-19T15:18:10Z</time>
      </trkpt>
      <trkpt lat="48.9595" lon="7.92111">
        <ele>191.44</ele>
        <time>2021-07-19T15:18:22Z</time>
      </trkpt>
      <trkpt lat="48.9596" lon="7.92097">
        <ele>191.44</ele>
        <time>2021-07-19T15:18:25Z</time>
      </trkpt>
      <trkpt lat="48.95964" lon="7.92092">
        <ele>191.44</ele>
        <time>2021-07-19T15:18:26Z</time>
      </trkpt>
      <trkpt lat="48.95973" lon="7.92087">
        <ele>190</ele>
        <time>2021-07-19T15:18:28Z</time>
      </trkpt>
      <trkpt lat="48.96075" lon="7.92038">
        <ele>188.08</ele>
        <time>2021-07-19T15:18:39Z</time>
      </trkpt>
      <trkpt lat="48.96174" lon="7.91973">
        <ele>186.15</ele>
        <time>2021-07-19T15:18:50Z</time>
      </trkpt>
      <trkpt lat="48.96253" lon="7.91946">
        <ele>184.71</ele>
        <time>2021-07-19T15:18:57Z</time>
      </trkpt>
      <trkpt lat="48.96264" lon="7.91943">
        <ele>184.71</ele>
        <time>2021-07-19T15:18:58Z</time>
      </trkpt>
      <trkpt lat="48.96274" lon="7.9194">
        <ele>184.71</ele>
        <time>2021-07-19T15:18:59Z</time>
      </trkpt>
      <trkpt lat="48.96284" lon="7.91933">
        <ele>184.23</ele>
        <time>2021-07-19T15:19:00Z</time>
      </trkpt>
      <trkpt lat="48.96294" lon="7.91924">
        <ele>184.71</ele>
        <time>2021-07-19T15:19:01Z</time>
      </trkpt>
      <trkpt lat="48.96303" lon="7.91915">
        <ele>184.23</ele>
        <time>2021-07-19T15:19:02Z</time>
      </trkpt>
      <trkpt lat="48.96313" lon="7.91906">
        <ele>183.75</ele>
        <time>2021-07-19T15:19:03Z</time>
      </trkpt>
      <trkpt lat="48.96321" lon="7.91895">
        <ele>183.75</ele>
        <time>2021-07-19T15:19:04Z</time>
      </trkpt>
      <trkpt lat="48.964" lon="7.91756">
        <ele>191.44</ele>
        <time>2021-07-19T15:19:15Z</time>
      </trkpt>
      <trkpt lat="48.96469" lon="7.91608">
        <ele>195.28</ele>
        <time>2021-07-19T15:19:25Z</time>
      </trkpt>
      <trkpt lat="48.96471" lon="7.9158">
        <ele>196.25</ele>
        <time>2021-07-19T15:19:27Z</time>
      </trkpt>
      <trkpt lat="48.96471" lon="7.91567">
        <ele>196.25</ele>
        <time>2021-07-19T15:19:28Z</time>
      </trkpt>
      <trkpt lat="48.9647" lon="7.91549">
        <ele>195.77</ele>
        <time>2021-07-19T15:19:29Z</time>
      </trkpt>
      <trkpt lat="48.96469" lon="7.91531">
        <ele>195.77</ele>
        <time>2021-07-19T15:19:30Z</time>
      </trkpt>
      <trkpt lat="48.96467" lon="7.91515">
        <ele>195.77</ele>
        <time>2021-07-19T15:19:31Z</time>
      </trkpt>
      <trkpt lat="48.96457" lon="7.91444">
        <ele>195.77</ele>
        <time>2021-07-19T15:19:35Z</time>
      </trkpt>
      <trkpt lat="48.96457" lon="7.91426">
        <ele>195.77</ele>
        <time>2021-07-19T15:19:36Z</time>
      </trkpt>
      <trkpt lat="48.96458" lon="7.91411">
        <ele>195.77</ele>
        <time>2021-07-19T15:19:37Z</time>
      </trkpt>
      <trkpt lat="48.96464" lon="7.91394">
        <ele>195.28</ele>
        <time>2021-07-19T15:19:38Z</time>
      </trkpt>
      <trkpt lat="48.9647" lon="7.91382">
        <ele>194.8</ele>
        <time>2021-07-19T15:19:39Z</time>
      </trkpt>
      <trkpt lat="48.96477" lon="7.9137">
        <ele>194.32</ele>
        <time>2021-07-19T15:19:40Z</time>
      </trkpt>
      <trkpt lat="48.96483" lon="7.91363">
        <ele>193.36</ele>
        <time>2021-07-19T15:19:41Z</time>
      </trkpt>
      <trkpt lat="48.96493" lon="7.91355">
        <ele>192.88</ele>
        <time>2021-07-19T15:19:42Z</time>
      </trkpt>
      <trkpt lat="48.96503" lon="7.91346">
        <ele>192.88</ele>
        <time>2021-07-19T15:19:43Z</time>
      </trkpt>
      <trkpt lat="48.96514" lon="7.91338">
        <ele>191.92</ele>
        <time>2021-07-19T15:19:44Z</time>
      </trkpt>
      <trkpt lat="48.96558" lon="7.91301">
        <ele>188.08</ele>
        <time>2021-07-19T15:19:51Z</time>
      </trkpt>
      <trkpt lat="48.96574" lon="7.91265">
        <ele>186.63</ele>
        <time>2021-07-19T15:20:01Z</time>
      </trkpt>
      <trkpt lat="48.96582" lon="7.9124">
        <ele>186.63</ele>
        <time>2021-07-19T15:20:11Z</time>
      </trkpt>
      <trkpt lat="48.96582" lon="7.9124">
        <ele>187.59</ele>
        <time>2021-07-19T15:20:18Z</time>
      </trkpt>
      <trkpt lat="48.96598" lon="7.91191">
        <ele>189.04</ele>
        <time>2021-07-19T15:20:30Z</time>
      </trkpt>
      <trkpt lat="48.96615" lon="7.91146">
        <ele>192.88</ele>
        <time>2021-07-19T15:20:44Z</time>
      </trkpt>
      <trkpt lat="48.96621" lon="7.91135">
        <ele>194.32</ele>
        <time>2021-07-19T15:20:49Z</time>
      </trkpt>
      <trkpt lat="48.96623" lon="7.91132">
        <ele>194.32</ele>
        <time>2021-07-19T15:20:50Z</time>
      </trkpt>
      <trkpt lat="48.96624" lon="7.9113">
        <ele>194.8</ele>
        <time>2021-07-19T15:20:51Z</time>
      </trkpt>
      <trkpt lat="48.96625" lon="7.91129">
        <ele>196.25</ele>
        <time>2021-07-19T15:21:07Z</time>
      </trkpt>
      <trkpt lat="48.96625" lon="7.91129">
        <ele>196.25</ele>
        <time>2021-07-19T15:21:28Z</time>
      </trkpt>
      <trkpt lat="48.96625" lon="7.91129">
        <ele>196.25</ele>
        <time>2021-07-19T15:21:50Z</time>
      </trkpt>
      <trkpt lat="48.96625" lon="7.91129">
        <ele>198.17</ele>
        <time>2021-07-19T15:23:00Z</time>
      </trkpt>
      <trkpt lat="48.96625" lon="7.91129">
        <ele>198.17</ele>
        <time>2021-07-19T15:24:05Z</time>
      </trkpt>
      <trkpt lat="48.96625" lon="7.91129">
        <ele>198.65</ele>
        <time>2021-07-19T15:25:52Z</time>
      </trkpt>
      <trkpt lat="48.96625" lon="7.91129">
        <ele>198.65</ele>
        <time>2021-07-19T15:29:11Z</time>
      </trkpt>
      <trkpt lat="48.96625" lon="7.91129">
        <ele>199.13</ele>
        <time>2021-07-19T15:30:50Z</time>
      </trkpt>
      <trkpt lat="48.96625" lon="7.91129">
        <ele>199.13</ele>
        <time>2021-07-19T15:33:27Z</time>
      </trkpt>
      <trkpt lat="48.96625" lon="7.91129">
        <ele>198.65</ele>
        <time>2021-07-19T15:36:11Z</time>
      </trkpt>
      <trkpt lat="48.96625" lon="7.91129">
        <ele>198.65</ele>
        <time>2021-07-19T15:38:24Z</time>
      </trkpt>
      <trkpt lat="48.96625" lon="7.91129">
        <ele>198.65</ele>
        <time>2021-07-19T15:40:53Z</time>
      </trkpt>
      <trkpt lat="48.96625" lon="7.91129">
        <ele>198.65</ele>
        <time>2021-07-19T15:43:16Z</time>
      </trkpt>
      <trkpt lat="48.96625" lon="7.91129">
        <ele>198.17</ele>
        <time>2021-07-19T15:44:26Z</time>
      </trkpt>
      <trkpt lat="48.96625" lon="7.91129">
        <ele>197.69</ele>
        <time>2021-07-19T15:49:01Z</time>
      </trkpt>
      <trkpt lat="48.96625" lon="7.91129">
        <ele>197.69</ele>
        <time>2021-07-19T15:51:40Z</time>
      </trkpt>
      <trkpt lat="48.96625" lon="7.91129">
        <ele>198.17</ele>
        <time>2021-07-19T15:53:28Z</time>
      </trkpt>
      <trkpt lat="48.96625" lon="7.91129">
        <ele>198.17</ele>
        <time>2021-07-19T15:54:41Z</time>
      </trkpt>
      <trkpt lat="48.96625" lon="7.91129">
        <ele>198.65</ele>
        <time>2021-07-19T15:55:45Z</time>
      </trkpt>
      <trkpt lat="48.96625" lon="7.91129">
        <ele>198.65</ele>
        <time>2021-07-19T15:57:03Z</time>
      </trkpt>
      <trkpt lat="48.96625" lon="7.91129">
        <ele>198.65</ele>
        <time>2021-07-19T15:59:27Z</time>
      </trkpt>
      <trkpt lat="48.96625" lon="7.91129">
        <ele>199.13</ele>
        <time>2021-07-19T16:00:29Z</time>
      </trkpt>
      <trkpt lat="48.96625" lon="7.91129">
        <ele>199.13</ele>
        <time>2021-07-19T16:01:20Z</time>
      </trkpt>
      <trkpt lat="48.96625" lon="7.91129">
        <ele>200.09</ele>
        <time>2021-07-19T16:02:26Z</time>
      </trkpt>
      <trkpt lat="48.96625" lon="7.91129">
        <ele>200.09</ele>
        <time>2021-07-19T16:04:25Z</time>
      </trkpt>
      <trkpt lat="48.96647" lon="7.91041">
        <ele>209.22</ele>
        <time>2021-07-19T19:18:02Z</time>
      </trkpt>
      <trkpt lat="48.96648" lon="7.91043">
        <ele>207.3</ele>
        <time>2021-07-19T19:18:03Z</time>
      </trkpt>
      <trkpt lat="48.96648" lon="7.91043">
        <ele>211.63</ele>
        <time>2021-07-19T19:18:04Z</time>
      </trkpt>
      <trkpt lat="48.96647" lon="7.91041">
        <ele>213.07</ele>
        <time>2021-07-19T19:18:05Z</time>
      </trkpt>
      <trkpt lat="48.96647" lon="7.91041">
        <ele>220.76</ele>
        <time>2021-07-19T19:18:06Z</time>
      </trkpt>
      <trkpt lat="48.96641" lon="7.91025">
        <ele>219.32</ele>
        <time>2021-07-19T19:18:07Z</time>
      </trkpt>
      <trkpt lat="48.96641" lon="7.91025">
        <ele>211.63</ele>
        <time>2021-07-19T19:18:08Z</time>
      </trkpt>
      <trkpt lat="48.96637" lon="7.91014">
        <ele>205.38</ele>
        <time>2021-07-19T19:18:10Z</time>
      </trkpt>
      <trkpt lat="48.96592" lon="7.90939">
        <ele>184.71</ele>
        <time>2021-07-19T19:18:22Z</time>
      </trkpt>
      <trkpt lat="48.96533" lon="7.90831">
        <ele>178.94</ele>
        <time>2021-07-19T19:18:34Z</time>
      </trkpt>
      <trkpt lat="48.96463" lon="7.90715">
        <ele>184.71</ele>
        <time>2021-07-19T19:18:47Z</time>
      </trkpt>
      <trkpt lat="48.96399" lon="7.90612">
        <ele>181.83</ele>
        <time>2021-07-19T19:18:57Z</time>
      </trkpt>
      <trkpt lat="48.9632" lon="7.90472">
        <ele>171.73</ele>
        <time>2021-07-19T19:19:10Z</time>
      </trkpt>
      <trkpt lat="48.96308" lon="7.90453">
        <ele>171.25</ele>
        <time>2021-07-19T19:19:12Z</time>
      </trkpt>
      <trkpt lat="48.96302" lon="7.90443">
        <ele>170.77</ele>
        <time>2021-07-19T19:19:13Z</time>
      </trkpt>
      <trkpt lat="48.96295" lon="7.90437">
        <ele>170.29</ele>
        <time>2021-07-19T19:19:14Z</time>
      </trkpt>
      <trkpt lat="48.96288" lon="7.9043">
        <ele>169.81</ele>
        <time>2021-07-19T19:19:15Z</time>
      </trkpt>
      <trkpt lat="48.96281" lon="7.90423">
        <ele>169.81</ele>
        <time>2021-07-19T19:19:16Z</time>
      </trkpt>
      <trkpt lat="48.96274" lon="7.90417">
        <ele>169.33</ele>
        <time>2021-07-19T19:19:17Z</time>
      </trkpt>
      <trkpt lat="48.96268" lon="7.90412">
        <ele>168.85</ele>
        <time>2021-07-19T19:19:18Z</time>
      </trkpt>
      <trkpt lat="48.96262" lon="7.90408">
        <ele>168.37</ele>
        <time>2021-07-19T19:19:19Z</time>
      </trkpt>
      <trkpt lat="48.96256" lon="7.90405">
        <ele>168.37</ele>
        <time>2021-07-19T19:19:20Z</time>
      </trkpt>
      <trkpt lat="48.96245" lon="7.90399">
        <ele>167.89</ele>
        <time>2021-07-19T19:19:21Z</time>
      </trkpt>
      <trkpt lat="48.96245" lon="7.90399">
        <ele>167.41</ele>
        <time>2021-07-19T19:19:22Z</time>
      </trkpt>
      <trkpt lat="48.9624" lon="7.90399">
        <ele>167.41</ele>
        <time>2021-07-19T19:19:23Z</time>
      </trkpt>
      <trkpt lat="48.96225" lon="7.90401">
        <ele>167.41</ele>
        <time>2021-07-19T19:19:24Z</time>
      </trkpt>
      <trkpt lat="48.96225" lon="7.90401">
        <ele>167.89</ele>
        <time>2021-07-19T19:19:25Z</time>
      </trkpt>
      <trkpt lat="48.9622" lon="7.90404">
        <ele>167.89</ele>
        <time>2021-07-19T19:19:26Z</time>
      </trkpt>
      <trkpt lat="48.96139" lon="7.90454">
        <ele>181.83</ele>
        <time>2021-07-19T19:19:37Z</time>
      </trkpt>
      <trkpt lat="48.96027" lon="7.9052">
        <ele>178.94</ele>
        <time>2021-07-19T19:19:50Z</time>
      </trkpt>
      <trkpt lat="48.9602" lon="7.90522">
        <ele>177.98</ele>
        <time>2021-07-19T19:19:51Z</time>
      </trkpt>
      <trkpt lat="48.9602" lon="7.90522">
        <ele>177.02</ele>
        <time>2021-07-19T19:19:52Z</time>
      </trkpt>
      <trkpt lat="48.96012" lon="7.9052">
        <ele>176.06</ele>
        <time>2021-07-19T19:19:53Z</time>
      </trkpt>
      <trkpt lat="48.96004" lon="7.90516">
        <ele>175.58</ele>
        <time>2021-07-19T19:19:54Z</time>
      </trkpt>
      <trkpt lat="48.95997" lon="7.90507">
        <ele>174.62</ele>
        <time>2021-07-19T19:19:55Z</time>
      </trkpt>
      <trkpt lat="48.9599" lon="7.90499">
        <ele>175.1</ele>
        <time>2021-07-19T19:19:56Z</time>
      </trkpt>
      <trkpt lat="48.95983" lon="7.90489">
        <ele>175.58</ele>
        <time>2021-07-19T19:19:57Z</time>
      </trkpt>
      <trkpt lat="48.95912" lon="7.90337">
        <ele>170.29</ele>
        <time>2021-07-19T19:20:09Z</time>
      </trkpt>
      <trkpt lat="48.95866" lon="7.90252">
        <ele>162.6</ele>
        <time>2021-07-19T19:20:16Z</time>
      </trkpt>
      <trkpt lat="48.95859" lon="7.90244">
        <ele>161.64</ele>
        <time>2021-07-19T19:20:17Z</time>
      </trkpt>
      <trkpt lat="48.9585" lon="7.90235">
        <ele>160.2</ele>
        <time>2021-07-19T19:20:18Z</time>
      </trkpt>
      <trkpt lat="48.95841" lon="7.90226">
        <ele>161.64</ele>
        <time>2021-07-19T19:20:19Z</time>
      </trkpt>
      <trkpt lat="48.95832" lon="7.90216">
        <ele>160.68</ele>
        <time>2021-07-19T19:20:20Z</time>
      </trkpt>
      <trkpt lat="48.95797" lon="7.90189">
        <ele>155.39</ele>
        <time>2021-07-19T19:20:24Z</time>
      </trkpt>
      <trkpt lat="48.95789" lon="7.90184">
        <ele>153.95</ele>
        <time>2021-07-19T19:20:25Z</time>
      </trkpt>
      <trkpt lat="48.95781" lon="7.90181">
        <ele>152.03</ele>
        <time>2021-07-19T19:20:26Z</time>
      </trkpt>
      <trkpt lat="48.95774" lon="7.90181">
        <ele>151.06</ele>
        <time>2021-07-19T19:20:27Z</time>
      </trkpt>
      <trkpt lat="48.95766" lon="7.90183">
        <ele>149.62</ele>
        <time>2021-07-19T19:20:28Z</time>
      </trkpt>
      <trkpt lat="48.95759" lon="7.90188">
        <ele>148.18</ele>
        <time>2021-07-19T19:20:29Z</time>
      </trkpt>
      <trkpt lat="48.95752" lon="7.90193">
        <ele>148.18</ele>
        <time>2021-07-19T19:20:30Z</time>
      </trkpt>
      <trkpt lat="48.95745" lon="7.902">
        <ele>146.74</ele>
        <time>2021-07-19T19:20:31Z</time>
      </trkpt>
      <trkpt lat="48.95739" lon="7.90207">
        <ele>145.3</ele>
        <time>2021-07-19T19:20:32Z</time>
      </trkpt>
      <trkpt lat="48.95725" lon="7.90223">
        <ele>143.37</ele>
        <time>2021-07-19T19:20:34Z</time>
      </trkpt>
      <trkpt lat="48.95718" lon="7.90231">
        <ele>145.78</ele>
        <time>2021-07-19T19:20:35Z</time>
      </trkpt>
      <trkpt lat="48.95711" lon="7.9024">
        <ele>147.7</ele>
        <time>2021-07-19T19:20:36Z</time>
      </trkpt>
      <trkpt lat="48.95702" lon="7.90244">
        <ele>148.66</ele>
        <time>2021-07-19T19:20:37Z</time>
      </trkpt>
      <trkpt lat="48.95694" lon="7.90247">
        <ele>149.14</ele>
        <time>2021-07-19T19:20:38Z</time>
      </trkpt>
      <trkpt lat="48.95686" lon="7.90245">
        <ele>150.1</ele>
        <time>2021-07-19T19:20:39Z</time>
      </trkpt>
      <trkpt lat="48.95677" lon="7.90241">
        <ele>153.95</ele>
        <time>2021-07-19T19:20:40Z</time>
      </trkpt>
      <trkpt lat="48.95635" lon="7.90221">
        <ele>157.31</ele>
        <time>2021-07-19T19:20:45Z</time>
      </trkpt>
      <trkpt lat="48.95631" lon="7.90217">
        <ele>157.31</ele>
        <time>2021-07-19T19:20:46Z</time>
      </trkpt>
      <trkpt lat="48.95627" lon="7.90212">
        <ele>157.31</ele>
        <time>2021-07-19T19:20:47Z</time>
      </trkpt>
      <trkpt lat="48.95624" lon="7.90207">
        <ele>156.83</ele>
        <time>2021-07-19T19:20:48Z</time>
      </trkpt>
      <trkpt lat="48.95622" lon="7.90204">
        <ele>156.35</ele>
        <time>2021-07-19T19:20:49Z</time>
      </trkpt>
      <trkpt lat="48.9562" lon="7.90202">
        <ele>156.35</ele>
        <time>2021-07-19T19:20:50Z</time>
      </trkpt>
      <trkpt lat="48.9562" lon="7.902">
        <ele>156.35</ele>
        <time>2021-07-19T19:21:08Z</time>
      </trkpt>
      <trkpt lat="48.9562" lon="7.902">
        <ele>156.35</ele>
        <time>2021-07-19T19:21:22Z</time>
      </trkpt>
      <trkpt lat="48.95615" lon="7.90193">
        <ele>155.87</ele>
        <time>2021-07-19T19:21:23Z</time>
      </trkpt>
      <trkpt lat="48.95618" lon="7.9019">
        <ele>155.39</ele>
        <time>2021-07-19T19:21:24Z</time>
      </trkpt>
      <trkpt lat="48.9562" lon="7.90185">
        <ele>155.39</ele>
        <time>2021-07-19T19:21:25Z</time>
      </trkpt>
      <trkpt lat="48.95624" lon="7.9018">
        <ele>154.91</ele>
        <time>2021-07-19T19:21:26Z</time>
      </trkpt>
      <trkpt lat="48.95627" lon="7.90173">
        <ele>154.43</ele>
        <time>2021-07-19T19:21:27Z</time>
      </trkpt>
      <trkpt lat="48.95651" lon="7.90128">
        <ele>153.47</ele>
        <time>2021-07-19T19:21:32Z</time>
      </trkpt>
      <trkpt lat="48.9566" lon="7.90101">
        <ele>152.99</ele>
        <time>2021-07-19T19:21:33Z</time>
      </trkpt>
      <trkpt lat="48.9566" lon="7.90101">
        <ele>152.51</ele>
        <time>2021-07-19T19:21:34Z</time>
      </trkpt>
      <trkpt lat="48.95685" lon="7.89946">
        <ele>150.58</ele>
        <time>2021-07-19T19:21:43Z</time>
      </trkpt>
      <trkpt lat="48.95687" lon="7.89929">
        <ele>150.58</ele>
        <time>2021-07-19T19:21:44Z</time>
      </trkpt>
      <trkpt lat="48.95693" lon="7.89914">
        <ele>150.58</ele>
        <time>2021-07-19T19:21:45Z</time>
      </trkpt>
      <trkpt lat="48.957" lon="7.89899">
        <ele>150.58</ele>
        <time>2021-07-19T19:21:46Z</time>
      </trkpt>
      <trkpt lat="48.95708" lon="7.89885">
        <ele>150.1</ele>
        <time>2021-07-19T19:21:47Z</time>
      </trkpt>
      <trkpt lat="48.95717" lon="7.89873">
        <ele>149.62</ele>
        <time>2021-07-19T19:21:48Z</time>
      </trkpt>
      <trkpt lat="48.95804" lon="7.89742">
        <ele>145.3</ele>
        <time>2021-07-19T19:21:58Z</time>
      </trkpt>
      <trkpt lat="48.95871" lon="7.8964">
        <ele>143.37</ele>
        <time>2021-07-19T19:22:06Z</time>
      </trkpt>
      <trkpt lat="48.95916" lon="7.89517">
        <ele>144.34</ele>
        <time>2021-07-19T19:22:15Z</time>
      </trkpt>
      <trkpt lat="48.9594" lon="7.89389">
        <ele>145.3</ele>
        <time>2021-07-19T19:22:23Z</time>
      </trkpt>
      <trkpt lat="48.95941" lon="7.89373">
        <ele>145.3</ele>
        <time>2021-07-19T19:22:24Z</time>
      </trkpt>
      <trkpt lat="48.95945" lon="7.89294">
        <ele>146.74</ele>
        <time>2021-07-19T19:22:29Z</time>
      </trkpt>
      <trkpt lat="48.95947" lon="7.8928">
        <ele>146.74</ele>
        <time>2021-07-19T19:22:30Z</time>
      </trkpt>
      <trkpt lat="48.95951" lon="7.89266">
        <ele>147.22</ele>
        <time>2021-07-19T19:22:31Z</time>
      </trkpt>
      <trkpt lat="48.95961" lon="7.89239">
        <ele>147.22</ele>
        <time>2021-07-19T19:22:32Z</time>
      </trkpt>
      <trkpt lat="48.95961" lon="7.89239">
        <ele>147.7</ele>
        <time>2021-07-19T19:22:33Z</time>
      </trkpt>
      <trkpt lat="48.95968" lon="7.89228">
        <ele>147.7</ele>
        <time>2021-07-19T19:22:34Z</time>
      </trkpt>
      <trkpt lat="48.95975" lon="7.89219">
        <ele>147.7</ele>
        <time>2021-07-19T19:22:35Z</time>
      </trkpt>
      <trkpt lat="48.95983" lon="7.89211">
        <ele>148.18</ele>
        <time>2021-07-19T19:22:36Z</time>
      </trkpt>
      <trkpt lat="48.95991" lon="7.89203">
        <ele>148.66</ele>
        <time>2021-07-19T19:22:37Z</time>
      </trkpt>
      <trkpt lat="48.96" lon="7.892">
        <ele>148.66</ele>
        <time>2021-07-19T19:22:38Z</time>
      </trkpt>
      <trkpt lat="48.96009" lon="7.89198">
        <ele>148.66</ele>
        <time>2021-07-19T19:22:39Z</time>
      </trkpt>
      <trkpt lat="48.96125" lon="7.8917">
        <ele>152.99</ele>
        <time>2021-07-19T19:22:49Z</time>
      </trkpt>
      <trkpt lat="48.96234" lon="7.89128">
        <ele>158.27</ele>
        <time>2021-07-19T19:22:59Z</time>
      </trkpt>
      <trkpt lat="48.96316" lon="7.89021">
        <ele>161.16</ele>
        <time>2021-07-19T19:23:09Z</time>
      </trkpt>
      <trkpt lat="48.96408" lon="7.88888">
        <ele>164.52</ele>
        <time>2021-07-19T19:23:21Z</time>
      </trkpt>
      <trkpt lat="48.96529" lon="7.88705">
        <ele>174.62</ele>
        <time>2021-07-19T19:23:36Z</time>
      </trkpt>
      <trkpt lat="48.96577" lon="7.88623">
        <ele>179.9</ele>
        <time>2021-07-19T19:23:46Z</time>
      </trkpt>
      <trkpt lat="48.96589" lon="7.88604">
        <ele>180.87</ele>
        <time>2021-07-19T19:23:52Z</time>
      </trkpt>
      <trkpt lat="48.9659" lon="7.88603">
        <ele>180.87</ele>
        <time>2021-07-19T19:23:53Z</time>
      </trkpt>
      <trkpt lat="48.96583" lon="7.88606">
        <ele>181.35</ele>
        <time>2021-07-19T19:23:54Z</time>
      </trkpt>
      <trkpt lat="48.96582" lon="7.88603">
        <ele>181.35</ele>
        <time>2021-07-19T19:23:55Z</time>
      </trkpt>
      <trkpt lat="48.96581" lon="7.88601">
        <ele>181.35</ele>
        <time>2021-07-19T19:23:56Z</time>
      </trkpt>
      <trkpt lat="48.9658" lon="7.88599">
        <ele>181.35</ele>
        <time>2021-07-19T19:23:57Z</time>
      </trkpt>
      <trkpt lat="48.9658" lon="7.88597">
        <ele>181.35</ele>
        <time>2021-07-19T19:24:02Z</time>
      </trkpt>
      <trkpt lat="48.96577" lon="7.88591">
        <ele>181.35</ele>
        <time>2021-07-19T19:24:03Z</time>
      </trkpt>
      <trkpt lat="48.96576" lon="7.88589">
        <ele>181.35</ele>
        <time>2021-07-19T19:24:04Z</time>
      </trkpt>
      <trkpt lat="48.96553" lon="7.88526">
        <ele>180.87</ele>
        <time>2021-07-19T19:24:13Z</time>
      </trkpt>
      <trkpt lat="48.96514" lon="7.88355">
        <ele>175.58</ele>
        <time>2021-07-19T19:24:30Z</time>
      </trkpt>
      <trkpt lat="48.96502" lon="7.88294">
        <ele>174.14</ele>
        <time>2021-07-19T19:24:38Z</time>
      </trkpt>
      <trkpt lat="48.965" lon="7.88286">
        <ele>179.42</ele>
        <time>2021-07-19T19:24:50Z</time>
      </trkpt>
      <trkpt lat="48.96499" lon="7.88279">
        <ele>179.9</ele>
        <time>2021-07-19T19:24:51Z</time>
      </trkpt>
      <trkpt lat="48.96499" lon="7.88277">
        <ele>179.9</ele>
        <time>2021-07-19T19:24:52Z</time>
      </trkpt>
      <trkpt lat="48.96499" lon="7.88276">
        <ele>180.38</ele>
        <time>2021-07-19T19:24:57Z</time>
      </trkpt>
      <trkpt lat="48.96499" lon="7.88276">
        <ele>180.38</ele>
        <time>2021-07-19T19:24:58Z</time>
      </trkpt>
      <trkpt lat="48.96499" lon="7.88279">
        <ele>180.38</ele>
        <time>2021-07-19T19:24:59Z</time>
      </trkpt>
      <trkpt lat="48.965" lon="7.88281">
        <ele>180.38</ele>
        <time>2021-07-19T19:25:00Z</time>
      </trkpt>
      <trkpt lat="48.965" lon="7.88284">
        <ele>179.9</ele>
        <time>2021-07-19T19:25:01Z</time>
      </trkpt>
      <trkpt lat="48.96501" lon="7.88289">
        <ele>179.9</ele>
        <time>2021-07-19T19:25:02Z</time>
      </trkpt>
      <trkpt lat="48.96501" lon="7.88289">
        <ele>179.9</ele>
        <time>2021-07-19T19:25:03Z</time>
      </trkpt>
      <trkpt lat="48.96502" lon="7.88292">
        <ele>179.9</ele>
        <time>2021-07-19T19:25:04Z</time>
      </trkpt>
      <trkpt lat="48.96515" lon="7.88361">
        <ele>177.98</ele>
        <time>2021-07-19T19:25:14Z</time>
      </trkpt>
      <trkpt lat="48.96542" lon="7.8849">
        <ele>177.98</ele>
        <time>2021-07-19T19:25:25Z</time>
      </trkpt>
      <trkpt lat="48.96575" lon="7.88586">
        <ele>177.5</ele>
        <time>2021-07-19T19:25:33Z</time>
      </trkpt>
      <trkpt lat="48.96578" lon="7.88594">
        <ele>177.5</ele>
        <time>2021-07-19T19:25:34Z</time>
      </trkpt>
      <trkpt lat="48.96581" lon="7.886">
        <ele>177.98</ele>
        <time>2021-07-19T19:25:35Z</time>
      </trkpt>
      <trkpt lat="48.9658" lon="7.88618">
        <ele>178.46</ele>
        <time>2021-07-19T19:25:36Z</time>
      </trkpt>
      <trkpt lat="48.96577" lon="7.88624">
        <ele>178.46</ele>
        <time>2021-07-19T19:25:37Z</time>
      </trkpt>
      <trkpt lat="48.96572" lon="7.88632">
        <ele>178.94</ele>
        <time>2021-07-19T19:25:38Z</time>
      </trkpt>
      <trkpt lat="48.96567" lon="7.88641">
        <ele>178.94</ele>
        <time>2021-07-19T19:25:39Z</time>
      </trkpt>
      <trkpt lat="48.96507" lon="7.88739">
        <ele>173.66</ele>
        <time>2021-07-19T19:25:46Z</time>
      </trkpt>
      <trkpt lat="48.96371" lon="7.88936">
        <ele>164.52</ele>
        <time>2021-07-19T19:25:57Z</time>
      </trkpt>
      <trkpt lat="48.96276" lon="7.89084">
        <ele>160.2</ele>
        <time>2021-07-19T19:26:05Z</time>
      </trkpt>
      <trkpt lat="48.96263" lon="7.89101">
        <ele>159.72</ele>
        <time>2021-07-19T19:26:06Z</time>
      </trkpt>
      <trkpt lat="48.96249" lon="7.89116">
        <ele>159.24</ele>
        <time>2021-07-19T19:26:07Z</time>
      </trkpt>
      <trkpt lat="48.96234" lon="7.89128">
        <ele>157.79</ele>
        <time>2021-07-19T19:26:08Z</time>
      </trkpt>
      <trkpt lat="48.96219" lon="7.8914">
        <ele>156.83</ele>
        <time>2021-07-19T19:26:09Z</time>
      </trkpt>
      <trkpt lat="48.96203" lon="7.8915">
        <ele>156.35</ele>
        <time>2021-07-19T19:26:10Z</time>
      </trkpt>
      <trkpt lat="48.96187" lon="7.89155">
        <ele>155.39</ele>
        <time>2021-07-19T19:26:11Z</time>
      </trkpt>
      <trkpt lat="48.95996" lon="7.89201">
        <ele>149.14</ele>
        <time>2021-07-19T19:26:22Z</time>
      </trkpt>
      <trkpt lat="48.95984" lon="7.89209">
        <ele>149.14</ele>
        <time>2021-07-19T19:26:23Z</time>
      </trkpt>
      <trkpt lat="48.95974" lon="7.8922">
        <ele>148.66</ele>
        <time>2021-07-19T19:26:24Z</time>
      </trkpt>
      <trkpt lat="48.95965" lon="7.89232">
        <ele>149.14</ele>
        <time>2021-07-19T19:26:25Z</time>
      </trkpt>
      <trkpt lat="48.95957" lon="7.89245">
        <ele>149.62</ele>
        <time>2021-07-19T19:26:26Z</time>
      </trkpt>
      <trkpt lat="48.95952" lon="7.89261">
        <ele>149.62</ele>
        <time>2021-07-19T19:26:27Z</time>
      </trkpt>
      <trkpt lat="48.95948" lon="7.89278">
        <ele>150.1</ele>
        <time>2021-07-19T19:26:28Z</time>
      </trkpt>
      <trkpt lat="48.95945" lon="7.89295">
        <ele>149.14</ele>
        <time>2021-07-19T19:26:29Z</time>
      </trkpt>
      <trkpt lat="48.95944" lon="7.89314">
        <ele>148.18</ele>
        <time>2021-07-19T19:26:30Z</time>
      </trkpt>
      <trkpt lat="48.95943" lon="7.89333">
        <ele>147.7</ele>
        <time>2021-07-19T19:26:31Z</time>
      </trkpt>
      <trkpt lat="48.9594" lon="7.89395">
        <ele>149.62</ele>
        <time>2021-07-19T19:26:34Z</time>
      </trkpt>
      <trkpt lat="48.95937" lon="7.89415">
        <ele>150.1</ele>
        <time>2021-07-19T19:26:35Z</time>
      </trkpt>
      <trkpt lat="48.95904" lon="7.89563">
        <ele>149.62</ele>
        <time>2021-07-19T19:26:42Z</time>
      </trkpt>
      <trkpt lat="48.95891" lon="7.89601">
        <ele>150.1</ele>
        <time>2021-07-19T19:26:43Z</time>
      </trkpt>
      <trkpt lat="48.95891" lon="7.89601">
        <ele>149.62</ele>
        <time>2021-07-19T19:26:44Z</time>
      </trkpt>
      <trkpt lat="48.95872" lon="7.89638">
        <ele>149.62</ele>
        <time>2021-07-19T19:26:45Z</time>
      </trkpt>
      <trkpt lat="48.95872" lon="7.89638">
        <ele>149.14</ele>
        <time>2021-07-19T19:26:46Z</time>
      </trkpt>
      <trkpt lat="48.95861" lon="7.89654">
        <ele>149.14</ele>
        <time>2021-07-19T19:26:47Z</time>
      </trkpt>
      <trkpt lat="48.95766" lon="7.8981">
        <ele>152.99</ele>
        <time>2021-07-19T19:26:56Z</time>
      </trkpt>
      <trkpt lat="48.95755" lon="7.89824">
        <ele>152.99</ele>
        <time>2021-07-19T19:26:57Z</time>
      </trkpt>
      <trkpt lat="48.95702" lon="7.89895">
        <ele>154.43</ele>
        <time>2021-07-19T19:27:02Z</time>
      </trkpt>
      <trkpt lat="48.95695" lon="7.8991">
        <ele>153.95</ele>
        <time>2021-07-19T19:27:03Z</time>
      </trkpt>
      <trkpt lat="48.95685" lon="7.89942">
        <ele>154.43</ele>
        <time>2021-07-19T19:27:04Z</time>
      </trkpt>
      <trkpt lat="48.95682" lon="7.8996">
        <ele>154.91</ele>
        <time>2021-07-19T19:27:05Z</time>
      </trkpt>
      <trkpt lat="48.95679" lon="7.89978">
        <ele>155.87</ele>
        <time>2021-07-19T19:27:06Z</time>
      </trkpt>
      <trkpt lat="48.95676" lon="7.89996">
        <ele>156.83</ele>
        <time>2021-07-19T19:27:07Z</time>
      </trkpt>
      <trkpt lat="48.95659" lon="7.90108">
        <ele>161.64</ele>
        <time>2021-07-19T19:27:14Z</time>
      </trkpt>
      <trkpt lat="48.95653" lon="7.90122">
        <ele>161.64</ele>
        <time>2021-07-19T19:27:15Z</time>
      </trkpt>
      <trkpt lat="48.95648" lon="7.90134">
        <ele>161.64</ele>
        <time>2021-07-19T19:27:16Z</time>
      </trkpt>
      <trkpt lat="48.95643" lon="7.90147">
        <ele>161.16</ele>
        <time>2021-07-19T19:27:17Z</time>
      </trkpt>
      <trkpt lat="48.95637" lon="7.90157">
        <ele>161.16</ele>
        <time>2021-07-19T19:27:18Z</time>
      </trkpt>
      <trkpt lat="48.95632" lon="7.90166">
        <ele>161.16</ele>
        <time>2021-07-19T19:27:19Z</time>
      </trkpt>
      <trkpt lat="48.95627" lon="7.90174">
        <ele>161.64</ele>
        <time>2021-07-19T19:27:20Z</time>
      </trkpt>
      <trkpt lat="48.95622" lon="7.90182">
        <ele>162.12</ele>
        <time>2021-07-19T19:27:21Z</time>
      </trkpt>
      <trkpt lat="48.95619" lon="7.90188">
        <ele>162.12</ele>
        <time>2021-07-19T19:27:22Z</time>
      </trkpt>
      <trkpt lat="48.95619" lon="7.902">
        <ele>162.6</ele>
        <time>2021-07-19T19:27:23Z</time>
      </trkpt>
      <trkpt lat="48.95626" lon="7.9021">
        <ele>163.08</ele>
        <time>2021-07-19T19:27:24Z</time>
      </trkpt>
      <trkpt lat="48.95626" lon="7.9021">
        <ele>163.56</ele>
        <time>2021-07-19T19:27:25Z</time>
      </trkpt>
      <trkpt lat="48.9563" lon="7.90216">
        <ele>163.56</ele>
        <time>2021-07-19T19:27:26Z</time>
      </trkpt>
      <trkpt lat="48.95635" lon="7.90221">
        <ele>163.56</ele>
        <time>2021-07-19T19:27:27Z</time>
      </trkpt>
      <trkpt lat="48.95642" lon="7.90224">
        <ele>163.56</ele>
        <time>2021-07-19T19:27:28Z</time>
      </trkpt>
      <trkpt lat="48.95684" lon="7.90245">
        <ele>165.48</ele>
        <time>2021-07-19T19:27:33Z</time>
      </trkpt>
      <trkpt lat="48.95695" lon="7.90246">
        <ele>165</ele>
        <time>2021-07-19T19:27:34Z</time>
      </trkpt>
      <trkpt lat="48.95705" lon="7.90244">
        <ele>165.96</ele>
        <time>2021-07-19T19:27:35Z</time>
      </trkpt>
      <trkpt lat="48.95707" lon="7.90243">
        <ele>165.96</ele>
        <time>2021-07-19T19:27:36Z</time>
      </trkpt>
      <trkpt lat="48.95718" lon="7.90232">
        <ele>166.45</ele>
        <time>2021-07-19T19:27:37Z</time>
      </trkpt>
      <trkpt lat="48.95724" lon="7.90224">
        <ele>166.45</ele>
        <time>2021-07-19T19:27:38Z</time>
      </trkpt>
      <trkpt lat="48.9573" lon="7.90217">
        <ele>166.45</ele>
        <time>2021-07-19T19:27:39Z</time>
      </trkpt>
      <trkpt lat="48.95764" lon="7.90185">
        <ele>168.37</ele>
        <time>2021-07-19T19:27:44Z</time>
      </trkpt>
      <trkpt lat="48.9577" lon="7.90181">
        <ele>168.85</ele>
        <time>2021-07-19T19:27:45Z</time>
      </trkpt>
      <trkpt lat="48.95776" lon="7.90181">
        <ele>169.81</ele>
        <time>2021-07-19T19:27:46Z</time>
      </trkpt>
      <trkpt lat="48.95782" lon="7.90181">
        <ele>170.29</ele>
        <time>2021-07-19T19:27:47Z</time>
      </trkpt>
      <trkpt lat="48.95788" lon="7.90183">
        <ele>170.77</ele>
        <time>2021-07-19T19:27:48Z</time>
      </trkpt>
      <trkpt lat="48.95795" lon="7.90187">
        <ele>171.25</ele>
        <time>2021-07-19T19:27:49Z</time>
      </trkpt>
      <trkpt lat="48.95801" lon="7.90192">
        <ele>171.73</ele>
        <time>2021-07-19T19:27:50Z</time>
      </trkpt>
      <trkpt lat="48.9587" lon="7.90257">
        <ele>177.02</ele>
        <time>2021-07-19T19:28:02Z</time>
      </trkpt>
      <trkpt lat="48.95889" lon="7.90286">
        <ele>177.5</ele>
        <time>2021-07-19T19:28:05Z</time>
      </trkpt>
      <trkpt lat="48.95951" lon="7.9042">
        <ele>178.46</ele>
        <time>2021-07-19T19:28:16Z</time>
      </trkpt>
      <trkpt lat="48.95982" lon="7.90486">
        <ele>182.31</ele>
        <time>2021-07-19T19:28:21Z</time>
      </trkpt>
      <trkpt lat="48.95987" lon="7.90495">
        <ele>182.79</ele>
        <time>2021-07-19T19:28:22Z</time>
      </trkpt>
      <trkpt lat="48.95994" lon="7.90504">
        <ele>183.27</ele>
        <time>2021-07-19T19:28:23Z</time>
      </trkpt>
      <trkpt lat="48.96001" lon="7.90512">
        <ele>183.75</ele>
        <time>2021-07-19T19:28:24Z</time>
      </trkpt>
      <trkpt lat="48.96008" lon="7.90518">
        <ele>183.75</ele>
        <time>2021-07-19T19:28:25Z</time>
      </trkpt>
      <trkpt lat="48.96016" lon="7.90521">
        <ele>183.75</ele>
        <time>2021-07-19T19:28:26Z</time>
      </trkpt>
      <trkpt lat="48.96025" lon="7.90521">
        <ele>185.19</ele>
        <time>2021-07-19T19:28:27Z</time>
      </trkpt>
      <trkpt lat="48.96034" lon="7.90519">
        <ele>186.15</ele>
        <time>2021-07-19T19:28:28Z</time>
      </trkpt>
      <trkpt lat="48.96044" lon="7.90516">
        <ele>186.63</ele>
        <time>2021-07-19T19:28:29Z</time>
      </trkpt>
      <trkpt lat="48.96169" lon="7.90435">
        <ele>189.52</ele>
        <time>2021-07-19T19:28:41Z</time>
      </trkpt>
      <trkpt lat="48.96239" lon="7.90399">
        <ele>191.44</ele>
        <time>2021-07-19T19:28:48Z</time>
      </trkpt>
      <trkpt lat="48.96248" lon="7.904">
        <ele>191.92</ele>
        <time>2021-07-19T19:28:49Z</time>
      </trkpt>
      <trkpt lat="48.96248" lon="7.904">
        <ele>192.88</ele>
        <time>2021-07-19T19:28:50Z</time>
      </trkpt>
      <trkpt lat="48.96256" lon="7.90404">
        <ele>192.4</ele>
        <time>2021-07-19T19:28:51Z</time>
      </trkpt>
      <trkpt lat="48.96264" lon="7.90409">
        <ele>191.92</ele>
        <time>2021-07-19T19:28:52Z</time>
      </trkpt>
      <trkpt lat="48.96272" lon="7.90415">
        <ele>190.96</ele>
        <time>2021-07-19T19:28:53Z</time>
      </trkpt>
      <trkpt lat="48.96281" lon="7.90423">
        <ele>190.48</ele>
        <time>2021-07-19T19:28:54Z</time>
      </trkpt>
      <trkpt lat="48.9629" lon="7.90431">
        <ele>190.48</ele>
        <time>2021-07-19T19:28:55Z</time>
      </trkpt>
      <trkpt lat="48.96299" lon="7.9044">
        <ele>190.48</ele>
        <time>2021-07-19T19:28:56Z</time>
      </trkpt>
      <trkpt lat="48.96305" lon="7.90447">
        <ele>190.96</ele>
        <time>2021-07-19T19:28:57Z</time>
      </trkpt>
      <trkpt lat="48.96312" lon="7.90458">
        <ele>190.48</ele>
        <time>2021-07-19T19:28:58Z</time>
      </trkpt>
      <trkpt lat="48.96319" lon="7.9047">
        <ele>191.44</ele>
        <time>2021-07-19T19:28:59Z</time>
      </trkpt>
      <trkpt lat="48.9641" lon="7.90631">
        <ele>188.56</ele>
        <time>2021-07-19T19:29:13Z</time>
      </trkpt>
      <trkpt lat="48.96473" lon="7.9073">
        <ele>184.71</ele>
        <time>2021-07-19T19:29:22Z</time>
      </trkpt>
      <trkpt lat="48.96547" lon="7.90859">
        <ele>181.83</ele>
        <time>2021-07-19T19:29:33Z</time>
      </trkpt>
      <trkpt lat="48.96584" lon="7.90927">
        <ele>182.31</ele>
        <time>2021-07-19T19:29:41Z</time>
      </trkpt>
      <trkpt lat="48.96638" lon="7.91018">
        <ele>182.79</ele>
        <time>2021-07-19T19:29:51Z</time>
      </trkpt>
      <trkpt lat="48.96642" lon="7.91027">
        <ele>181.83</ele>
        <time>2021-07-19T19:29:52Z</time>
      </trkpt>
      <trkpt lat="48.96645" lon="7.91035">
        <ele>181.35</ele>
        <time>2021-07-19T19:29:53Z</time>
      </trkpt>
      <trkpt lat="48.96648" lon="7.91043">
        <ele>181.35</ele>
        <time>2021-07-19T19:29:54Z</time>
      </trkpt>
      <trkpt lat="48.96649" lon="7.9105">
        <ele>181.35</ele>
        <time>2021-07-19T19:29:55Z</time>
      </trkpt>
      <trkpt lat="48.9665" lon="7.91056">
        <ele>181.35</ele>
        <time>2021-07-19T19:29:56Z</time>
      </trkpt>
      <trkpt lat="48.96651" lon="7.9106">
        <ele>187.11</ele>
        <time>2021-07-19T19:30:02Z</time>
      </trkpt>
      <trkpt lat="48.96654" lon="7.91076">
        <ele>187.11</ele>
        <time>2021-07-19T19:30:03Z</time>
      </trkpt>
      <trkpt lat="48.96654" lon="7.91081">
        <ele>187.11</ele>
        <time>2021-07-19T19:30:04Z</time>
      </trkpt>
      <trkpt lat="48.96655" lon="7.91086">
        <ele>187.11</ele>
        <time>2021-07-19T19:30:05Z</time>
      </trkpt>
      <trkpt lat="48.96645" lon="7.91112">
        <ele>187.11</ele>
        <time>2021-07-19T19:30:06Z</time>
      </trkpt>
      <trkpt lat="48.96641" lon="7.91115">
        <ele>187.11</ele>
        <time>2021-07-19T19:30:07Z</time>
      </trkpt>
      <trkpt lat="48.96624" lon="7.91131">
        <ele>188.08</ele>
        <time>2021-07-19T19:30:13Z</time>
      </trkpt>
      <trkpt lat="48.96622" lon="7.91133">
        <ele>188.56</ele>
        <time>2021-07-19T19:30:14Z</time>
      </trkpt>
      <trkpt lat="48.96621" lon="7.91136">
        <ele>190.96</ele>
        <time>2021-07-19T19:30:30Z</time>
      </trkpt>
      <trkpt lat="48.96621" lon="7.91136">
        <ele>190.96</ele>
        <time>2021-07-19T19:31:52Z</time>
      </trkpt>
      <trkpt lat="48.96621" lon="7.91136">
        <ele>189.52</ele>
        <time>2021-07-19T19:32:48Z</time>
      </trkpt>
      <trkpt lat="48.96621" lon="7.91136">
        <ele>189.04</ele>
        <time>2021-07-19T19:33:52Z</time>
      </trkpt>
      <trkpt lat="48.96621" lon="7.91136">
        <ele>189.52</ele>
        <time>2021-07-19T19:33:56Z</time>
      </trkpt>
      <trkpt lat="48.96639" lon="7.91117">
        <ele>189.04</ele>
        <time>2021-07-19T19:33:58Z</time>
      </trkpt>
      <trkpt lat="48.96641" lon="7.91116">
        <ele>189.04</ele>
        <time>2021-07-19T19:33:59Z</time>
      </trkpt>
      <trkpt lat="48.96641" lon="7.91116">
        <ele>189.04</ele>
        <time>2021-07-19T19:34:00Z</time>
      </trkpt>
      <trkpt lat="48.96642" lon="7.91114">
        <ele>189.04</ele>
        <time>2021-07-19T19:34:01Z</time>
      </trkpt>
      <trkpt lat="48.96656" lon="7.91104">
        <ele>190</ele>
        <time>2021-07-19T19:34:14Z</time>
      </trkpt>
      <trkpt lat="48.96693" lon="7.91103">
        <ele>191.92</ele>
        <time>2021-07-19T19:34:25Z</time>
      </trkpt>
      <trkpt lat="48.96716" lon="7.91133">
        <ele>192.4</ele>
        <time>2021-07-19T19:34:39Z</time>
      </trkpt>
      <trkpt lat="48.96732" lon="7.91167">
        <ele>193.84</ele>
        <time>2021-07-19T19:34:56Z</time>
      </trkpt>
      <trkpt lat="48.96743" lon="7.91197">
        <ele>190.96</ele>
        <time>2021-07-19T19:35:09Z</time>
      </trkpt>
      <trkpt lat="48.96756" lon="7.91235">
        <ele>189.52</ele>
        <time>2021-07-19T19:35:24Z</time>
      </trkpt>
      <trkpt lat="48.96764" lon="7.91264">
        <ele>191.44</ele>
        <time>2021-07-19T19:35:38Z</time>
      </trkpt>
      <trkpt lat="48.96783" lon="7.91277">
        <ele>191.92</ele>
        <time>2021-07-19T19:35:51Z</time>
      </trkpt>
      <trkpt lat="48.96818" lon="7.91285">
        <ele>190.48</ele>
        <time>2021-07-19T19:36:04Z</time>
      </trkpt>
      <trkpt lat="48.96858" lon="7.913">
        <ele>192.88</ele>
        <time>2021-07-19T19:36:18Z</time>
      </trkpt>
      <trkpt lat="48.96875" lon="7.91334">
        <ele>195.77</ele>
        <time>2021-07-19T19:36:28Z</time>
      </trkpt>
      <trkpt lat="48.96888" lon="7.91361">
        <ele>197.69</ele>
        <time>2021-07-19T19:36:38Z</time>
      </trkpt>
      <trkpt lat="48.96887" lon="7.91365">
        <ele>198.65</ele>
        <time>2021-07-19T19:37:32Z</time>
      </trkpt>
      <trkpt lat="48.96887" lon="7.91366">
        <ele>198.65</ele>
        <time>2021-07-19T19:41:34Z</time>
      </trkpt>
      <trkpt lat="48.96888" lon="7.91366">
        <ele>198.65</ele>
        <time>2021-07-19T19:42:46Z</time>
      </trkpt>
      <trkpt lat="48.96887" lon="7.91367">
        <ele>199.13</ele>
        <time>2021-07-19T19:44:07Z</time>
      </trkpt>
      <trkpt lat="48.96888" lon="7.91368">
        <ele>199.61</ele>
        <time>2021-07-19T19:44:57Z</time>
      </trkpt>
      <trkpt lat="48.96888" lon="7.91368">
        <ele>199.61</ele>
        <time>2021-07-19T19:46:24Z</time>
      </trkpt>
      <trkpt lat="48.96888" lon="7.91369">
        <ele>200.09</ele>
        <time>2021-07-19T19:47:49Z</time>
      </trkpt>
      <trkpt lat="48.96889" lon="7.91369">
        <ele>200.09</ele>
        <time>2021-07-19T19:49:06Z</time>
      </trkpt>
      <trkpt lat="48.96889" lon="7.9137">
        <ele>200.57</ele>
        <time>2021-07-19T19:50:30Z</time>
      </trkpt>
      <trkpt lat="48.96889" lon="7.91371">
        <ele>200.09</ele>
        <time>2021-07-19T19:51:57Z</time>
      </trkpt>
      <trkpt lat="48.96889" lon="7.91371">
        <ele>200.09</ele>
        <time>2021-07-19T19:53:09Z</time>
      </trkpt>
      <trkpt lat="48.96888" lon="7.91369">
        <ele>200.57</ele>
        <time>2021-07-19T19:53:50Z</time>
      </trkpt>
      <trkpt lat="48.96888" lon="7.91369">
        <ele>201.05</ele>
        <time>2021-07-19T19:54:11Z</time>
      </trkpt>
      <trkpt lat="48.96888" lon="7.9137">
        <ele>201.05</ele>
        <time>2021-07-19T19:55:36Z</time>
      </trkpt>
      <trkpt lat="48.96888" lon="7.9137">
        <ele>201.05</ele>
        <time>2021-07-19T19:57:06Z</time>
      </trkpt>
      <trkpt lat="48.96887" lon="7.91369">
        <ele>201.05</ele>
        <time>2021-07-19T19:57:24Z</time>
      </trkpt>
      <trkpt lat="48.96887" lon="7.91369">
        <ele>201.05</ele>
        <time>2021-07-19T19:58:44Z</time>
      </trkpt>
      <trkpt lat="48.96887" lon="7.9137">
        <ele>201.53</ele>
        <time>2021-07-19T20:00:52Z</time>
      </trkpt>
      <trkpt lat="48.96887" lon="7.91369">
        <ele>202.01</ele>
        <time>2021-07-19T20:02:46Z</time>
      </trkpt>
      <trkpt lat="48.96887" lon="7.91368">
        <ele>202.01</ele>
        <time>2021-07-19T20:04:08Z</time>
      </trkpt>
      <trkpt lat="48.96887" lon="7.91369">
        <ele>202.01</ele>
        <time>2021-07-19T20:04:53Z</time>
      </trkpt>
      <trkpt lat="48.96887" lon="7.91369">
        <ele>202.49</ele>
        <time>2021-07-19T20:06:16Z</time>
      </trkpt>
      <trkpt lat="48.96888" lon="7.91369">
        <ele>202.49</ele>
        <time>2021-07-19T20:07:44Z</time>
      </trkpt>
      <trkpt lat="48.96888" lon="7.91368">
        <ele>202.49</ele>
        <time>2021-07-19T20:08:46Z</time>
      </trkpt>
      <trkpt lat="48.96888" lon="7.91367">
        <ele>202.98</ele>
        <time>2021-07-19T20:09:17Z</time>
      </trkpt>
      <trkpt lat="48.96888" lon="7.91367">
        <ele>203.46</ele>
        <time>2021-07-19T20:10:04Z</time>
      </trkpt>
      <trkpt lat="48.96887" lon="7.91367">
        <ele>203.46</ele>
        <time>2021-07-19T20:10:46Z</time>
      </trkpt>
      <trkpt lat="48.96888" lon="7.91368">
        <ele>202.98</ele>
        <time>2021-07-19T20:11:46Z</time>
      </trkpt>
      <trkpt lat="48.96888" lon="7.91366">
        <ele>202.98</ele>
        <time>2021-07-19T20:12:16Z</time>
      </trkpt>
      <trkpt lat="48.96888" lon="7.91365">
        <ele>202.98</ele>
        <time>2021-07-19T20:13:03Z</time>
      </trkpt>
      <trkpt lat="48.96888" lon="7.91363">
        <ele>203.46</ele>
        <time>2021-07-19T20:13:42Z</time>
      </trkpt>
      <trkpt lat="48.96888" lon="7.91362">
        <ele>205.38</ele>
        <time>2021-07-19T20:14:31Z</time>
      </trkpt>
      <trkpt lat="48.96887" lon="7.91362">
        <ele>205.38</ele>
        <time>2021-07-19T20:15:21Z</time>
      </trkpt>
      <trkpt lat="48.96887" lon="7.91362">
        <ele>205.38</ele>
        <time>2021-07-19T20:15:56Z</time>
      </trkpt>
      <trkpt lat="48.96887" lon="7.91362">
        <ele>205.38</ele>
        <time>2021-07-19T20:16:54Z</time>
      </trkpt>
      <trkpt lat="48.96886" lon="7.91362">
        <ele>205.38</ele>
        <time>2021-07-19T20:17:43Z</time>
      </trkpt>
      <trkpt lat="48.96886" lon="7.91363">
        <ele>205.86</ele>
        <time>2021-07-19T20:18:24Z</time>
      </trkpt>
      <trkpt lat="48.96886" lon="7.91364">
        <ele>205.86</ele>
        <time>2021-07-19T20:19:26Z</time>
      </trkpt>
      <trkpt lat="48.96886" lon="7.91362">
        <ele>206.34</ele>
        <time>2021-07-19T20:20:20Z</time>
      </trkpt>
      <trkpt lat="48.96886" lon="7.91362">
        <ele>206.82</ele>
        <time>2021-07-19T20:20:44Z</time>
      </trkpt>
      <trkpt lat="48.96886" lon="7.91363">
        <ele>206.82</ele>
        <time>2021-07-19T20:21:08Z</time>
      </trkpt>
      <trkpt lat="48.96886" lon="7.91363">
        <ele>206.82</ele>
        <time>2021-07-19T20:22:07Z</time>
      </trkpt>
      <trkpt lat="48.96886" lon="7.91364">
        <ele>207.3</ele>
        <time>2021-07-19T20:22:57Z</time>
      </trkpt>
      <trkpt lat="48.96886" lon="7.91364">
        <ele>207.78</ele>
        <time>2021-07-19T20:24:08Z</time>
      </trkpt>
      <trkpt lat="48.96885" lon="7.91364">
        <ele>207.3</ele>
        <time>2021-07-19T20:24:55Z</time>
      </trkpt>
      <trkpt lat="48.96885" lon="7.91364">
        <ele>207.3</ele>
        <time>2021-07-19T20:25:50Z</time>
      </trkpt>
      <trkpt lat="48.96885" lon="7.91364">
        <ele>207.78</ele>
        <time>2021-07-19T20:27:05Z</time>
      </trkpt>
      <trkpt lat="48.96885" lon="7.91364">
        <ele>207.78</ele>
        <time>2021-07-19T20:28:03Z</time>
      </trkpt>
      <trkpt lat="48.96885" lon="7.91364">
        <ele>207.78</ele>
        <time>2021-07-19T20:29:11Z</time>
      </trkpt>
      <trkpt lat="48.96885" lon="7.91364">
        <ele>207.78</ele>
        <time>2021-07-19T20:30:28Z</time>
      </trkpt>
      <trkpt lat="48.96886" lon="7.91364">
        <ele>208.26</ele>
        <time>2021-07-19T20:31:10Z</time>
      </trkpt>
      <trkpt lat="48.96887" lon="7.91364">
        <ele>207.78</ele>
        <time>2021-07-19T20:31:56Z</time>
      </trkpt>
      <trkpt lat="48.96886" lon="7.91365">
        <ele>207.78</ele>
        <time>2021-07-19T20:32:55Z</time>
      </trkpt>
      <trkpt lat="48.96887" lon="7.91364">
        <ele>207.78</ele>
        <time>2021-07-19T20:33:29Z</time>
      </trkpt>
      <trkpt lat="48.96887" lon="7.91364">
        <ele>208.26</ele>
        <time>2021-07-19T20:34:16Z</time>
      </trkpt>
      <trkpt lat="48.96888" lon="7.91363">
        <ele>209.22</ele>
        <time>2021-07-19T20:34:46Z</time>
      </trkpt>
      <trkpt lat="48.96888" lon="7.91364">
        <ele>208.74</ele>
        <time>2021-07-19T20:36:32Z</time>
      </trkpt>
      <trkpt lat="48.96888" lon="7.91364">
        <ele>209.22</ele>
        <time>2021-07-19T20:37:06Z</time>
      </trkpt>
      <trkpt lat="48.96888" lon="7.91365">
        <ele>210.67</ele>
        <time>2021-07-19T20:38:00Z</time>
      </trkpt>
      <trkpt lat="48.96888" lon="7.91367">
        <ele>211.15</ele>
        <time>2021-07-19T20:39:25Z</time>
      </trkpt>
      <trkpt lat="48.96888" lon="7.91367">
        <ele>211.15</ele>
        <time>2021-07-19T20:40:22Z</time>
      </trkpt>
      <trkpt lat="48.96888" lon="7.91367">
        <ele>211.63</ele>
        <time>2021-07-19T20:41:48Z</time>
      </trkpt>
      <trkpt lat="48.96888" lon="7.91367">
        <ele>211.15</ele>
        <time>2021-07-19T20:43:05Z</time>
      </trkpt>
      <trkpt lat="48.96888" lon="7.91368">
        <ele>211.15</ele>
        <time>2021-07-19T20:43:40Z</time>
      </trkpt>
      <trkpt lat="48.96888" lon="7.91368">
        <ele>211.63</ele>
        <time>2021-07-19T20:45:02Z</time>
      </trkpt>
      <trkpt lat="48.96888" lon="7.91368">
        <ele>211.15</ele>
        <time>2021-07-19T20:46:06Z</time>
      </trkpt>
      <trkpt lat="48.96889" lon="7.91367">
        <ele>211.15</ele>
        <time>2021-07-19T20:47:01Z</time>
      </trkpt>
      <trkpt lat="48.96886" lon="7.91363">
        <ele>212.11</ele>
        <time>2021-07-19T20:47:15Z</time>
      </trkpt>
      <trkpt lat="48.96886" lon="7.91363">
        <ele>212.59</ele>
        <time>2021-07-19T20:47:55Z</time>
      </trkpt>
      <trkpt lat="48.96886" lon="7.91365">
        <ele>211.63</ele>
        <time>2021-07-19T20:48:36Z</time>
      </trkpt>
      <trkpt lat="48.96883" lon="7.91357">
        <ele>212.11</ele>
        <time>2021-07-19T20:49:00Z</time>
      </trkpt>
      <trkpt lat="48.96873" lon="7.91336">
        <ele>214.99</ele>
        <time>2021-07-19T20:49:24Z</time>
      </trkpt>
      <trkpt lat="48.96863" lon="7.91318">
        <ele>216.43</ele>
        <time>2021-07-19T20:49:50Z</time>
      </trkpt>
      <trkpt lat="48.9686" lon="7.91311">
        <ele>217.4</ele>
        <time>2021-07-19T20:50:14Z</time>
      </trkpt>
      <trkpt lat="48.96861" lon="7.9131">
        <ele>216.91</ele>
        <time>2021-07-19T20:50:42Z</time>
      </trkpt>
      <trkpt lat="48.96867" lon="7.91307">
        <ele>216.91</ele>
        <time>2021-07-19T20:51:04Z</time>
      </trkpt>
      <trkpt lat="48.96867" lon="7.91307">
        <ele>216.91</ele>
        <time>2021-07-19T20:51:40Z</time>
      </trkpt>
      <trkpt lat="48.96867" lon="7.91305">
        <ele>216.91</ele>
        <time>2021-07-19T20:52:28Z</time>
      </trkpt>
      <trkpt lat="48.96866" lon="7.91305">
        <ele>216.91</ele>
        <time>2021-07-19T20:53:05Z</time>
      </trkpt>
      <trkpt lat="48.96868" lon="7.91304">
        <ele>216.91</ele>
        <time>2021-07-19T20:53:47Z</time>
      </trkpt>
      <trkpt lat="48.96863" lon="7.91304">
        <ele>216.91</ele>
        <time>2021-07-19T20:54:18Z</time>
      </trkpt>
      <trkpt lat="48.96858" lon="7.91303">
        <ele>216.91</ele>
        <time>2021-07-19T20:54:41Z</time>
      </trkpt>
      <trkpt lat="48.96858" lon="7.91302">
        <ele>217.4</ele>
        <time>2021-07-19T20:55:25Z</time>
      </trkpt>
      <trkpt lat="48.96858" lon="7.91301">
        <ele>217.88</ele>
        <time>2021-07-19T20:55:59Z</time>
      </trkpt>
      <trkpt lat="48.96853" lon="7.91299">
        <ele>217.4</ele>
        <time>2021-07-19T20:56:54Z</time>
      </trkpt>
      <trkpt lat="48.9684" lon="7.91295">
        <ele>220.76</ele>
        <time>2021-07-19T20:57:18Z</time>
      </trkpt>
      <trkpt lat="48.96835" lon="7.91294">
        <ele>222.68</ele>
        <time>2021-07-19T20:57:56Z</time>
      </trkpt>
      <trkpt lat="48.96835" lon="7.91293">
        <ele>222.68</ele>
        <time>2021-07-19T20:58:45Z</time>
      </trkpt>
      <trkpt lat="48.96835" lon="7.91293">
        <ele>222.68</ele>
        <time>2021-07-19T20:59:46Z</time>
      </trkpt>
      <trkpt lat="48.96835" lon="7.91292">
        <ele>222.2</ele>
        <time>2021-07-19T21:00:26Z</time>
      </trkpt>
      <trkpt lat="48.96835" lon="7.91292">
        <ele>222.2</ele>
        <time>2021-07-19T21:01:27Z</time>
      </trkpt>
      <trkpt lat="48.96835" lon="7.91292">
        <ele>221.72</ele>
        <time>2021-07-19T21:02:10Z</time>
      </trkpt>
      <trkpt lat="48.96833" lon="7.91291">
        <ele>221.24</ele>
        <time>2021-07-19T21:03:00Z</time>
      </trkpt>
      <trkpt lat="48.96832" lon="7.91291">
        <ele>220.76</ele>
        <time>2021-07-19T21:03:31Z</time>
      </trkpt>
      <trkpt lat="48.96833" lon="7.9129">
        <ele>220.76</ele>
        <time>2021-07-19T21:04:14Z</time>
      </trkpt>
      <trkpt lat="48.96832" lon="7.91289">
        <ele>221.24</ele>
        <time>2021-07-19T21:04:42Z</time>
      </trkpt>
      <trkpt lat="48.96823" lon="7.91286">
        <ele>222.68</ele>
        <time>2021-07-19T21:05:06Z</time>
      </trkpt>
      <trkpt lat="48.96822" lon="7.91286">
        <ele>222.68</ele>
        <time>2021-07-19T21:05:40Z</time>
      </trkpt>
      <trkpt lat="48.96819" lon="7.91285">
        <ele>222.68</ele>
        <time>2021-07-19T21:06:22Z</time>
      </trkpt>
      <trkpt lat="48.96817" lon="7.91284">
        <ele>222.2</ele>
        <time>2021-07-19T21:06:34Z</time>
      </trkpt>
      <trkpt lat="48.96811" lon="7.91285">
        <ele>222.68</ele>
        <time>2021-07-19T21:06:53Z</time>
      </trkpt>
      <trkpt lat="48.9681" lon="7.91285">
        <ele>222.2</ele>
        <time>2021-07-19T21:07:44Z</time>
      </trkpt>
      <trkpt lat="48.9681" lon="7.91285">
        <ele>222.68</ele>
        <time>2021-07-19T21:08:30Z</time>
      </trkpt>
      <trkpt lat="48.96811" lon="7.91285">
        <ele>222.2</ele>
        <time>2021-07-19T21:09:08Z</time>
      </trkpt>
      <trkpt lat="48.96811" lon="7.91285">
        <ele>222.2</ele>
        <time>2021-07-19T21:09:55Z</time>
      </trkpt>
      <trkpt lat="48.96811" lon="7.91285">
        <ele>222.2</ele>
        <time>2021-07-19T21:10:42Z</time>
      </trkpt>
      <trkpt lat="48.96811" lon="7.91286">
        <ele>222.2</ele>
        <time>2021-07-19T21:11:24Z</time>
      </trkpt>
      <trkpt lat="48.96811" lon="7.91286">
        <ele>221.72</ele>
        <time>2021-07-19T21:12:00Z</time>
      </trkpt>
      <trkpt lat="48.96811" lon="7.91286">
        <ele>221.72</ele>
        <time>2021-07-19T21:12:52Z</time>
      </trkpt>
      <trkpt lat="48.96811" lon="7.91286">
        <ele>222.2</ele>
        <time>2021-07-19T21:13:38Z</time>
      </trkpt>
      <trkpt lat="48.9681" lon="7.91286">
        <ele>221.72</ele>
        <time>2021-07-19T21:14:40Z</time>
      </trkpt>
      <trkpt lat="48.96811" lon="7.91286">
        <ele>219.8</ele>
        <time>2021-07-19T21:15:30Z</time>
      </trkpt>
      <trkpt lat="48.96811" lon="7.91285">
        <ele>219.32</ele>
        <time>2021-07-19T21:16:20Z</time>
      </trkpt>
      <trkpt lat="48.96809" lon="7.91284">
        <ele>221.72</ele>
        <time>2021-07-19T21:16:55Z</time>
      </trkpt>
      <trkpt lat="48.96803" lon="7.91282">
        <ele>224.12</ele>
        <time>2021-07-19T21:17:24Z</time>
      </trkpt>
      <trkpt lat="48.96799" lon="7.91281">
        <ele>226.05</ele>
        <time>2021-07-19T21:17:50Z</time>
      </trkpt>
      <trkpt lat="48.96792" lon="7.91279">
        <ele>227.49</ele>
        <time>2021-07-19T21:18:26Z</time>
      </trkpt>
      <trkpt lat="48.96785" lon="7.91275">
        <ele>227.49</ele>
        <time>2021-07-19T21:18:58Z</time>
      </trkpt>
      <trkpt lat="48.96772" lon="7.91266">
        <ele>227.97</ele>
        <time>2021-07-19T21:19:30Z</time>
      </trkpt>
      <trkpt lat="48.96765" lon="7.91252">
        <ele>230.37</ele>
        <time>2021-07-19T21:20:06Z</time>
      </trkpt>
      <trkpt lat="48.96764" lon="7.91246">
        <ele>228.93</ele>
        <time>2021-07-19T21:20:38Z</time>
      </trkpt>
      <trkpt lat="48.96758" lon="7.91238">
        <ele>228.93</ele>
        <time>2021-07-19T21:21:10Z</time>
      </trkpt>
      <trkpt lat="48.96751" lon="7.91227">
        <ele>228.45</ele>
        <time>2021-07-19T21:21:46Z</time>
      </trkpt>
      <trkpt lat="48.96743" lon="7.91211">
        <ele>232.78</ele>
        <time>2021-07-19T21:22:12Z</time>
      </trkpt>
      <trkpt lat="48.96733" lon="7.91193">
        <ele>229.89</ele>
        <time>2021-07-19T21:22:39Z</time>
      </trkpt>
      <trkpt lat="48.96729" lon="7.91179">
        <ele>226.05</ele>
        <time>2021-07-19T21:23:00Z</time>
      </trkpt>
      <trkpt lat="48.96726" lon="7.91174">
        <ele>227.01</ele>
        <time>2021-07-19T21:23:26Z</time>
      </trkpt>
      <trkpt lat="48.96726" lon="7.91173">
        <ele>226.53</ele>
        <time>2021-07-19T21:24:07Z</time>
      </trkpt>
      <trkpt lat="48.96726" lon="7.91174">
        <ele>226.53</ele>
        <time>2021-07-19T21:24:44Z</time>
      </trkpt>
      <trkpt lat="48.96723" lon="7.91163">
        <ele>226.05</ele>
        <time>2021-07-19T21:25:10Z</time>
      </trkpt>
      <trkpt lat="48.96719" lon="7.91151">
        <ele>225.57</ele>
        <time>2021-07-19T21:25:30Z</time>
      </trkpt>
      <trkpt lat="48.96719" lon="7.91149">
        <ele>225.09</ele>
        <time>2021-07-19T21:25:48Z</time>
      </trkpt>
      <trkpt lat="48.96716" lon="7.91136">
        <ele>225.09</ele>
        <time>2021-07-19T21:26:09Z</time>
      </trkpt>
      <trkpt lat="48.96717" lon="7.91134">
        <ele>224.12</ele>
        <time>2021-07-19T21:28:23Z</time>
      </trkpt>
      <trkpt lat="48.96708" lon="7.9112">
        <ele>223.16</ele>
        <time>2021-07-19T21:29:28Z</time>
      </trkpt>
      <trkpt lat="48.96676" lon="7.91096">
        <ele>214.51</ele>
        <time>2021-07-19T21:29:42Z</time>
      </trkpt>
      <trkpt lat="48.96672" lon="7.91093">
        <ele>213.07</ele>
        <time>2021-07-19T21:29:44Z</time>
      </trkpt>
      <trkpt lat="48.96654" lon="7.91082">
        <ele>209.7</ele>
        <time>2021-07-19T21:29:49Z</time>
      </trkpt>
      <trkpt lat="48.96654" lon="7.91082">
        <ele>208.74</ele>
        <time>2021-07-19T21:29:50Z</time>
      </trkpt>
      <trkpt lat="48.96654" lon="7.91076">
        <ele>207.78</ele>
        <time>2021-07-19T21:29:51Z</time>
      </trkpt>
      <trkpt lat="48.96654" lon="7.91071">
        <ele>207.3</ele>
        <time>2021-07-19T21:29:52Z</time>
      </trkpt>
      <trkpt lat="48.96652" lon="7.91065">
        <ele>206.34</ele>
        <time>2021-07-19T21:29:53Z</time>
      </trkpt>
      <trkpt lat="48.96651" lon="7.91057">
        <ele>205.86</ele>
        <time>2021-07-19T21:29:54Z</time>
      </trkpt>
      <trkpt lat="48.96649" lon="7.91048">
        <ele>205.86</ele>
        <time>2021-07-19T21:29:55Z</time>
      </trkpt>
      <trkpt lat="48.96646" lon="7.91038">
        <ele>205.38</ele>
        <time>2021-07-19T21:29:56Z</time>
      </trkpt>
      <trkpt lat="48.96642" lon="7.91027">
        <ele>205.86</ele>
        <time>2021-07-19T21:29:57Z</time>
      </trkpt>
      <trkpt lat="48.96637" lon="7.91015">
        <ele>205.38</ele>
        <time>2021-07-19T21:29:58Z</time>
      </trkpt>
      <trkpt lat="48.9657" lon="7.909">
        <ele>199.61</ele>
        <time>2021-07-19T21:30:07Z</time>
      </trkpt>
      <trkpt lat="48.9648" lon="7.9074">
        <ele>189.04</ele>
        <time>2021-07-19T21:30:19Z</time>
      </trkpt>
      <trkpt lat="48.96377" lon="7.90572">
        <ele>184.23</ele>
        <time>2021-07-19T21:30:32Z</time>
      </trkpt>
      <trkpt lat="48.96296" lon="7.90438">
        <ele>180.38</ele>
        <time>2021-07-19T21:30:42Z</time>
      </trkpt>
      <trkpt lat="48.96287" lon="7.90429">
        <ele>179.9</ele>
        <time>2021-07-19T21:30:43Z</time>
      </trkpt>
      <trkpt lat="48.96277" lon="7.9042">
        <ele>179.9</ele>
        <time>2021-07-19T21:30:44Z</time>
      </trkpt>
      <trkpt lat="48.96268" lon="7.90412">
        <ele>179.9</ele>
        <time>2021-07-19T21:30:45Z</time>
      </trkpt>
      <trkpt lat="48.96259" lon="7.90406">
        <ele>180.38</ele>
        <time>2021-07-19T21:30:46Z</time>
      </trkpt>
      <trkpt lat="48.96251" lon="7.90401">
        <ele>180.38</ele>
        <time>2021-07-19T21:30:47Z</time>
      </trkpt>
      <trkpt lat="48.96241" lon="7.90399">
        <ele>180.87</ele>
        <time>2021-07-19T21:30:48Z</time>
      </trkpt>
      <trkpt lat="48.96229" lon="7.90399">
        <ele>180.87</ele>
        <time>2021-07-19T21:30:49Z</time>
      </trkpt>
      <trkpt lat="48.96209" lon="7.9041">
        <ele>181.35</ele>
        <time>2021-07-19T21:30:50Z</time>
      </trkpt>
      <trkpt lat="48.96199" lon="7.90416">
        <ele>180.38</ele>
        <time>2021-07-19T21:30:51Z</time>
      </trkpt>
      <trkpt lat="48.96199" lon="7.90416">
        <ele>179.42</ele>
        <time>2021-07-19T21:30:52Z</time>
      </trkpt>
      <trkpt lat="48.96055" lon="7.90509">
        <ele>178.94</ele>
        <time>2021-07-19T21:31:05Z</time>
      </trkpt>
      <trkpt lat="48.96037" lon="7.90518">
        <ele>179.42</ele>
        <time>2021-07-19T21:31:07Z</time>
      </trkpt>
      <trkpt lat="48.96029" lon="7.9052">
        <ele>179.9</ele>
        <time>2021-07-19T21:31:08Z</time>
      </trkpt>
      <trkpt lat="48.96021" lon="7.90522">
        <ele>179.9</ele>
        <time>2021-07-19T21:31:09Z</time>
      </trkpt>
      <trkpt lat="48.96014" lon="7.9052">
        <ele>180.38</ele>
        <time>2021-07-19T21:31:10Z</time>
      </trkpt>
      <trkpt lat="48.96006" lon="7.90518">
        <ele>179.9</ele>
        <time>2021-07-19T21:31:11Z</time>
      </trkpt>
      <trkpt lat="48.96002" lon="7.90513">
        <ele>179.42</ele>
        <time>2021-07-19T21:31:12Z</time>
      </trkpt>
      <trkpt lat="48.95995" lon="7.90505">
        <ele>178.94</ele>
        <time>2021-07-19T21:31:13Z</time>
      </trkpt>
      <trkpt lat="48.95987" lon="7.90496">
        <ele>178.46</ele>
        <time>2021-07-19T21:31:14Z</time>
      </trkpt>
      <trkpt lat="48.95981" lon="7.90486">
        <ele>178.46</ele>
        <time>2021-07-19T21:31:15Z</time>
      </trkpt>
      <trkpt lat="48.95921" lon="7.90355">
        <ele>177.02</ele>
        <time>2021-07-19T21:31:24Z</time>
      </trkpt>
      <trkpt lat="48.95891" lon="7.90292">
        <ele>172.21</ele>
        <time>2021-07-19T21:31:32Z</time>
      </trkpt>
      <trkpt lat="48.95877" lon="7.90267">
        <ele>170.77</ele>
        <time>2021-07-19T21:31:44Z</time>
      </trkpt>
      <trkpt lat="48.95849" lon="7.90234">
        <ele>170.29</ele>
        <time>2021-07-19T21:31:55Z</time>
      </trkpt>
      <trkpt lat="48.95803" lon="7.90193">
        <ele>167.89</ele>
        <time>2021-07-19T21:32:09Z</time>
      </trkpt>
      <trkpt lat="48.95771" lon="7.90181">
        <ele>167.89</ele>
        <time>2021-07-19T21:32:15Z</time>
      </trkpt>
      <trkpt lat="48.95766" lon="7.90184">
        <ele>167.89</ele>
        <time>2021-07-19T21:32:17Z</time>
      </trkpt>
      <trkpt lat="48.95761" lon="7.90187">
        <ele>167.89</ele>
        <time>2021-07-19T21:32:18Z</time>
      </trkpt>
      <trkpt lat="48.95755" lon="7.90191">
        <ele>167.89</ele>
        <time>2021-07-19T21:32:19Z</time>
      </trkpt>
      <trkpt lat="48.95724" lon="7.90224">
        <ele>166.45</ele>
        <time>2021-07-19T21:32:25Z</time>
      </trkpt>
      <trkpt lat="48.95718" lon="7.90231">
        <ele>165.96</ele>
        <time>2021-07-19T21:32:26Z</time>
      </trkpt>
      <trkpt lat="48.95712" lon="7.90238">
        <ele>165.48</ele>
        <time>2021-07-19T21:32:27Z</time>
      </trkpt>
      <trkpt lat="48.95696" lon="7.90246">
        <ele>165</ele>
        <time>2021-07-19T21:32:28Z</time>
      </trkpt>
      <trkpt lat="48.95696" lon="7.90246">
        <ele>163.56</ele>
        <time>2021-07-19T21:32:29Z</time>
      </trkpt>
      <trkpt lat="48.95687" lon="7.90246">
        <ele>162.6</ele>
        <time>2021-07-19T21:32:30Z</time>
      </trkpt>
      <trkpt lat="48.9568" lon="7.90243">
        <ele>162.12</ele>
        <time>2021-07-19T21:32:31Z</time>
      </trkpt>
      <trkpt lat="48.95672" lon="7.90239">
        <ele>161.64</ele>
        <time>2021-07-19T21:32:32Z</time>
      </trkpt>
      <trkpt lat="48.95623" lon="7.90206">
        <ele>161.16</ele>
        <time>2021-07-19T21:32:41Z</time>
      </trkpt>
      <trkpt lat="48.9562" lon="7.90202">
        <ele>161.16</ele>
        <time>2021-07-19T21:32:52Z</time>
      </trkpt>
      <trkpt lat="48.95618" lon="7.90199">
        <ele>161.16</ele>
        <time>2021-07-19T21:33:13Z</time>
      </trkpt>
      <trkpt lat="48.95618" lon="7.90199">
        <ele>161.16</ele>
        <time>2021-07-19T21:33:14Z</time>
      </trkpt>
      <trkpt lat="48.95612" lon="7.90199">
        <ele>161.16</ele>
        <time>2021-07-19T21:33:15Z</time>
      </trkpt>
      <trkpt lat="48.95612" lon="7.90199">
        <ele>161.16</ele>
        <time>2021-07-19T21:33:16Z</time>
      </trkpt>
      <trkpt lat="48.95609" lon="7.90203">
        <ele>161.64</ele>
        <time>2021-07-19T21:33:17Z</time>
      </trkpt>
      <trkpt lat="48.95606" lon="7.90208">
        <ele>161.64</ele>
        <time>2021-07-19T21:33:18Z</time>
      </trkpt>
      <trkpt lat="48.95602" lon="7.90214">
        <ele>161.64</ele>
        <time>2021-07-19T21:33:19Z</time>
      </trkpt>
      <trkpt lat="48.95565" lon="7.90267">
        <ele>163.56</ele>
        <time>2021-07-19T21:33:28Z</time>
      </trkpt>
      <trkpt lat="48.95558" lon="7.90278">
        <ele>163.56</ele>
        <time>2021-07-19T21:33:40Z</time>
      </trkpt>
      <trkpt lat="48.95543" lon="7.90299">
        <ele>164.04</ele>
        <time>2021-07-19T21:34:21Z</time>
      </trkpt>
      <trkpt lat="48.95506" lon="7.90363">
        <ele>164.52</ele>
        <time>2021-07-19T21:34:30Z</time>
      </trkpt>
      <trkpt lat="48.95452" lon="7.90513">
        <ele>163.08</ele>
        <time>2021-07-19T21:34:42Z</time>
      </trkpt>
      <trkpt lat="48.95429" lon="7.90566">
        <ele>163.56</ele>
        <time>2021-07-19T21:34:50Z</time>
      </trkpt>
      <trkpt lat="48.95426" lon="7.90574">
        <ele>164.04</ele>
        <time>2021-07-19T21:34:56Z</time>
      </trkpt>
      <trkpt lat="48.95426" lon="7.90579">
        <ele>164.52</ele>
        <time>2021-07-19T21:34:57Z</time>
      </trkpt>
      <trkpt lat="48.95426" lon="7.90586">
        <ele>164.52</ele>
        <time>2021-07-19T21:34:58Z</time>
      </trkpt>
      <trkpt lat="48.95424" lon="7.90621">
        <ele>167.41</ele>
        <time>2021-07-19T21:35:02Z</time>
      </trkpt>
      <trkpt lat="48.95422" lon="7.90633">
        <ele>168.37</ele>
        <time>2021-07-19T21:35:03Z</time>
      </trkpt>
      <trkpt lat="48.95419" lon="7.90645">
        <ele>169.33</ele>
        <time>2021-07-19T21:35:04Z</time>
      </trkpt>
      <trkpt lat="48.95412" lon="7.90669">
        <ele>169.81</ele>
        <time>2021-07-19T21:35:05Z</time>
      </trkpt>
      <trkpt lat="48.95412" lon="7.90669">
        <ele>170.77</ele>
        <time>2021-07-19T21:35:06Z</time>
      </trkpt>
      <trkpt lat="48.95407" lon="7.9068">
        <ele>171.25</ele>
        <time>2021-07-19T21:35:07Z</time>
      </trkpt>
      <trkpt lat="48.95402" lon="7.9069">
        <ele>171.73</ele>
        <time>2021-07-19T21:35:08Z</time>
      </trkpt>
      <trkpt lat="48.95327" lon="7.90851">
        <ele>172.21</ele>
        <time>2021-07-19T21:35:22Z</time>
      </trkpt>
      <trkpt lat="48.95269" lon="7.91032">
        <ele>174.14</ele>
        <time>2021-07-19T21:35:33Z</time>
      </trkpt>
      <trkpt lat="48.95226" lon="7.91281">
        <ele>172.69</ele>
        <time>2021-07-19T21:35:48Z</time>
      </trkpt>
      <trkpt lat="48.95187" lon="7.91375">
        <ele>169.81</ele>
        <time>2021-07-19T21:35:56Z</time>
      </trkpt>
      <trkpt lat="48.95183" lon="7.91391">
        <ele>168.85</ele>
        <time>2021-07-19T21:36:02Z</time>
      </trkpt>
      <trkpt lat="48.95184" lon="7.91397">
        <ele>168.37</ele>
        <time>2021-07-19T21:36:03Z</time>
      </trkpt>
      <trkpt lat="48.95186" lon="7.91404">
        <ele>167.89</ele>
        <time>2021-07-19T21:36:04Z</time>
      </trkpt>
      <trkpt lat="48.95188" lon="7.91413">
        <ele>167.41</ele>
        <time>2021-07-19T21:36:05Z</time>
      </trkpt>
      <trkpt lat="48.95192" lon="7.91418">
        <ele>166.93</ele>
        <time>2021-07-19T21:36:06Z</time>
      </trkpt>
      <trkpt lat="48.95196" lon="7.91426">
        <ele>166.45</ele>
        <time>2021-07-19T21:36:07Z</time>
      </trkpt>
      <trkpt lat="48.95201" lon="7.91434">
        <ele>165.96</ele>
        <time>2021-07-19T21:36:08Z</time>
      </trkpt>
      <trkpt lat="48.95295" lon="7.91566">
        <ele>153.95</ele>
        <time>2021-07-19T21:36:21Z</time>
      </trkpt>
      <trkpt lat="48.95378" lon="7.91706">
        <ele>146.26</ele>
        <time>2021-07-19T21:36:32Z</time>
      </trkpt>
      <trkpt lat="48.95431" lon="7.91753">
        <ele>151.54</ele>
        <time>2021-07-19T21:36:38Z</time>
      </trkpt>
      <trkpt lat="48.9544" lon="7.91758">
        <ele>152.03</ele>
        <time>2021-07-19T21:36:39Z</time>
      </trkpt>
      <trkpt lat="48.95502" lon="7.91783">
        <ele>157.31</ele>
        <time>2021-07-19T21:36:45Z</time>
      </trkpt>
      <trkpt lat="48.9551" lon="7.9179">
        <ele>157.79</ele>
        <time>2021-07-19T21:36:46Z</time>
      </trkpt>
      <trkpt lat="48.95518" lon="7.91798">
        <ele>158.27</ele>
        <time>2021-07-19T21:36:47Z</time>
      </trkpt>
      <trkpt lat="48.95526" lon="7.91805">
        <ele>159.24</ele>
        <time>2021-07-19T21:36:48Z</time>
      </trkpt>
      <trkpt lat="48.95533" lon="7.91812">
        <ele>159.72</ele>
        <time>2021-07-19T21:36:49Z</time>
      </trkpt>
      <trkpt lat="48.95571" lon="7.91862">
        <ele>164.04</ele>
        <time>2021-07-19T21:36:56Z</time>
      </trkpt>
      <trkpt lat="48.95575" lon="7.91867">
        <ele>164.52</ele>
        <time>2021-07-19T21:36:57Z</time>
      </trkpt>
      <trkpt lat="48.95578" lon="7.91872">
        <ele>164.52</ele>
        <time>2021-07-19T21:36:58Z</time>
      </trkpt>
      <trkpt lat="48.956" lon="7.91901">
        <ele>166.93</ele>
        <time>2021-07-19T21:37:07Z</time>
      </trkpt>
      <trkpt lat="48.95646" lon="7.91964">
        <ele>168.37</ele>
        <time>2021-07-19T21:37:14Z</time>
      </trkpt>
      <trkpt lat="48.95754" lon="7.92118">
        <ele>176.54</ele>
        <time>2021-07-19T21:37:25Z</time>
      </trkpt>
      <trkpt lat="48.95822" lon="7.92196">
        <ele>182.79</ele>
        <time>2021-07-19T21:37:32Z</time>
      </trkpt>
      <trkpt lat="48.95844" lon="7.92217">
        <ele>184.23</ele>
        <time>2021-07-19T21:37:36Z</time>
      </trkpt>
      <trkpt lat="48.95848" lon="7.92221">
        <ele>184.23</ele>
        <time>2021-07-19T21:37:37Z</time>
      </trkpt>
      <trkpt lat="48.95851" lon="7.92223">
        <ele>184.23</ele>
        <time>2021-07-19T21:37:38Z</time>
      </trkpt>
      <trkpt lat="48.9586" lon="7.92254">
        <ele>183.75</ele>
        <time>2021-07-19T21:37:45Z</time>
      </trkpt>
      <trkpt lat="48.95865" lon="7.92248">
        <ele>183.75</ele>
        <time>2021-07-19T21:37:46Z</time>
      </trkpt>
      <trkpt lat="48.95868" lon="7.92246">
        <ele>183.75</ele>
        <time>2021-07-19T21:37:47Z</time>
      </trkpt>
      <trkpt lat="48.95868" lon="7.92241">
        <ele>183.27</ele>
        <time>2021-07-19T21:37:48Z</time>
      </trkpt>
      <trkpt lat="48.95868" lon="7.92241">
        <ele>183.27</ele>
        <time>2021-07-19T21:37:49Z</time>
      </trkpt>
      <trkpt lat="48.95868" lon="7.92237">
        <ele>183.75</ele>
        <time>2021-07-19T21:37:50Z</time>
      </trkpt>
      <trkpt lat="48.95867" lon="7.92226">
        <ele>184.23</ele>
        <time>2021-07-19T21:37:56Z</time>
      </trkpt>
      <trkpt lat="48.95867" lon="7.92226">
        <ele>184.71</ele>
        <time>2021-07-19T21:37:57Z</time>
      </trkpt>
      <trkpt lat="48.95864" lon="7.92222">
        <ele>184.71</ele>
        <time>2021-07-19T21:37:58Z</time>
      </trkpt>
      <trkpt lat="48.9586" lon="7.92217">
        <ele>184.23</ele>
        <time>2021-07-19T21:38:00Z</time>
      </trkpt>
      <trkpt lat="48.95847" lon="7.9222">
        <ele>184.23</ele>
        <time>2021-07-19T21:38:01Z</time>
      </trkpt>
      <trkpt lat="48.95841" lon="7.92214">
        <ele>183.75</ele>
        <time>2021-07-19T21:38:02Z</time>
      </trkpt>
      <trkpt lat="48.95765" lon="7.92132">
        <ele>179.42</ele>
        <time>2021-07-19T21:38:10Z</time>
      </trkpt>
      <trkpt lat="48.95659" lon="7.91983">
        <ele>171.73</ele>
        <time>2021-07-19T21:38:20Z</time>
      </trkpt>
      <trkpt lat="48.95575" lon="7.91868">
        <ele>166.93</ele>
        <time>2021-07-19T21:38:29Z</time>
      </trkpt>
      <trkpt lat="48.95568" lon="7.91858">
        <ele>166.45</ele>
        <time>2021-07-19T21:38:30Z</time>
      </trkpt>
      <trkpt lat="48.95518" lon="7.91797">
        <ele>159.24</ele>
        <time>2021-07-19T21:38:36Z</time>
      </trkpt>
      <trkpt lat="48.95508" lon="7.91788">
        <ele>157.79</ele>
        <time>2021-07-19T21:38:37Z</time>
      </trkpt>
      <trkpt lat="48.95482" lon="7.91775">
        <ele>154.91</ele>
        <time>2021-07-19T21:38:38Z</time>
      </trkpt>
      <trkpt lat="48.9543" lon="7.91752">
        <ele>153.47</ele>
        <time>2021-07-19T21:38:43Z</time>
      </trkpt>
      <trkpt lat="48.95418" lon="7.91744">
        <ele>152.99</ele>
        <time>2021-07-19T21:38:44Z</time>
      </trkpt>
      <trkpt lat="48.95407" lon="7.91737">
        <ele>152.51</ele>
        <time>2021-07-19T21:38:45Z</time>
      </trkpt>
      <trkpt lat="48.95396" lon="7.91726">
        <ele>151.54</ele>
        <time>2021-07-19T21:38:46Z</time>
      </trkpt>
      <trkpt lat="48.95385" lon="7.91715">
        <ele>151.06</ele>
        <time>2021-07-19T21:38:47Z</time>
      </trkpt>
      <trkpt lat="48.95375" lon="7.91701">
        <ele>150.58</ele>
        <time>2021-07-19T21:38:48Z</time>
      </trkpt>
      <trkpt lat="48.95365" lon="7.91688">
        <ele>151.06</ele>
        <time>2021-07-19T21:38:49Z</time>
      </trkpt>
      <trkpt lat="48.95356" lon="7.91675">
        <ele>152.03</ele>
        <time>2021-07-19T21:38:50Z</time>
      </trkpt>
      <trkpt lat="48.95259" lon="7.91518">
        <ele>161.64</ele>
        <time>2021-07-19T21:39:01Z</time>
      </trkpt>
      <trkpt lat="48.95187" lon="7.91406">
        <ele>171.73</ele>
        <time>2021-07-19T21:39:12Z</time>
      </trkpt>
      <trkpt lat="48.95177" lon="7.91381">
        <ele>172.69</ele>
        <time>2021-07-19T21:39:20Z</time>
      </trkpt>
      <trkpt lat="48.95174" lon="7.91377">
        <ele>173.66</ele>
        <time>2021-07-19T21:39:32Z</time>
      </trkpt>
      <trkpt lat="48.95176" lon="7.9138">
        <ele>173.17</ele>
        <time>2021-07-19T21:39:37Z</time>
      </trkpt>
      <trkpt lat="48.95176" lon="7.9138">
        <ele>173.17</ele>
        <time>2021-07-19T21:39:38Z</time>
      </trkpt>
      <trkpt lat="48.95184" lon="7.91382">
        <ele>173.17</ele>
        <time>2021-07-19T21:39:39Z</time>
      </trkpt>
      <trkpt lat="48.95186" lon="7.91377">
        <ele>173.66</ele>
        <time>2021-07-19T21:39:40Z</time>
      </trkpt>
      <trkpt lat="48.95189" lon="7.91372">
        <ele>173.66</ele>
        <time>2021-07-19T21:39:41Z</time>
      </trkpt>
      <trkpt lat="48.95192" lon="7.91366">
        <ele>174.14</ele>
        <time>2021-07-19T21:39:42Z</time>
      </trkpt>
      <trkpt lat="48.95195" lon="7.91359">
        <ele>174.14</ele>
        <time>2021-07-19T21:39:43Z</time>
      </trkpt>
      <trkpt lat="48.95198" lon="7.91351">
        <ele>174.62</ele>
        <time>2021-07-19T21:39:44Z</time>
      </trkpt>
      <trkpt lat="48.95202" lon="7.91343">
        <ele>174.62</ele>
        <time>2021-07-19T21:39:45Z</time>
      </trkpt>
      <trkpt lat="48.95206" lon="7.91333">
        <ele>175.1</ele>
        <time>2021-07-19T21:39:46Z</time>
      </trkpt>
      <trkpt lat="48.95211" lon="7.91322">
        <ele>175.1</ele>
        <time>2021-07-19T21:39:47Z</time>
      </trkpt>
      <trkpt lat="48.95246" lon="7.91169">
        <ele>176.54</ele>
        <time>2021-07-19T21:39:57Z</time>
      </trkpt>
      <trkpt lat="48.95262" lon="7.91074">
        <ele>177.02</ele>
        <time>2021-07-19T21:40:05Z</time>
      </trkpt>
      <trkpt lat="48.95283" lon="7.90972">
        <ele>175.58</ele>
        <time>2021-07-19T21:40:20Z</time>
      </trkpt>
      <trkpt lat="48.95305" lon="7.90911">
        <ele>175.58</ele>
        <time>2021-07-19T21:40:33Z</time>
      </trkpt>
      <trkpt lat="48.95331" lon="7.90841">
        <ele>175.58</ele>
        <time>2021-07-19T21:40:42Z</time>
      </trkpt>
      <trkpt lat="48.95405" lon="7.90683">
        <ele>172.21</ele>
        <time>2021-07-19T21:40:57Z</time>
      </trkpt>
      <trkpt lat="48.95425" lon="7.90607">
        <ele>167.89</ele>
        <time>2021-07-19T21:41:05Z</time>
      </trkpt>
      <trkpt lat="48.95416" lon="7.90521">
        <ele>163.56</ele>
        <time>2021-07-19T21:41:12Z</time>
      </trkpt>
      <trkpt lat="48.95361" lon="7.90363">
        <ele>153.47</ele>
        <time>2021-07-19T21:41:20Z</time>
      </trkpt>
      <trkpt lat="48.95269" lon="7.90182">
        <ele>144.82</ele>
        <time>2021-07-19T21:41:28Z</time>
      </trkpt>
      <trkpt lat="48.95255" lon="7.90164">
        <ele>144.82</ele>
        <time>2021-07-19T21:41:29Z</time>
      </trkpt>
      <trkpt lat="48.9524" lon="7.90146">
        <ele>144.82</ele>
        <time>2021-07-19T21:41:30Z</time>
      </trkpt>
      <trkpt lat="48.95056" lon="7.90025">
        <ele>145.78</ele>
        <time>2021-07-19T21:41:40Z</time>
      </trkpt>
      <trkpt lat="48.95042" lon="7.9001">
        <ele>146.26</ele>
        <time>2021-07-19T21:41:41Z</time>
      </trkpt>
      <trkpt lat="48.95029" lon="7.8999">
        <ele>146.74</ele>
        <time>2021-07-19T21:41:42Z</time>
      </trkpt>
      <trkpt lat="48.95029" lon="7.8999">
        <ele>147.7</ele>
        <time>2021-07-19T21:41:43Z</time>
      </trkpt>
      <trkpt lat="48.94892" lon="7.89716">
        <ele>155.87</ele>
        <time>2021-07-19T21:41:55Z</time>
      </trkpt>
      <trkpt lat="48.94858" lon="7.89648">
        <ele>157.79</ele>
        <time>2021-07-19T21:41:57Z</time>
      </trkpt>
      <trkpt lat="48.94844" lon="7.8963">
        <ele>158.75</ele>
        <time>2021-07-19T21:41:58Z</time>
      </trkpt>
      <trkpt lat="48.9483" lon="7.89611">
        <ele>159.24</ele>
        <time>2021-07-19T21:41:59Z</time>
      </trkpt>
      <trkpt lat="48.94699" lon="7.8947">
        <ele>168.85</ele>
        <time>2021-07-19T21:42:09Z</time>
      </trkpt>
      <trkpt lat="48.94658" lon="7.89427">
        <ele>172.21</ele>
        <time>2021-07-19T21:42:14Z</time>
      </trkpt>
      <trkpt lat="48.94653" lon="7.89422">
        <ele>172.69</ele>
        <time>2021-07-19T21:42:22Z</time>
      </trkpt>
      <trkpt lat="48.94646" lon="7.89415">
        <ele>173.17</ele>
        <time>2021-07-19T21:42:57Z</time>
      </trkpt>
      <trkpt lat="48.94642" lon="7.8941">
        <ele>173.66</ele>
        <time>2021-07-19T21:42:58Z</time>
      </trkpt>
      <trkpt lat="48.94595" lon="7.89348">
        <ele>177.98</ele>
        <time>2021-07-19T21:43:06Z</time>
      </trkpt>
      <trkpt lat="48.94523" lon="7.89228">
        <ele>178.46</ele>
        <time>2021-07-19T21:43:18Z</time>
      </trkpt>
      <trkpt lat="48.94519" lon="7.89221">
        <ele>178.46</ele>
        <time>2021-07-19T21:43:19Z</time>
      </trkpt>
      <trkpt lat="48.94516" lon="7.89215">
        <ele>177.98</ele>
        <time>2021-07-19T21:43:20Z</time>
      </trkpt>
      <trkpt lat="48.94512" lon="7.89208">
        <ele>177.98</ele>
        <time>2021-07-19T21:43:21Z</time>
      </trkpt>
      <trkpt lat="48.94509" lon="7.89203">
        <ele>177.98</ele>
        <time>2021-07-19T21:43:22Z</time>
      </trkpt>
      <trkpt lat="48.94506" lon="7.89197">
        <ele>177.98</ele>
        <time>2021-07-19T21:43:23Z</time>
      </trkpt>
      <trkpt lat="48.94502" lon="7.89192">
        <ele>178.46</ele>
        <time>2021-07-19T21:43:24Z</time>
      </trkpt>
      <trkpt lat="48.94498" lon="7.89186">
        <ele>178.46</ele>
        <time>2021-07-19T21:43:25Z</time>
      </trkpt>
      <trkpt lat="48.94494" lon="7.89179">
        <ele>178.46</ele>
        <time>2021-07-19T21:43:26Z</time>
      </trkpt>
      <trkpt lat="48.94489" lon="7.89171">
        <ele>177.98</ele>
        <time>2021-07-19T21:43:27Z</time>
      </trkpt>
      <trkpt lat="48.94415" lon="7.8906">
        <ele>174.14</ele>
        <time>2021-07-19T21:43:37Z</time>
      </trkpt>
      <trkpt lat="48.94293" lon="7.88866">
        <ele>167.89</ele>
        <time>2021-07-19T21:43:49Z</time>
      </trkpt>
      <trkpt lat="48.94286" lon="7.88845">
        <ele>166.93</ele>
        <time>2021-07-19T21:43:50Z</time>
      </trkpt>
      <trkpt lat="48.9424" lon="7.88697">
        <ele>165.48</ele>
        <time>2021-07-19T21:43:57Z</time>
      </trkpt>
      <trkpt lat="48.94235" lon="7.88678">
        <ele>165.48</ele>
        <time>2021-07-19T21:43:58Z</time>
      </trkpt>
      <trkpt lat="48.94217" lon="7.88644">
        <ele>164.52</ele>
        <time>2021-07-19T21:43:59Z</time>
      </trkpt>
      <trkpt lat="48.94217" lon="7.88644">
        <ele>164.52</ele>
        <time>2021-07-19T21:44:00Z</time>
      </trkpt>
      <trkpt lat="48.94208" lon="7.88629">
        <ele>165</ele>
        <time>2021-07-19T21:44:01Z</time>
      </trkpt>
      <trkpt lat="48.94198" lon="7.88615">
        <ele>163.56</ele>
        <time>2021-07-19T21:44:02Z</time>
      </trkpt>
      <trkpt lat="48.94178" lon="7.88594">
        <ele>163.08</ele>
        <time>2021-07-19T21:44:03Z</time>
      </trkpt>
      <trkpt lat="48.94178" lon="7.88594">
        <ele>163.08</ele>
        <time>2021-07-19T21:44:04Z</time>
      </trkpt>
      <trkpt lat="48.9408" lon="7.88526">
        <ele>158.27</ele>
        <time>2021-07-19T21:44:15Z</time>
      </trkpt>
      <trkpt lat="48.93955" lon="7.88467">
        <ele>149.14</ele>
        <time>2021-07-19T21:44:30Z</time>
      </trkpt>
      <trkpt lat="48.93889" lon="7.88456">
        <ele>149.14</ele>
        <time>2021-07-19T21:44:39Z</time>
      </trkpt>
      <trkpt lat="48.9378" lon="7.88438">
        <ele>150.1</ele>
        <time>2021-07-19T21:44:54Z</time>
      </trkpt>
      <trkpt lat="48.93766" lon="7.88436">
        <ele>151.54</ele>
        <time>2021-07-19T21:45:01Z</time>
      </trkpt>
      <trkpt lat="48.93745" lon="7.88433">
        <ele>152.03</ele>
        <time>2021-07-19T21:45:15Z</time>
      </trkpt>
      <trkpt lat="48.937" lon="7.88423">
        <ele>152.03</ele>
        <time>2021-07-19T21:45:25Z</time>
      </trkpt>
      <trkpt lat="48.93644" lon="7.8842">
        <ele>150.58</ele>
        <time>2021-07-19T21:45:32Z</time>
      </trkpt>
      <trkpt lat="48.93637" lon="7.88419">
        <ele>150.1</ele>
        <time>2021-07-19T21:45:33Z</time>
      </trkpt>
      <trkpt lat="48.93577" lon="7.88415">
        <ele>148.66</ele>
        <time>2021-07-19T21:45:42Z</time>
      </trkpt>
      <trkpt lat="48.93561" lon="7.88386">
        <ele>145.78</ele>
        <time>2021-07-19T21:45:55Z</time>
      </trkpt>
      <trkpt lat="48.93571" lon="7.88369">
        <ele>144.82</ele>
        <time>2021-07-19T21:46:07Z</time>
      </trkpt>
      <trkpt lat="48.93582" lon="7.88371">
        <ele>143.37</ele>
        <time>2021-07-19T21:46:12Z</time>
      </trkpt>
      <trkpt lat="48.93583" lon="7.88415">
        <ele>142.89</ele>
        <time>2021-07-19T21:46:18Z</time>
      </trkpt>
      <trkpt lat="48.9358" lon="7.88415">
        <ele>142.89</ele>
        <time>2021-07-19T21:46:19Z</time>
      </trkpt>
      <trkpt lat="48.93576" lon="7.88415">
        <ele>142.89</ele>
        <time>2021-07-19T21:46:20Z</time>
      </trkpt>
      <trkpt lat="48.93573" lon="7.88415">
        <ele>142.89</ele>
        <time>2021-07-19T21:46:21Z</time>
      </trkpt>
      <trkpt lat="48.93558" lon="7.88414">
        <ele>143.85</ele>
        <time>2021-07-19T21:46:25Z</time>
      </trkpt>
      <trkpt lat="48.93554" lon="7.88413">
        <ele>144.34</ele>
        <time>2021-07-19T21:46:26Z</time>
      </trkpt>
      <trkpt lat="48.9355" lon="7.88413">
        <ele>144.34</ele>
        <time>2021-07-19T21:46:27Z</time>
      </trkpt>
      <trkpt lat="48.93545" lon="7.88413">
        <ele>143.85</ele>
        <time>2021-07-19T21:46:28Z</time>
      </trkpt>
      <trkpt lat="48.93541" lon="7.88412">
        <ele>143.85</ele>
        <time>2021-07-19T21:46:29Z</time>
      </trkpt>
      <trkpt lat="48.93537" lon="7.88411">
        <ele>144.34</ele>
        <time>2021-07-19T21:46:30Z</time>
      </trkpt>
      <trkpt lat="48.93521" lon="7.88407">
        <ele>145.78</ele>
        <time>2021-07-19T21:46:40Z</time>
      </trkpt>
      <trkpt lat="48.935" lon="7.88396">
        <ele>147.22</ele>
        <time>2021-07-19T21:47:05Z</time>
      </trkpt>
      <trkpt lat="48.93469" lon="7.8838">
        <ele>149.14</ele>
        <time>2021-07-19T21:47:13Z</time>
      </trkpt>
      <trkpt lat="48.93465" lon="7.88378">
        <ele>149.14</ele>
        <time>2021-07-19T21:47:14Z</time>
      </trkpt>
      <trkpt lat="48.93461" lon="7.88377">
        <ele>149.62</ele>
        <time>2021-07-19T21:47:15Z</time>
      </trkpt>
      <trkpt lat="48.93431" lon="7.88376">
        <ele>150.58</ele>
        <time>2021-07-19T21:47:26Z</time>
      </trkpt>
      <trkpt lat="48.93428" lon="7.88379">
        <ele>150.58</ele>
        <time>2021-07-19T21:47:27Z</time>
      </trkpt>
      <trkpt lat="48.93424" lon="7.88382">
        <ele>150.58</ele>
        <time>2021-07-19T21:47:28Z</time>
      </trkpt>
      <trkpt lat="48.93419" lon="7.88386">
        <ele>150.58</ele>
        <time>2021-07-19T21:47:29Z</time>
      </trkpt>
      <trkpt lat="48.93414" lon="7.8839">
        <ele>150.58</ele>
        <time>2021-07-19T21:47:30Z</time>
      </trkpt>
      <trkpt lat="48.93337" lon="7.8848">
        <ele>148.66</ele>
        <time>2021-07-19T21:47:40Z</time>
      </trkpt>
      <trkpt lat="48.93225" lon="7.88637">
        <ele>150.1</ele>
        <time>2021-07-19T21:47:52Z</time>
      </trkpt>
      <trkpt lat="48.93218" lon="7.88654">
        <ele>151.06</ele>
        <time>2021-07-19T21:47:53Z</time>
      </trkpt>
      <trkpt lat="48.93212" lon="7.8867">
        <ele>151.54</ele>
        <time>2021-07-19T21:47:54Z</time>
      </trkpt>
      <trkpt lat="48.93177" lon="7.88833">
        <ele>153.95</ele>
        <time>2021-07-19T21:48:04Z</time>
      </trkpt>
      <trkpt lat="48.93128" lon="7.89077">
        <ele>155.87</ele>
        <time>2021-07-19T21:48:17Z</time>
      </trkpt>
      <trkpt lat="48.93087" lon="7.8929">
        <ele>158.75</ele>
        <time>2021-07-19T21:48:30Z</time>
      </trkpt>
      <trkpt lat="48.93046" lon="7.89503">
        <ele>160.68</ele>
        <time>2021-07-19T21:48:44Z</time>
      </trkpt>
      <trkpt lat="48.93036" lon="7.89527">
        <ele>160.2</ele>
        <time>2021-07-19T21:48:45Z</time>
      </trkpt>
      <trkpt lat="48.93036" lon="7.89527">
        <ele>160.68</ele>
        <time>2021-07-19T21:48:46Z</time>
      </trkpt>
      <trkpt lat="48.93023" lon="7.89548">
        <ele>160.2</ele>
        <time>2021-07-19T21:48:47Z</time>
      </trkpt>
      <trkpt lat="48.93023" lon="7.89548">
        <ele>159.24</ele>
        <time>2021-07-19T21:48:48Z</time>
      </trkpt>
      <trkpt lat="48.93017" lon="7.89554">
        <ele>158.27</ele>
        <time>2021-07-19T21:48:49Z</time>
      </trkpt>
      <trkpt lat="48.9301" lon="7.89562">
        <ele>158.27</ele>
        <time>2021-07-19T21:48:50Z</time>
      </trkpt>
      <trkpt lat="48.93002" lon="7.89569">
        <ele>157.31</ele>
        <time>2021-07-19T21:48:51Z</time>
      </trkpt>
      <trkpt lat="48.92962" lon="7.896">
        <ele>156.35</ele>
        <time>2021-07-19T21:48:58Z</time>
      </trkpt>
      <trkpt lat="48.92928" lon="7.89594">
        <ele>158.75</ele>
        <time>2021-07-19T21:49:10Z</time>
      </trkpt>
      <trkpt lat="48.92912" lon="7.89592">
        <ele>159.72</ele>
        <time>2021-07-19T21:49:13Z</time>
      </trkpt>
      <trkpt lat="48.92907" lon="7.8959">
        <ele>159.72</ele>
        <time>2021-07-19T21:49:14Z</time>
      </trkpt>
      <trkpt lat="48.92902" lon="7.89588">
        <ele>159.72</ele>
        <time>2021-07-19T21:49:15Z</time>
      </trkpt>
      <trkpt lat="48.92898" lon="7.89586">
        <ele>160.2</ele>
        <time>2021-07-19T21:49:16Z</time>
      </trkpt>
      <trkpt lat="48.92894" lon="7.89582">
        <ele>160.2</ele>
        <time>2021-07-19T21:49:17Z</time>
      </trkpt>
      <trkpt lat="48.92892" lon="7.89577">
        <ele>160.2</ele>
        <time>2021-07-19T21:49:18Z</time>
      </trkpt>
      <trkpt lat="48.92889" lon="7.89571">
        <ele>160.2</ele>
        <time>2021-07-19T21:49:19Z</time>
      </trkpt>
      <trkpt lat="48.92869" lon="7.89535">
        <ele>160.68</ele>
        <time>2021-07-19T21:49:31Z</time>
      </trkpt>
      <trkpt lat="48.92869" lon="7.89535">
        <ele>159.24</ele>
        <time>2021-07-19T21:49:44Z</time>
      </trkpt>
      <trkpt lat="48.92875" lon="7.89546">
        <ele>158.75</ele>
        <time>2021-07-19T21:49:55Z</time>
      </trkpt>
      <trkpt lat="48.92875" lon="7.89546">
        <ele>159.24</ele>
        <time>2021-07-19T21:56:39Z</time>
      </trkpt>
      <trkpt lat="48.92875" lon="7.89546">
        <ele>159.24</ele>
        <time>2021-07-19T21:58:20Z</time>
      </trkpt>
      <trkpt lat="48.92875" lon="7.89546">
        <ele>159.24</ele>
        <time>2021-07-19T21:59:38Z</time>
      </trkpt>
      <trkpt lat="48.92875" lon="7.89546">
        <ele>159.72</ele>
        <time>2021-07-19T22:00:30Z</time>
      </trkpt>
      <trkpt lat="48.92875" lon="7.89546">
        <ele>160.2</ele>
        <time>2021-07-19T22:02:10Z</time>
      </trkpt>
      <trkpt lat="48.92875" lon="7.89546">
        <ele>160.2</ele>
        <time>2021-07-19T22:05:31Z</time>
      </trkpt>
      <trkpt lat="48.92878" lon="7.89579">
        <ele>159.24</ele>
        <time>2021-07-19T22:06:26Z</time>
      </trkpt>
      <trkpt lat="48.92873" lon="7.89543">
        <ele>160.2</ele>
        <time>2021-07-19T22:06:36Z</time>
      </trkpt>
      <trkpt lat="48.92869" lon="7.89535">
        <ele>161.64</ele>
        <time>2021-07-19T22:06:46Z</time>
      </trkpt>
      <trkpt lat="48.9284" lon="7.89521">
        <ele>163.56</ele>
        <time>2021-07-19T22:06:58Z</time>
      </trkpt>
      <trkpt lat="48.92845" lon="7.89558">
        <ele>165.96</ele>
        <time>2021-07-19T22:16:26Z</time>
      </trkpt>
      <trkpt lat="48.92844" lon="7.8956">
        <ele>177.98</ele>
        <time>2021-07-19T22:16:49Z</time>
      </trkpt>
      <trkpt lat="48.92846" lon="7.89557">
        <ele>176.54</ele>
        <time>2021-07-19T22:17:47Z</time>
      </trkpt>
      <trkpt lat="48.92845" lon="7.89558">
        <ele>176.54</ele>
        <time>2021-07-19T22:18:13Z</time>
      </trkpt>
      <trkpt lat="48.92847" lon="7.89567">
        <ele>177.02</ele>
        <time>2021-07-19T22:18:18Z</time>
      </trkpt>
      <trkpt lat="48.92875" lon="7.89582">
        <ele>176.06</ele>
        <time>2021-07-19T22:18:33Z</time>
      </trkpt>
      <trkpt lat="48.92891" lon="7.89577">
        <ele>174.62</ele>
        <time>2021-07-19T22:18:38Z</time>
      </trkpt>
      <trkpt lat="48.92894" lon="7.89581">
        <ele>173.66</ele>
        <time>2021-07-19T22:18:39Z</time>
      </trkpt>
      <trkpt lat="48.92901" lon="7.89592">
        <ele>173.66</ele>
        <time>2021-07-19T22:18:40Z</time>
      </trkpt>
      <trkpt lat="48.92906" lon="7.89606">
        <ele>173.17</ele>
        <time>2021-07-19T22:18:43Z</time>
      </trkpt>
      <trkpt lat="48.92909" lon="7.89613">
        <ele>173.17</ele>
        <time>2021-07-19T22:18:44Z</time>
      </trkpt>
      <trkpt lat="48.92916" lon="7.89633">
        <ele>173.17</ele>
        <time>2021-07-19T22:18:47Z</time>
      </trkpt>
      <trkpt lat="48.92921" lon="7.89646">
        <ele>173.17</ele>
        <time>2021-07-19T22:18:48Z</time>
      </trkpt>
      <trkpt lat="48.92921" lon="7.89646">
        <ele>173.17</ele>
        <time>2021-07-19T22:18:49Z</time>
      </trkpt>
      <trkpt lat="48.92925" lon="7.8965">
        <ele>172.69</ele>
        <time>2021-07-19T22:18:50Z</time>
      </trkpt>
      <trkpt lat="48.9293" lon="7.89652">
        <ele>172.69</ele>
        <time>2021-07-19T22:18:51Z</time>
      </trkpt>
      <trkpt lat="48.92935" lon="7.89653">
        <ele>172.21</ele>
        <time>2021-07-19T22:18:52Z</time>
      </trkpt>
      <trkpt lat="48.9294" lon="7.89652">
        <ele>172.21</ele>
        <time>2021-07-19T22:18:53Z</time>
      </trkpt>
      <trkpt lat="48.92945" lon="7.89651">
        <ele>171.73</ele>
        <time>2021-07-19T22:18:54Z</time>
      </trkpt>
      <trkpt lat="48.92949" lon="7.89645">
        <ele>171.73</ele>
        <time>2021-07-19T22:18:55Z</time>
      </trkpt>
      <trkpt lat="48.92953" lon="7.89638">
        <ele>171.73</ele>
        <time>2021-07-19T22:18:56Z</time>
      </trkpt>
      <trkpt lat="48.92957" lon="7.89632">
        <ele>171.73</ele>
        <time>2021-07-19T22:18:57Z</time>
      </trkpt>
      <trkpt lat="48.92957" lon="7.89632">
        <ele>171.73</ele>
        <time>2021-07-19T22:18:58Z</time>
      </trkpt>
      <trkpt lat="48.92961" lon="7.89601">
        <ele>171.73</ele>
        <time>2021-07-19T22:18:59Z</time>
      </trkpt>
      <trkpt lat="48.92967" lon="7.89596">
        <ele>171.73</ele>
        <time>2021-07-19T22:19:00Z</time>
      </trkpt>
      <trkpt lat="48.92974" lon="7.89591">
        <ele>172.21</ele>
        <time>2021-07-19T22:19:01Z</time>
      </trkpt>
      <trkpt lat="48.93038" lon="7.89523">
        <ele>176.54</ele>
        <time>2021-07-19T22:19:12Z</time>
      </trkpt>
      <trkpt lat="48.93041" lon="7.89517">
        <ele>177.02</ele>
        <time>2021-07-19T22:19:13Z</time>
      </trkpt>
      <trkpt lat="48.93044" lon="7.89509">
        <ele>177.02</ele>
        <time>2021-07-19T22:19:14Z</time>
      </trkpt>
      <trkpt lat="48.93068" lon="7.89397">
        <ele>176.54</ele>
        <time>2021-07-19T22:19:27Z</time>
      </trkpt>
      <trkpt lat="48.93095" lon="7.89251">
        <ele>172.69</ele>
        <time>2021-07-19T22:19:41Z</time>
      </trkpt>
      <trkpt lat="48.93126" lon="7.8909">
        <ele>167.41</ele>
        <time>2021-07-19T22:19:57Z</time>
      </trkpt>
      <trkpt lat="48.93152" lon="7.88953">
        <ele>165</ele>
        <time>2021-07-19T22:20:11Z</time>
      </trkpt>
      <trkpt lat="48.93171" lon="7.88859">
        <ele>165</ele>
        <time>2021-07-19T22:20:22Z</time>
      </trkpt>
      <trkpt lat="48.93222" lon="7.88644">
        <ele>161.64</ele>
        <time>2021-07-19T22:20:39Z</time>
      </trkpt>
      <trkpt lat="48.93305" lon="7.88518">
        <ele>159.24</ele>
        <time>2021-07-19T22:20:50Z</time>
      </trkpt>
      <trkpt lat="48.93387" lon="7.88419">
        <ele>155.87</ele>
        <time>2021-07-19T22:21:03Z</time>
      </trkpt>
      <trkpt lat="48.93423" lon="7.88383">
        <ele>153.95</ele>
        <time>2021-07-19T22:21:11Z</time>
      </trkpt>
      <trkpt lat="48.93428" lon="7.88379">
        <ele>153.47</ele>
        <time>2021-07-19T22:21:12Z</time>
      </trkpt>
      <trkpt lat="48.93431" lon="7.88376">
        <ele>153.95</ele>
        <time>2021-07-19T22:21:13Z</time>
      </trkpt>
      <trkpt lat="48.93434" lon="7.88374">
        <ele>155.39</ele>
        <time>2021-07-19T22:21:26Z</time>
      </trkpt>
      <trkpt lat="48.93439" lon="7.88374">
        <ele>154.91</ele>
        <time>2021-07-19T22:21:34Z</time>
      </trkpt>
      <trkpt lat="48.93443" lon="7.88374">
        <ele>154.91</ele>
        <time>2021-07-19T22:21:35Z</time>
      </trkpt>
      <trkpt lat="48.93447" lon="7.88374">
        <ele>154.91</ele>
        <time>2021-07-19T22:21:36Z</time>
      </trkpt>
      <trkpt lat="48.93474" lon="7.88382">
        <ele>153.47</ele>
        <time>2021-07-19T22:21:42Z</time>
      </trkpt>
      <trkpt lat="48.93478" lon="7.88384">
        <ele>153.47</ele>
        <time>2021-07-19T22:21:43Z</time>
      </trkpt>
      <trkpt lat="48.9355" lon="7.88413">
        <ele>150.1</ele>
        <time>2021-07-19T22:21:55Z</time>
      </trkpt>
      <trkpt lat="48.93643" lon="7.88419">
        <ele>149.62</ele>
        <time>2021-07-19T22:22:07Z</time>
      </trkpt>
      <trkpt lat="48.9371" lon="7.88426">
        <ele>150.58</ele>
        <time>2021-07-19T22:22:15Z</time>
      </trkpt>
      <trkpt lat="48.9373" lon="7.8843">
        <ele>152.03</ele>
        <time>2021-07-19T22:22:19Z</time>
      </trkpt>
      <trkpt lat="48.93734" lon="7.88431">
        <ele>152.51</ele>
        <time>2021-07-19T22:22:20Z</time>
      </trkpt>
      <trkpt lat="48.93761" lon="7.88435">
        <ele>152.51</ele>
        <time>2021-07-19T22:22:28Z</time>
      </trkpt>
      <trkpt lat="48.9384" lon="7.88447">
        <ele>151.06</ele>
        <time>2021-07-19T22:22:39Z</time>
      </trkpt>
      <trkpt lat="48.93949" lon="7.88466">
        <ele>150.1</ele>
        <time>2021-07-19T22:22:50Z</time>
      </trkpt>
      <trkpt lat="48.94046" lon="7.88506">
        <ele>159.24</ele>
        <time>2021-07-19T22:23:00Z</time>
      </trkpt>
      <trkpt lat="48.94106" lon="7.88542">
        <ele>162.6</ele>
        <time>2021-07-19T22:23:10Z</time>
      </trkpt>
      <trkpt lat="48.94111" lon="7.88546">
        <ele>163.08</ele>
        <time>2021-07-19T22:23:20Z</time>
      </trkpt>
      <trkpt lat="48.94131" lon="7.8856">
        <ele>164.52</ele>
        <time>2021-07-19T22:27:07Z</time>
      </trkpt>
      <trkpt lat="48.9414" lon="7.88565">
        <ele>165.48</ele>
        <time>2021-07-19T22:27:10Z</time>
      </trkpt>
      <trkpt lat="48.94142" lon="7.88566">
        <ele>165.48</ele>
        <time>2021-07-19T22:27:11Z</time>
      </trkpt>
      <trkpt lat="48.94143" lon="7.88567">
        <ele>165.48</ele>
        <time>2021-07-19T22:27:12Z</time>
      </trkpt>
      <trkpt lat="48.94146" lon="7.88554">
        <ele>165.96</ele>
        <time>2021-07-19T22:27:22Z</time>
      </trkpt>
      <trkpt lat="48.94144" lon="7.88555">
        <ele>166.45</ele>
        <time>2021-07-19T22:27:26Z</time>
      </trkpt>
      <trkpt lat="48.94132" lon="7.8856">
        <ele>165.96</ele>
        <time>2021-07-19T22:27:30Z</time>
      </trkpt>
      <trkpt lat="48.94065" lon="7.88517">
        <ele>160.68</ele>
        <time>2021-07-19T22:27:40Z</time>
      </trkpt>
      <trkpt lat="48.93946" lon="7.88465">
        <ele>152.51</ele>
        <time>2021-07-19T22:27:56Z</time>
      </trkpt>
      <trkpt lat="48.93853" lon="7.88449">
        <ele>151.54</ele>
        <time>2021-07-19T22:28:09Z</time>
      </trkpt>
      <trkpt lat="48.93774" lon="7.88437">
        <ele>153.95</ele>
        <time>2021-07-19T22:28:21Z</time>
      </trkpt>
      <trkpt lat="48.93768" lon="7.88436">
        <ele>154.43</ele>
        <time>2021-07-19T22:28:32Z</time>
      </trkpt>
      <trkpt lat="48.93715" lon="7.88427">
        <ele>154.91</ele>
        <time>2021-07-19T22:28:41Z</time>
      </trkpt>
      <trkpt lat="48.93608" lon="7.88417">
        <ele>152.99</ele>
        <time>2021-07-19T22:28:54Z</time>
      </trkpt>
      <trkpt lat="48.93551" lon="7.88413">
        <ele>152.99</ele>
        <time>2021-07-19T22:29:07Z</time>
      </trkpt>
      <trkpt lat="48.93538" lon="7.88411">
        <ele>153.47</ele>
        <time>2021-07-19T22:29:10Z</time>
      </trkpt>
      <trkpt lat="48.93533" lon="7.8841">
        <ele>153.47</ele>
        <time>2021-07-19T22:29:11Z</time>
      </trkpt>
      <trkpt lat="48.93528" lon="7.88409">
        <ele>153.95</ele>
        <time>2021-07-19T22:29:12Z</time>
      </trkpt>
      <trkpt lat="48.93523" lon="7.88407">
        <ele>153.95</ele>
        <time>2021-07-19T22:29:13Z</time>
      </trkpt>
      <trkpt lat="48.93518" lon="7.88406">
        <ele>154.43</ele>
        <time>2021-07-19T22:29:14Z</time>
      </trkpt>
      <trkpt lat="48.93503" lon="7.88398">
        <ele>153.95</ele>
        <time>2021-07-19T22:29:22Z</time>
      </trkpt>
      <trkpt lat="48.93487" lon="7.88389">
        <ele>154.43</ele>
        <time>2021-07-19T22:29:55Z</time>
      </trkpt>
      <trkpt lat="48.93484" lon="7.88388">
        <ele>154.43</ele>
        <time>2021-07-19T22:29:58Z</time>
      </trkpt>
      <trkpt lat="48.93481" lon="7.88386">
        <ele>154.91</ele>
        <time>2021-07-19T22:29:59Z</time>
      </trkpt>
      <trkpt lat="48.93447" lon="7.88374">
        <ele>155.87</ele>
        <time>2021-07-19T22:30:09Z</time>
      </trkpt>
      <trkpt lat="48.93431" lon="7.88338">
        <ele>156.83</ele>
        <time>2021-07-19T22:30:18Z</time>
      </trkpt>
      <trkpt lat="48.93428" lon="7.88306">
        <ele>158.75</ele>
        <time>2021-07-19T22:30:22Z</time>
      </trkpt>
      <trkpt lat="48.93426" lon="7.88296">
        <ele>159.24</ele>
        <time>2021-07-19T22:30:23Z</time>
      </trkpt>
      <trkpt lat="48.93424" lon="7.88285">
        <ele>160.2</ele>
        <time>2021-07-19T22:30:24Z</time>
      </trkpt>
      <trkpt lat="48.93421" lon="7.88274">
        <ele>160.68</ele>
        <time>2021-07-19T22:30:25Z</time>
      </trkpt>
      <trkpt lat="48.93416" lon="7.88263">
        <ele>161.64</ele>
        <time>2021-07-19T22:30:26Z</time>
      </trkpt>
      <trkpt lat="48.93391" lon="7.8821">
        <ele>162.6</ele>
        <time>2021-07-19T22:30:32Z</time>
      </trkpt>
      <trkpt lat="48.93393" lon="7.88208">
        <ele>162.6</ele>
        <time>2021-07-19T22:30:35Z</time>
      </trkpt>
      <trkpt lat="48.93393" lon="7.88208">
        <ele>162.6</ele>
        <time>2021-07-19T22:30:36Z</time>
      </trkpt>
      <trkpt lat="48.93394" lon="7.88204">
        <ele>162.6</ele>
        <time>2021-07-19T22:30:37Z</time>
      </trkpt>
      <trkpt lat="48.93398" lon="7.88187">
        <ele>162.12</ele>
        <time>2021-07-19T22:30:40Z</time>
      </trkpt>
      <trkpt lat="48.93399" lon="7.8818">
        <ele>161.16</ele>
        <time>2021-07-19T22:30:41Z</time>
      </trkpt>
      <trkpt lat="48.9342" lon="7.88067">
        <ele>152.03</ele>
        <time>2021-07-19T22:30:55Z</time>
      </trkpt>
      <trkpt lat="48.93433" lon="7.87926">
        <ele>146.74</ele>
        <time>2021-07-19T22:31:08Z</time>
      </trkpt>
      <trkpt lat="48.93436" lon="7.87901">
        <ele>150.1</ele>
        <time>2021-07-19T22:31:17Z</time>
      </trkpt>
      <trkpt lat="48.93457" lon="7.87801">
        <ele>152.99</ele>
        <time>2021-07-19T22:31:30Z</time>
      </trkpt>
      <trkpt lat="48.93458" lon="7.87752">
        <ele>153.47</ele>
        <time>2021-07-19T22:31:39Z</time>
      </trkpt>
      <trkpt lat="48.93421" lon="7.87737">
        <ele>155.87</ele>
        <time>2021-07-19T22:31:48Z</time>
      </trkpt>
      <trkpt lat="48.93412" lon="7.87704">
        <ele>156.83</ele>
        <time>2021-07-19T22:31:57Z</time>
      </trkpt>
      <trkpt lat="48.93413" lon="7.87659">
        <ele>157.79</ele>
        <time>2021-07-19T22:32:02Z</time>
      </trkpt>
      <trkpt lat="48.93414" lon="7.87646">
        <ele>157.31</ele>
        <time>2021-07-19T22:32:03Z</time>
      </trkpt>
      <trkpt lat="48.93414" lon="7.87646">
        <ele>157.31</ele>
        <time>2021-07-19T22:32:04Z</time>
      </trkpt>
      <trkpt lat="48.9341" lon="7.87642">
        <ele>157.31</ele>
        <time>2021-07-19T22:32:05Z</time>
      </trkpt>
      <trkpt lat="48.93407" lon="7.87639">
        <ele>158.27</ele>
        <time>2021-07-19T22:32:06Z</time>
      </trkpt>
      <trkpt lat="48.93403" lon="7.87636">
        <ele>158.27</ele>
        <time>2021-07-19T22:32:07Z</time>
      </trkpt>
      <trkpt lat="48.93366" lon="7.87613">
        <ele>159.24</ele>
        <time>2021-07-19T22:32:16Z</time>
      </trkpt>
      <trkpt lat="48.93366" lon="7.87613">
        <ele>159.72</ele>
        <time>2021-07-19T22:32:23Z</time>
      </trkpt>
      <trkpt lat="48.93363" lon="7.87611">
        <ele>159.72</ele>
        <time>2021-07-19T22:32:24Z</time>
      </trkpt>
      <trkpt lat="48.93361" lon="7.87605">
        <ele>160.2</ele>
        <time>2021-07-19T22:32:25Z</time>
      </trkpt>
      <trkpt lat="48.9336" lon="7.87608">
        <ele>160.2</ele>
        <time>2021-07-19T22:32:26Z</time>
      </trkpt>
      <trkpt lat="48.9336" lon="7.87612">
        <ele>160.2</ele>
        <time>2021-07-19T22:32:27Z</time>
      </trkpt>
      <trkpt lat="48.9336" lon="7.87618">
        <ele>160.2</ele>
        <time>2021-07-19T22:32:28Z</time>
      </trkpt>
      <trkpt lat="48.93358" lon="7.87681">
        <ele>158.27</ele>
        <time>2021-07-19T22:32:35Z</time>
      </trkpt>
      <trkpt lat="48.93358" lon="7.8769">
        <ele>158.75</ele>
        <time>2021-07-19T22:32:36Z</time>
      </trkpt>
      <trkpt lat="48.93358" lon="7.87697">
        <ele>158.75</ele>
        <time>2021-07-19T22:32:37Z</time>
      </trkpt>
      <trkpt lat="48.93358" lon="7.87702">
        <ele>158.27</ele>
        <time>2021-07-19T22:32:38Z</time>
      </trkpt>
      <trkpt lat="48.9336" lon="7.8771">
        <ele>158.27</ele>
        <time>2021-07-19T22:32:39Z</time>
      </trkpt>
      <trkpt lat="48.93363" lon="7.87711">
        <ele>158.27</ele>
        <time>2021-07-19T22:32:40Z</time>
      </trkpt>
      <trkpt lat="48.93367" lon="7.87713">
        <ele>157.79</ele>
        <time>2021-07-19T22:32:41Z</time>
      </trkpt>
      <trkpt lat="48.93419" lon="7.87736">
        <ele>154.43</ele>
        <time>2021-07-19T22:32:51Z</time>
      </trkpt>
      <trkpt lat="48.93457" lon="7.87752">
        <ele>152.99</ele>
        <time>2021-07-19T22:32:59Z</time>
      </trkpt>
      <trkpt lat="48.93463" lon="7.87757">
        <ele>152.99</ele>
        <time>2021-07-19T22:33:00Z</time>
      </trkpt>
      <trkpt lat="48.93462" lon="7.87763">
        <ele>152.51</ele>
        <time>2021-07-19T22:33:01Z</time>
      </trkpt>
      <trkpt lat="48.93461" lon="7.87771">
        <ele>152.51</ele>
        <time>2021-07-19T22:33:02Z</time>
      </trkpt>
      <trkpt lat="48.9346" lon="7.87782">
        <ele>152.51</ele>
        <time>2021-07-19T22:33:03Z</time>
      </trkpt>
      <trkpt lat="48.93439" lon="7.87882">
        <ele>153.95</ele>
        <time>2021-07-19T22:33:14Z</time>
      </trkpt>
      <trkpt lat="48.93438" lon="7.87883">
        <ele>153.95</ele>
        <time>2021-07-19T22:33:22Z</time>
      </trkpt>
      <trkpt lat="48.93438" lon="7.87883">
        <ele>153.95</ele>
        <time>2021-07-19T22:33:23Z</time>
      </trkpt>
      <trkpt lat="48.93439" lon="7.87876">
        <ele>154.43</ele>
        <time>2021-07-19T22:33:30Z</time>
      </trkpt>
      <trkpt lat="48.93438" lon="7.87876">
        <ele>154.43</ele>
        <time>2021-07-19T22:33:31Z</time>
      </trkpt>
      <trkpt lat="48.93434" lon="7.87875">
        <ele>154.91</ele>
        <time>2021-07-19T22:33:32Z</time>
      </trkpt>
      <trkpt lat="48.93371" lon="7.87858">
        <ele>160.68</ele>
        <time>2021-07-19T22:33:40Z</time>
      </trkpt>
      <trkpt lat="48.93349" lon="7.87853">
        <ele>161.64</ele>
        <time>2021-07-19T22:33:41Z</time>
      </trkpt>
      <trkpt lat="48.93349" lon="7.87853">
        <ele>162.6</ele>
        <time>2021-07-19T22:33:42Z</time>
      </trkpt>
      <trkpt lat="48.9334" lon="7.87857">
        <ele>163.56</ele>
        <time>2021-07-19T22:33:43Z</time>
      </trkpt>
      <trkpt lat="48.9333" lon="7.87861">
        <ele>164.52</ele>
        <time>2021-07-19T22:33:44Z</time>
      </trkpt>
      <trkpt lat="48.93322" lon="7.87866">
        <ele>165.48</ele>
        <time>2021-07-19T22:33:45Z</time>
      </trkpt>
      <trkpt lat="48.93314" lon="7.87876">
        <ele>165.96</ele>
        <time>2021-07-19T22:33:46Z</time>
      </trkpt>
      <trkpt lat="48.93265" lon="7.87939">
        <ele>170.29</ele>
        <time>2021-07-19T22:33:51Z</time>
      </trkpt>
      <trkpt lat="48.93265" lon="7.87939">
        <ele>172.69</ele>
        <time>2021-07-19T22:33:52Z</time>
      </trkpt>
      <trkpt lat="48.93259" lon="7.87947">
        <ele>174.14</ele>
        <time>2021-07-19T22:33:55Z</time>
      </trkpt>
      <trkpt lat="48.93259" lon="7.87947">
        <ele>174.14</ele>
        <time>2021-07-19T22:33:56Z</time>
      </trkpt>
      <trkpt lat="48.93258" lon="7.87952">
        <ele>173.66</ele>
        <time>2021-07-19T22:33:57Z</time>
      </trkpt>
      <trkpt lat="48.93262" lon="7.87958">
        <ele>173.17</ele>
        <time>2021-07-19T22:33:58Z</time>
      </trkpt>
      <trkpt lat="48.93266" lon="7.87967">
        <ele>172.21</ele>
        <time>2021-07-19T22:33:59Z</time>
      </trkpt>
      <trkpt lat="48.93321" lon="7.88075">
        <ele>169.33</ele>
        <time>2021-07-19T22:34:06Z</time>
      </trkpt>
      <trkpt lat="48.93412" lon="7.88254">
        <ele>158.75</ele>
        <time>2021-07-19T22:34:17Z</time>
      </trkpt>
      <trkpt lat="48.93419" lon="7.88269">
        <ele>158.75</ele>
        <time>2021-07-19T22:34:18Z</time>
      </trkpt>
      <trkpt lat="48.93423" lon="7.88283">
        <ele>156.35</ele>
        <time>2021-07-19T22:34:19Z</time>
      </trkpt>
      <trkpt lat="48.93427" lon="7.88299">
        <ele>153.95</ele>
        <time>2021-07-19T22:34:20Z</time>
      </trkpt>
      <trkpt lat="48.93429" lon="7.88315">
        <ele>153.95</ele>
        <time>2021-07-19T22:34:21Z</time>
      </trkpt>
      <trkpt lat="48.93431" lon="7.88325">
        <ele>153.47</ele>
        <time>2021-07-19T22:34:22Z</time>
      </trkpt>
      <trkpt lat="48.93431" lon="7.88336">
        <ele>152.99</ele>
        <time>2021-07-19T22:34:23Z</time>
      </trkpt>
      <trkpt lat="48.93432" lon="7.88344">
        <ele>152.99</ele>
        <time>2021-07-19T22:34:24Z</time>
      </trkpt>
      <trkpt lat="48.93432" lon="7.88353">
        <ele>152.51</ele>
        <time>2021-07-19T22:34:32Z</time>
      </trkpt>
      <trkpt lat="48.9344" lon="7.88374">
        <ele>152.99</ele>
        <time>2021-07-19T22:34:45Z</time>
      </trkpt>
      <trkpt lat="48.93479" lon="7.88385">
        <ele>151.54</ele>
        <time>2021-07-19T22:34:57Z</time>
      </trkpt>
      <trkpt lat="48.93483" lon="7.88387">
        <ele>151.54</ele>
        <time>2021-07-19T22:34:58Z</time>
      </trkpt>
      <trkpt lat="48.93493" lon="7.88392">
        <ele>151.06</ele>
        <time>2021-07-19T22:34:59Z</time>
      </trkpt>
      <trkpt lat="48.93533" lon="7.8841">
        <ele>149.62</ele>
        <time>2021-07-19T22:35:06Z</time>
      </trkpt>
      <trkpt lat="48.9354" lon="7.88411">
        <ele>149.62</ele>
        <time>2021-07-19T22:35:07Z</time>
      </trkpt>
      <trkpt lat="48.93604" lon="7.88417">
        <ele>150.58</ele>
        <time>2021-07-19T22:35:19Z</time>
      </trkpt>
      <trkpt lat="48.93652" lon="7.8842">
        <ele>151.54</ele>
        <time>2021-07-19T22:35:28Z</time>
      </trkpt>
      <trkpt lat="48.93705" lon="7.88424">
        <ele>153.47</ele>
        <time>2021-07-19T22:35:35Z</time>
      </trkpt>
      <trkpt lat="48.93726" lon="7.8843">
        <ele>152.99</ele>
        <time>2021-07-19T22:35:43Z</time>
      </trkpt>
      <trkpt lat="48.9373" lon="7.8843">
        <ele>151.54</ele>
        <time>2021-07-19T22:36:04Z</time>
      </trkpt>
      <trkpt lat="48.93733" lon="7.88431">
        <ele>151.06</ele>
        <time>2021-07-19T22:36:05Z</time>
      </trkpt>
      <trkpt lat="48.93736" lon="7.88443">
        <ele>151.06</ele>
        <time>2021-07-19T22:36:06Z</time>
      </trkpt>
      <trkpt lat="48.9371" lon="7.8853">
        <ele>148.66</ele>
        <time>2021-07-19T22:36:15Z</time>
      </trkpt>
      <trkpt lat="48.93657" lon="7.88698">
        <ele>148.66</ele>
        <time>2021-07-19T22:36:25Z</time>
      </trkpt>
      <trkpt lat="48.93639" lon="7.88751">
        <ele>148.66</ele>
        <time>2021-07-19T22:36:29Z</time>
      </trkpt>
      <trkpt lat="48.93634" lon="7.88764">
        <ele>148.66</ele>
        <time>2021-07-19T22:36:30Z</time>
      </trkpt>
      <trkpt lat="48.93567" lon="7.88903">
        <ele>149.14</ele>
        <time>2021-07-19T22:36:40Z</time>
      </trkpt>
      <trkpt lat="48.93492" lon="7.89034">
        <ele>149.62</ele>
        <time>2021-07-19T22:36:51Z</time>
      </trkpt>
      <trkpt lat="48.93478" lon="7.89058">
        <ele>151.06</ele>
        <time>2021-07-19T22:36:54Z</time>
      </trkpt>
      <trkpt lat="48.93466" lon="7.89065">
        <ele>151.54</ele>
        <time>2021-07-19T22:36:56Z</time>
      </trkpt>
      <trkpt lat="48.93461" lon="7.89065">
        <ele>152.03</ele>
        <time>2021-07-19T22:36:57Z</time>
      </trkpt>
      <trkpt lat="48.93457" lon="7.89075">
        <ele>152.03</ele>
        <time>2021-07-19T22:36:58Z</time>
      </trkpt>
      <trkpt lat="48.93457" lon="7.89078">
        <ele>152.51</ele>
        <time>2021-07-19T22:36:59Z</time>
      </trkpt>
      <trkpt lat="48.93459" lon="7.89083">
        <ele>152.03</ele>
        <time>2021-07-19T22:37:00Z</time>
      </trkpt>
      <trkpt lat="48.9346" lon="7.89088">
        <ele>152.03</ele>
        <time>2021-07-19T22:37:01Z</time>
      </trkpt>
      <trkpt lat="48.93462" lon="7.8909">
        <ele>151.54</ele>
        <time>2021-07-19T22:37:02Z</time>
      </trkpt>
      <trkpt lat="48.93466" lon="7.89092">
        <ele>150.58</ele>
        <time>2021-07-19T22:37:03Z</time>
      </trkpt>
      <trkpt lat="48.93471" lon="7.89091">
        <ele>150.1</ele>
        <time>2021-07-19T22:37:04Z</time>
      </trkpt>
      <trkpt lat="48.93475" lon="7.89084">
        <ele>149.14</ele>
        <time>2021-07-19T22:37:05Z</time>
      </trkpt>
      <trkpt lat="48.93478" lon="7.89076">
        <ele>148.66</ele>
        <time>2021-07-19T22:37:06Z</time>
      </trkpt>
      <trkpt lat="48.93478" lon="7.89076">
        <ele>148.18</ele>
        <time>2021-07-19T22:37:07Z</time>
      </trkpt>
      <trkpt lat="48.93479" lon="7.89056">
        <ele>147.7</ele>
        <time>2021-07-19T22:37:08Z</time>
      </trkpt>
      <trkpt lat="48.93489" lon="7.89039">
        <ele>147.7</ele>
        <time>2021-07-19T22:37:09Z</time>
      </trkpt>
      <trkpt lat="48.93557" lon="7.8892">
        <ele>147.7</ele>
        <time>2021-07-19T22:37:20Z</time>
      </trkpt>
      <trkpt lat="48.93627" lon="7.88784">
        <ele>148.66</ele>
        <time>2021-07-19T22:37:31Z</time>
      </trkpt>
      <trkpt lat="48.93636" lon="7.8876">
        <ele>149.14</ele>
        <time>2021-07-19T22:37:33Z</time>
      </trkpt>
      <trkpt lat="48.93684" lon="7.88614">
        <ele>148.66</ele>
        <time>2021-07-19T22:37:43Z</time>
      </trkpt>
      <trkpt lat="48.9373" lon="7.88464">
        <ele>150.1</ele>
        <time>2021-07-19T22:37:55Z</time>
      </trkpt>
      <trkpt lat="48.93734" lon="7.88452">
        <ele>149.62</ele>
        <time>2021-07-19T22:38:02Z</time>
      </trkpt>
      <trkpt lat="48.93737" lon="7.8844">
        <ele>149.62</ele>
        <time>2021-07-19T22:38:07Z</time>
      </trkpt>
      <trkpt lat="48.93739" lon="7.88436">
        <ele>149.14</ele>
        <time>2021-07-19T22:38:08Z</time>
      </trkpt>
      <trkpt lat="48.93734" lon="7.88431">
        <ele>149.14</ele>
        <time>2021-07-19T22:38:09Z</time>
      </trkpt>
      <trkpt lat="48.9373" lon="7.8843">
        <ele>149.62</ele>
        <time>2021-07-19T22:38:10Z</time>
      </trkpt>
      <trkpt lat="48.93725" lon="7.88429">
        <ele>149.62</ele>
        <time>2021-07-19T22:38:11Z</time>
      </trkpt>
      <trkpt lat="48.9372" lon="7.88428">
        <ele>149.14</ele>
        <time>2021-07-19T22:38:12Z</time>
      </trkpt>
      <trkpt lat="48.93714" lon="7.88427">
        <ele>149.14</ele>
        <time>2021-07-19T22:38:13Z</time>
      </trkpt>
      <trkpt lat="48.93708" lon="7.88425">
        <ele>149.14</ele>
        <time>2021-07-19T22:38:14Z</time>
      </trkpt>
      <trkpt lat="48.9361" lon="7.88417">
        <ele>148.18</ele>
        <time>2021-07-19T22:38:30Z</time>
      </trkpt>
      <trkpt lat="48.93576" lon="7.88415">
        <ele>148.18</ele>
        <time>2021-07-19T22:38:38Z</time>
      </trkpt>
      <trkpt lat="48.93572" lon="7.88415">
        <ele>148.18</ele>
        <time>2021-07-19T22:38:39Z</time>
      </trkpt>
      <trkpt lat="48.93568" lon="7.88414">
        <ele>148.18</ele>
        <time>2021-07-19T22:38:40Z</time>
      </trkpt>
      <trkpt lat="48.93566" lon="7.88414">
        <ele>147.7</ele>
        <time>2021-07-19T22:38:41Z</time>
      </trkpt>
      <trkpt lat="48.93564" lon="7.88414">
        <ele>148.18</ele>
        <time>2021-07-19T22:38:42Z</time>
      </trkpt>
      <trkpt lat="48.93565" lon="7.88381">
        <ele>149.14</ele>
        <time>2021-07-19T22:38:44Z</time>
      </trkpt>
      <trkpt lat="48.93576" lon="7.88344">
        <ele>148.66</ele>
        <time>2021-07-19T22:38:53Z</time>
      </trkpt>
      <trkpt lat="48.93586" lon="7.88278">
        <ele>148.18</ele>
        <time>2021-07-19T22:39:05Z</time>
      </trkpt>
      <trkpt lat="48.93589" lon="7.88251">
        <ele>148.66</ele>
        <time>2021-07-19T22:39:14Z</time>
      </trkpt>
      <trkpt lat="48.936" lon="7.88248">
        <ele>147.7</ele>
        <time>2021-07-19T22:39:23Z</time>
      </trkpt>
      <trkpt lat="48.93601" lon="7.88248">
        <ele>147.22</ele>
        <time>2021-07-19T22:39:27Z</time>
      </trkpt>
      <trkpt lat="48.93606" lon="7.88239">
        <ele>147.7</ele>
        <time>2021-07-19T22:39:31Z</time>
      </trkpt>
      <trkpt lat="48.93608" lon="7.88224">
        <ele>148.66</ele>
        <time>2021-07-19T22:39:42Z</time>
      </trkpt>
      <trkpt lat="48.93603" lon="7.88218">
        <ele>149.14</ele>
        <time>2021-07-19T22:39:53Z</time>
      </trkpt>
      <trkpt lat="48.93603" lon="7.88219">
        <ele>149.14</ele>
        <time>2021-07-19T22:40:06Z</time>
      </trkpt>
      <trkpt lat="48.93602" lon="7.88218">
        <ele>149.14</ele>
        <time>2021-07-19T22:42:09Z</time>
      </trkpt>
      <trkpt lat="48.93602" lon="7.88217">
        <ele>149.14</ele>
        <time>2021-07-19T22:45:13Z</time>
      </trkpt>
      <trkpt lat="48.93602" lon="7.88218">
        <ele>149.14</ele>
        <time>2021-07-19T22:47:22Z</time>
      </trkpt>
      <trkpt lat="48.93602" lon="7.88217">
        <ele>149.14</ele>
        <time>2021-07-19T22:50:18Z</time>
      </trkpt>
      <trkpt lat="48.93601" lon="7.88217">
        <ele>149.14</ele>
        <time>2021-07-19T22:55:42Z</time>
      </trkpt>
      <trkpt lat="48.936" lon="7.88217">
        <ele>149.14</ele>
        <time>2021-07-19T23:01:29Z</time>
      </trkpt>
      <trkpt lat="48.936" lon="7.88216">
        <ele>149.62</ele>
        <time>2021-07-19T23:07:56Z</time>
      </trkpt>
      <trkpt lat="48.93601" lon="7.88217">
        <ele>150.1</ele>
        <time>2021-07-19T23:14:09Z</time>
      </trkpt>
      <trkpt lat="48.93601" lon="7.88217">
        <ele>150.58</ele>
        <time>2021-07-19T23:16:40Z</time>
      </trkpt>
      <trkpt lat="48.93602" lon="7.88217">
        <ele>151.06</ele>
        <time>2021-07-19T23:19:09Z</time>
      </trkpt>
      <trkpt lat="48.93603" lon="7.88219">
        <ele>151.06</ele>
        <time>2021-07-19T23:23:10Z</time>
      </trkpt>
      <trkpt lat="48.93603" lon="7.88218">
        <ele>151.54</ele>
        <time>2021-07-19T23:26:20Z</time>
      </trkpt>
    </trkseg>
  </trk>
</gpx>